Time,TemperatureF,DewpointF,PressureIn,WindDirection,WindDirectionDegrees,WindSpeedMPH,WindSpeedGustMPH,Humidity,HourlyPrecipIn,Conditions,Clouds,dailyrainin,SoftwareType,DateUTC
2013-01-15 00:00:00,64.4,60.8,30.14,WSW,242,3.0,3.0,88,0.00,,---,0.00,VWS V14.01,2013-01-15 05:00:00,
2013-01-15 00:01:00,64.4,60.8,30.14,SSW,211,1.0,4.0,88,0.00,,---,0.00,VWS V14.01,2013-01-15 05:01:00,
2013-01-15 00:02:00,64.4,60.8,30.14,SSW,192,2.0,4.0,88,0.00,,---,0.00,VWS V14.01,2013-01-15 05:02:00,
2013-01-15 00:03:00,64.4,60.8,30.14,SW,219,3.0,3.0,88,0.00,,---,0.00,VWS V14.01,2013-01-15 05:03:00,
2013-01-15 00:04:00,64.4,60.8,30.14,SSW,199,3.0,4.0,88,0.00,,---,0.00,VWS V14.01,2013-01-15 05:04:00,
2013-01-15 00:05:00,64.4,60.8,30.14,WSW,249,2.0,4.0,88,0.00,,---,0.00,VWS V14.01,2013-01-15 05:05:00,
2013-01-15 00:06:00,64.4,60.8,30.14,SSE,163,3.0,4.0,88,0.00,,---,0.00,VWS V14.01,2013-01-15 05:06:00,
2013-01-15 00:07:00,64.4,60.8,30.14,SW,214,0.0,2.0,88,0.00,,---,0.00,VWS V14.01,2013-01-15 05:07:00,
2013-01-15 00:08:00,64.3,60.7,30.14,SSW,203,3.0,4.0,88,0.00,,---,0.00,VWS V14.01,2013-01-15 05:08:00,
2013-01-15 00:09:00,64.3,60.7,30.14,South,173,3.0,3.0,88,0.00,,---,0.00,VWS V14.01,2013-01-15 05:09:00,
2013-01-15 00:10:00,64.3,60.7,30.14,SSW,199,2.0,3.0,88,0.00,,---,0.00,VWS V14.01,2013-01-15 05:10:00,
2013-01-15 00:11:00,64.3,60.7,30.14,SSW,211,2.0,2.0,88,0.00,,---,0.00,VWS V14.01,2013-01-15 05:11:00,
2013-01-15 00:12:00,64.3,60.7,30.14,SW,218,1.0,3.0,88,0.00,,---,0.00,VWS V14.01,2013-01-15 05:12:00,
2013-01-15 00:13:00,64.3,60.7,30.14,SW,233,0.0,2.0,88,0.00,,---,0.00,VWS V14.01,2013-01-15 05:13:00,
2013-01-15 00:14:00,64.3,60.7,30.14,SSW,192,3.0,5.0,88,0.00,,---,0.00,VWS V14.01,2013-01-15 05:14:00,
2013-01-15 00:15:00,64.3,60.7,30.14,SSW,209,1.0,3.0,88,0.00,,---,0.00,VWS V14.01,2013-01-15 05:15:00,
2013-01-15 00:16:00,64.3,60.7,30.14,SW,217,3.0,4.0,88,0.00,,---,0.00,VWS V14.01,2013-01-15 05:16:00,
2013-01-15 00:17:00,64.3,60.7,30.14,SSE,159,1.0,4.0,88,0.00,,---,0.00,VWS V14.01,2013-01-15 05:17:00,
2013-01-15 00:19:00,64.3,60.7,30.14,SW,215,2.0,3.0,88,0.00,,---,0.00,VWS V14.01,2013-01-15 05:19:00,
2013-01-15 00:20:00,64.3,60.7,30.14,South,183,2.0,2.0,88,0.00,,---,0.00,VWS V14.01,2013-01-15 05:20:00,
2013-01-15 00:21:00,64.3,60.7,30.14,SW,215,1.0,2.0,88,0.00,,---,0.00,VWS V14.01,2013-01-15 05:21:00,
2013-01-15 00:22:00,64.3,60.7,30.14,South,174,3.0,3.0,88,0.00,,---,0.00,VWS V14.01,2013-01-15 05:22:00,
2013-01-15 00:23:00,64.2,60.6,30.14,South,188,2.0,3.0,88,0.00,,---,0.00,VWS V14.01,2013-01-15 05:23:00,
2013-01-15 00:24:00,64.2,60.6,30.14,SW,233,2.0,2.0,88,0.00,,---,0.00,VWS V14.01,2013-01-15 05:24:00,
2013-01-15 00:25:00,64.2,60.6,30.14,SW,221,2.0,2.0,88,0.00,,---,0.00,VWS V14.01,2013-01-15 05:25:00,
2013-01-15 00:26:00,64.2,60.6,30.14,SW,225,2.0,2.0,88,0.00,,---,0.00,VWS V14.01,2013-01-15 05:26:00,
2013-01-15 00:27:00,64.1,60.5,30.14,SSW,209,2.0,2.0,88,0.00,,---,0.00,VWS V14.01,2013-01-15 05:27:00,
2013-01-15 00:28:00,64.1,60.5,30.14,SW,226,0.0,2.0,88,0.00,,---,0.00,VWS V14.01,2013-01-15 05:28:00,
2013-01-15 00:29:00,64.1,60.5,30.15,SW,221,2.0,2.0,88,0.00,,---,0.00,VWS V14.01,2013-01-15 05:29:00,
2013-01-15 00:30:00,64.1,60.5,30.15,SSW,203,1.0,2.0,88,0.00,,---,0.00,VWS V14.01,2013-01-15 05:30:00,
2013-01-15 00:31:00,64.1,60.5,30.15,SW,214,1.0,1.0,88,0.00,,---,0.00,VWS V14.01,2013-01-15 05:31:00,
2013-01-15 00:32:00,64.0,60.4,30.15,SW,233,1.0,1.0,88,0.00,,---,0.00,VWS V14.01,2013-01-15 05:32:00,
2013-01-15 00:33:00,64.1,60.8,30.15,SW,225,1.0,1.0,89,0.00,,---,0.00,VWS V14.01,2013-01-15 05:33:00,
2013-01-15 00:34:00,64.1,60.8,30.15,SW,225,0.0,1.0,89,0.00,,---,0.00,VWS V14.01,2013-01-15 05:34:00,
2013-01-15 00:35:00,64.1,60.8,30.15,SW,236,1.0,2.0,89,0.00,,---,0.00,VWS V14.01,2013-01-15 05:35:00,
2013-01-15 00:36:00,64.1,60.8,30.15,SW,236,2.0,2.0,89,0.00,,---,0.00,VWS V14.01,2013-01-15 05:36:00,
2013-01-15 00:37:00,64.1,60.8,30.15,SW,222,2.0,2.0,89,0.00,,---,0.00,VWS V14.01,2013-01-15 05:37:00,
2013-01-15 00:38:00,64.1,60.8,30.15,SSW,205,3.0,3.0,89,0.00,,---,0.00,VWS V14.01,2013-01-15 05:38:00,
2013-01-15 00:39:00,64.1,60.8,30.15,SSW,205,0.0,3.0,89,0.00,,---,0.00,VWS V14.01,2013-01-15 05:39:00,
2013-01-15 00:40:00,64.1,60.8,30.15,SSW,202,1.0,2.0,89,0.00,,---,0.00,VWS V14.01,2013-01-15 05:40:00,
2013-01-15 00:41:00,64.1,60.8,30.15,SW,229,2.0,2.0,89,0.00,,---,0.00,VWS V14.01,2013-01-15 05:41:00,
2013-01-15 00:42:00,64.1,60.8,30.15,SW,233,2.0,3.0,89,0.00,,---,0.00,VWS V14.01,2013-01-15 05:42:00,
2013-01-15 00:43:00,64.2,60.6,30.15,WSW,246,2.0,3.0,88,0.00,,---,0.00,VWS V14.01,2013-01-15 05:43:00,
2013-01-15 00:44:00,64.2,60.6,30.15,SSW,211,0.0,2.0,88,0.00,,---,0.00,VWS V14.01,2013-01-15 05:44:00,
2013-01-15 00:45:00,64.2,60.6,30.15,SW,221,1.0,2.0,88,0.00,,---,0.00,VWS V14.01,2013-01-15 05:45:00,
2013-01-15 00:46:00,64.2,60.6,30.15,WSW,241,1.0,2.0,88,0.00,,---,0.00,VWS V14.01,2013-01-15 05:46:00,
2013-01-15 00:47:00,64.2,60.6,30.15,WSW,246,1.0,2.0,88,0.00,,---,0.00,VWS V14.01,2013-01-15 05:47:00,
2013-01-15 00:48:00,64.2,60.6,30.15,South,172,2.0,2.0,88,0.00,,---,0.00,VWS V14.01,2013-01-15 05:48:00,
2013-01-15 00:49:00,64.2,60.6,30.15,SW,230,1.0,2.0,88,0.00,,---,0.00,VWS V14.01,2013-01-15 05:49:00,
2013-01-15 00:50:00,64.2,60.6,30.15,SW,230,0.0,1.0,88,0.00,,---,0.00,VWS V14.01,2013-01-15 05:50:00,
2013-01-15 00:51:00,64.2,60.6,30.16,SW,236,1.0,1.0,88,0.00,,---,0.00,VWS V14.01,2013-01-15 05:51:00,
2013-01-15 00:52:00,64.2,60.6,30.16,WSW,249,3.0,4.0,88,0.00,,---,0.00,VWS V14.01,2013-01-15 05:52:00,
2013-01-15 00:53:00,64.3,60.7,30.16,West,260,1.0,3.0,88,0.00,,---,0.00,VWS V14.01,2013-01-15 05:53:00,
2013-01-15 00:54:00,64.3,60.7,30.16,West,260,1.0,1.0,88,0.00,,---,0.00,VWS V14.01,2013-01-15 05:54:00,
2013-01-15 00:55:00,64.3,60.7,30.16,West,260,0.0,1.0,88,0.00,,---,0.00,VWS V14.01,2013-01-15 05:55:00,
2013-01-15 00:56:00,64.3,60.7,30.16,WSW,244,0.0,1.0,88,0.00,,---,0.00,VWS V14.01,2013-01-15 05:56:00,
2013-01-15 00:57:00,64.3,60.7,30.16,WSW,244,0.0,0.0,88,0.00,,---,0.00,VWS V14.01,2013-01-15 05:57:00,
2013-01-15 00:58:00,64.3,60.7,30.16,WSW,244,1.0,1.0,88,0.00,,---,0.00,VWS V14.01,2013-01-15 05:58:00,
2013-01-15 00:59:00,64.3,60.7,30.16,SW,236,1.0,1.0,88,0.00,,---,0.00,VWS V14.01,2013-01-15 05:59:00,
2013-01-15 01:00:00,64.3,60.7,30.16,SSW,205,0.0,1.0,88,0.00,,---,0.00,VWS V14.01,2013-01-15 06:00:00,
2013-01-15 01:01:00,64.3,60.7,30.16,SSW,205,0.0,1.0,88,0.00,,---,0.00,VWS V14.01,2013-01-15 06:01:00,
2013-01-15 01:02:00,64.3,60.7,30.16,SW,214,0.0,1.0,88,0.00,,---,0.00,VWS V14.01,2013-01-15 06:02:00,
2013-01-15 01:03:00,64.3,60.7,30.16,SW,236,1.0,1.0,88,0.00,,---,0.00,VWS V14.01,2013-01-15 06:03:00,
2013-01-15 01:04:00,64.3,60.7,30.16,SW,236,0.0,1.0,88,0.00,,---,0.00,VWS V14.01,2013-01-15 06:04:00,
2013-01-15 01:05:00,64.3,60.7,30.16,SW,236,0.0,1.0,88,0.00,,---,0.00,VWS V14.01,2013-01-15 06:05:00,
2013-01-15 01:06:00,64.2,60.6,30.16,SW,236,0.0,1.0,88,0.00,,---,0.00,VWS V14.01,2013-01-15 06:06:00,
2013-01-15 01:07:00,64.3,60.7,30.16,West,264,1.0,2.0,88,0.00,,---,0.00,VWS V14.01,2013-01-15 06:07:00,
2013-01-15 01:08:00,64.3,60.7,30.16,NNE,12,1.0,2.0,88,0.00,,---,0.00,VWS V14.01,2013-01-15 06:08:00,
2013-01-15 01:09:00,64.2,60.6,30.16,NNE,12,2.0,2.0,88,0.00,,---,0.00,VWS V14.01,2013-01-15 06:09:00,
2013-01-15 01:10:00,64.3,60.7,30.16,NNE,27,3.0,3.0,88,0.00,,---,0.00,VWS V14.01,2013-01-15 06:10:00,
2013-01-15 01:11:00,64.3,60.7,30.16,NNE,27,3.0,3.0,88,0.00,,---,0.00,VWS V14.01,2013-01-15 06:11:00,
2013-01-15 01:12:00,64.3,60.7,30.16,NNE,27,3.0,3.0,88,0.00,,---,0.00,VWS V14.01,2013-01-15 06:12:00,
2013-01-15 01:13:00,64.3,60.7,30.16,NNE,20,3.0,4.0,88,0.00,,---,0.00,VWS V14.01,2013-01-15 06:13:00,
2013-01-15 01:14:00,64.3,60.7,30.16,NNE,26,3.0,4.0,88,0.00,,---,0.00,VWS V14.01,2013-01-15 06:14:00,
2013-01-15 01:15:00,64.3,60.7,30.16,NNE,30,4.0,4.0,88,0.00,,---,0.00,VWS V14.01,2013-01-15 06:15:00,
2013-01-15 01:16:00,64.3,60.7,30.16,NE,34,4.0,5.0,88,0.00,,---,0.00,VWS V14.01,2013-01-15 06:16:00,
2013-01-15 01:17:00,64.3,60.7,30.16,NNE,26,3.0,5.0,88,0.00,,---,0.00,VWS V14.01,2013-01-15 06:17:00,
2013-01-15 01:18:00,64.3,60.7,30.16,NNE,27,2.0,3.0,88,0.00,,---,0.00,VWS V14.01,2013-01-15 06:18:00,
2013-01-15 01:19:00,64.3,60.7,30.16,NE,40,1.0,2.0,88,0.00,,---,0.00,VWS V14.01,2013-01-15 06:19:00,
2013-01-15 01:20:00,64.3,60.7,30.16,NE,40,0.0,2.0,88,0.00,,---,0.00,VWS V14.01,2013-01-15 06:20:00,
2013-01-15 01:21:00,64.3,60.7,30.16,NE,40,0.0,2.0,88,0.00,,---,0.00,VWS V14.01,2013-01-15 06:21:00,
2013-01-15 01:22:00,64.3,60.7,30.16,NE,42,1.0,1.0,88,0.00,,---,0.00,VWS V14.01,2013-01-15 06:22:00,
2013-01-15 01:23:00,64.3,60.7,30.16,NE,47,2.0,2.0,88,0.00,,---,0.00,VWS V14.01,2013-01-15 06:23:00,
2013-01-15 01:24:00,64.3,60.7,30.16,NE,47,1.0,2.0,88,0.00,,---,0.00,VWS V14.01,2013-01-15 06:24:00,
2013-01-15 01:25:00,64.2,60.6,30.16,NE,47,1.0,1.0,88,0.00,,---,0.00,VWS V14.01,2013-01-15 06:25:00,
2013-01-15 01:26:00,64.2,60.6,30.16,NE,47,1.0,1.0,88,0.00,,---,0.00,VWS V14.01,2013-01-15 06:26:00,
2013-01-15 01:27:00,64.2,60.6,30.16,NE,47,1.0,1.0,88,0.00,,---,0.00,VWS V14.01,2013-01-15 06:27:00,
2013-01-15 01:28:00,64.2,60.6,30.16,NE,47,1.0,1.0,88,0.00,,---,0.00,VWS V14.01,2013-01-15 06:28:00,
2013-01-15 01:29:00,64.2,60.6,30.16,NE,47,1.0,1.0,88,0.00,,---,0.00,VWS V14.01,2013-01-15 06:29:00,
2013-01-15 01:30:00,64.2,60.6,30.16,NE,47,1.0,1.0,88,0.00,,---,0.00,VWS V14.01,2013-01-15 06:30:00,
2013-01-15 01:31:00,64.2,60.6,30.16,NE,47,2.0,2.0,88,0.00,,---,0.00,VWS V14.01,2013-01-15 06:31:00,
2013-01-15 01:32:00,64.2,60.6,30.16,NE,47,1.0,2.0,88,0.00,,---,0.00,VWS V14.01,2013-01-15 06:32:00,
2013-01-15 01:33:00,64.2,60.6,30.16,NE,47,0.0,1.0,88,0.00,,---,0.00,VWS V14.01,2013-01-15 06:33:00,
2013-01-15 01:34:00,64.2,60.6,30.16,NE,47,1.0,2.0,88,0.00,,---,0.00,VWS V14.01,2013-01-15 06:34:00,
2013-01-15 01:35:00,64.2,60.6,30.16,NE,47,0.0,1.0,88,0.00,,---,0.00,VWS V14.01,2013-01-15 06:35:00,
2013-01-15 01:36:00,64.2,60.6,30.16,NE,47,1.0,1.0,88,0.00,,---,0.00,VWS V14.01,2013-01-15 06:36:00,
2013-01-15 01:37:00,64.2,60.6,30.16,NE,47,0.0,0.0,88,0.00,,---,0.00,VWS V14.01,2013-01-15 06:37:00,
2013-01-15 01:38:00,64.2,60.6,30.16,NE,47,1.0,1.0,88,0.00,,---,0.00,VWS V14.01,2013-01-15 06:38:00,
2013-01-15 01:39:00,64.2,60.6,30.16,NE,47,1.0,1.0,88,0.00,,---,0.00,VWS V14.01,2013-01-15 06:39:00,
2013-01-15 01:40:00,64.2,60.6,30.17,NE,47,1.0,2.0,88,0.00,,---,0.00,VWS V14.01,2013-01-15 06:40:00,
2013-01-15 01:41:00,64.2,60.6,30.17,NE,47,1.0,2.0,88,0.00,,---,0.00,VWS V14.01,2013-01-15 06:41:00,
2013-01-15 01:42:00,64.2,60.6,30.17,NE,47,1.0,1.0,88,0.00,,---,0.00,VWS V14.01,2013-01-15 06:42:00,
2013-01-15 01:43:00,64.2,60.6,30.17,NE,47,0.0,1.0,88,0.00,,---,0.00,VWS V14.01,2013-01-15 06:43:00,
2013-01-15 01:44:00,64.3,60.7,30.17,NE,47,0.0,0.0,88,0.00,,---,0.00,VWS V14.01,2013-01-15 06:44:00,
2013-01-15 01:45:00,64.3,60.7,30.17,NE,47,0.0,0.0,88,0.00,,---,0.00,VWS V14.01,2013-01-15 06:45:00,
2013-01-15 01:46:00,64.3,60.7,30.17,NE,47,1.0,1.0,88,0.00,,---,0.00,VWS V14.01,2013-01-15 06:46:00,
2013-01-15 01:47:00,64.2,60.6,30.17,NE,47,1.0,1.0,88,0.00,,---,0.00,VWS V14.01,2013-01-15 06:47:00,
2013-01-15 01:48:00,64.2,60.6,30.16,NE,47,1.0,1.0,88,0.00,,---,0.00,VWS V14.01,2013-01-15 06:48:00,
2013-01-15 01:49:00,64.2,60.6,30.16,NE,47,2.0,2.0,88,0.00,,---,0.00,VWS V14.01,2013-01-15 06:49:00,
2013-01-15 01:50:00,64.1,60.5,30.16,NE,45,3.0,3.0,88,0.00,,---,0.00,VWS V14.01,2013-01-15 06:50:00,
2013-01-15 01:51:00,64.1,60.5,30.16,NE,47,4.0,4.0,88,0.00,,---,0.00,VWS V14.01,2013-01-15 06:51:00,
2013-01-15 01:52:00,64.1,60.5,30.16,NE,50,3.0,4.0,88,0.00,,---,0.00,VWS V14.01,2013-01-15 06:52:00,
2013-01-15 01:53:00,64.2,60.9,30.16,NE,47,2.0,3.0,89,0.00,,---,0.00,VWS V14.01,2013-01-15 06:53:00,
2013-01-15 01:54:00,64.2,60.6,30.17,ENE,62,13.0,14.0,88,0.00,,---,0.00,VWS V14.01,2013-01-15 06:54:00,
2013-01-15 01:55:00,63.6,59.0,30.17,North,5,8.0,9.0,85,0.00,,---,0.00,VWS V14.01,2013-01-15 06:55:00,
2013-01-15 01:56:00,63.5,58.9,30.17,NNE,33,8.0,9.0,85,0.00,,---,0.00,VWS V14.01,2013-01-15 06:56:00,
2013-01-15 01:57:00,62.9,58.3,30.17,North,360,6.0,9.0,85,0.00,,---,0.00,VWS V14.01,2013-01-15 06:57:00,
2013-01-15 01:58:00,62.5,57.9,30.17,NNE,12,4.0,6.0,85,0.00,,---,0.00,VWS V14.01,2013-01-15 06:58:00,
2013-01-15 01:59:00,62.1,57.5,30.18,NNW,338,6.0,6.0,85,0.00,,---,0.00,VWS V14.01,2013-01-15 06:59:00,
2013-01-15 02:00:00,61.4,56.9,30.18,NNW,342,5.0,7.0,85,0.00,,---,0.00,VWS V14.01,2013-01-15 07:00:00,
2013-01-15 02:01:00,61.2,56.7,30.18,NW,325,4.0,7.0,85,0.00,,---,0.00,VWS V14.01,2013-01-15 07:01:00,
2013-01-15 02:02:00,60.9,56.7,30.18,NNE,32,6.0,6.0,86,0.00,,---,0.00,VWS V14.01,2013-01-15 07:02:00,
2013-01-15 02:03:00,60.5,56.0,30.18,NE,52,8.0,10.0,85,0.00,,---,0.00,VWS V14.01,2013-01-15 07:03:00,
2013-01-15 02:04:00,60.0,55.5,30.18,NNE,28,5.0,9.0,85,0.00,,---,0.00,VWS V14.01,2013-01-15 07:04:00,
2013-01-15 02:05:00,59.4,55.2,30.18,NNE,33,9.0,10.0,86,0.00,,---,0.00,VWS V14.01,2013-01-15 07:05:00,
2013-01-15 02:06:00,59.2,55.0,30.18,NNE,28,6.0,10.0,86,0.00,,---,0.00,VWS V14.01,2013-01-15 07:06:00,
2013-01-15 02:07:00,58.8,54.6,30.18,NNE,22,10.0,13.0,86,0.00,,---,0.00,VWS V14.01,2013-01-15 07:07:00,
2013-01-15 02:08:00,58.4,54.2,30.18,NNE,15,8.0,12.0,86,0.00,,---,0.00,VWS V14.01,2013-01-15 07:08:00,
2013-01-15 02:09:00,58.2,54.0,30.18,NNE,24,10.0,10.0,86,0.00,,---,0.00,VWS V14.01,2013-01-15 07:09:00,
2013-01-15 02:10:00,57.6,53.8,30.18,North,360,11.0,11.0,87,0.00,,---,0.00,VWS V14.01,2013-01-15 07:10:00,
2013-01-15 02:11:00,57.4,53.6,30.18,NE,35,8.0,11.0,87,0.00,,---,0.00,VWS V14.01,2013-01-15 07:11:00,
2013-01-15 02:12:00,57.2,53.7,30.18,North,5,6.0,9.0,88,0.00,,---,0.00,VWS V14.01,2013-01-15 07:12:00,
2013-01-15 02:13:00,57.0,53.5,30.18,NNE,32,9.0,9.0,88,0.00,,---,0.00,VWS V14.01,2013-01-15 07:13:00,
2013-01-15 02:14:00,56.8,53.3,30.18,NE,34,8.0,10.0,88,0.00,,---,0.00,VWS V14.01,2013-01-15 07:14:00,
2013-01-15 02:15:00,56.4,52.9,30.18,NE,47,4.0,5.0,88,0.00,,---,0.00,VWS V14.01,2013-01-15 07:15:00,
2013-01-15 02:16:00,56.4,52.9,30.18,ENE,58,4.0,5.0,88,0.00,,---,0.00,VWS V14.01,2013-01-15 07:16:00,
2013-01-15 02:17:00,56.2,53.0,30.18,NNE,32,5.0,6.0,89,0.00,,---,0.00,VWS V14.01,2013-01-15 07:17:00,
2013-01-15 02:18:00,56.1,53.2,30.18,NE,53,8.0,10.0,90,0.00,,---,0.00,VWS V14.01,2013-01-15 07:18:00,
2013-01-15 02:19:00,56.1,53.2,30.18,NE,48,6.0,8.0,90,0.00,,---,0.00,VWS V14.01,2013-01-15 07:19:00,
2013-01-15 02:20:00,56.0,53.4,30.18,NE,44,7.0,7.0,91,0.00,,---,0.00,VWS V14.01,2013-01-15 07:20:00,
2013-01-15 02:21:00,56.0,53.4,30.18,NE,50,12.0,12.0,91,0.00,,---,0.00,VWS V14.01,2013-01-15 07:21:00,
2013-01-15 02:22:00,55.9,53.3,30.18,NE,48,6.0,12.0,91,0.00,,---,0.00,VWS V14.01,2013-01-15 07:22:00,
2013-01-15 02:23:00,55.9,53.3,30.18,ENE,63,5.0,8.0,91,0.00,,---,0.00,VWS V14.01,2013-01-15 07:23:00,
2013-01-15 02:24:00,55.8,53.2,30.18,ENE,57,4.0,7.0,91,0.00,,---,0.00,VWS V14.01,2013-01-15 07:24:00,
2013-01-15 02:25:00,55.8,53.2,30.18,NE,39,4.0,5.0,91,0.00,,---,0.00,VWS V14.01,2013-01-15 07:25:00,
2013-01-15 02:26:00,55.8,53.2,30.18,NE,46,7.0,7.0,91,0.00,,---,0.00,VWS V14.01,2013-01-15 07:26:00,
2013-01-15 02:27:00,55.7,53.1,30.18,ENE,59,8.0,8.0,91,0.00,,---,0.00,VWS V14.01,2013-01-15 07:27:00,
2013-01-15 02:28:00,55.6,53.0,30.18,ENE,64,10.0,11.0,91,0.00,,---,0.00,VWS V14.01,2013-01-15 07:28:00,
2013-01-15 02:29:00,55.4,52.8,30.18,NE,50,9.0,10.0,91,0.00,,---,0.00,VWS V14.01,2013-01-15 07:29:00,
2013-01-15 02:30:00,55.2,52.6,30.18,NE,43,7.0,12.0,91,0.00,,---,0.00,VWS V14.01,2013-01-15 07:30:00,
2013-01-15 02:31:00,55.1,52.5,30.18,ENE,59,9.0,12.0,91,0.00,,---,0.00,VWS V14.01,2013-01-15 07:31:00,
2013-01-15 02:32:00,55.0,52.4,30.18,NE,49,10.0,10.0,91,0.00,,---,0.00,VWS V14.01,2013-01-15 07:32:00,
2013-01-15 02:33:00,54.8,52.2,30.19,NE,36,7.0,13.0,91,0.00,,---,0.00,VWS V14.01,2013-01-15 07:33:00,
2013-01-15 02:34:00,54.7,52.1,30.18,ENE,67,11.0,11.0,91,0.00,,---,0.00,VWS V14.01,2013-01-15 07:34:00,
2013-01-15 02:35:00,54.4,51.8,30.18,NE,38,10.0,11.0,91,0.00,,---,0.00,VWS V14.01,2013-01-15 07:35:00,
2013-01-15 02:36:00,54.3,51.7,30.18,NE,47,7.0,13.0,91,0.00,,---,0.00,VWS V14.01,2013-01-15 07:36:00,
2013-01-15 02:37:00,54.2,51.6,30.19,ENE,59,5.0,11.0,91,0.00,,---,0.00,VWS V14.01,2013-01-15 07:37:00,
2013-01-15 02:38:00,54.1,51.5,30.19,NE,51,9.0,14.0,91,0.00,,---,0.00,VWS V14.01,2013-01-15 07:38:00,
2013-01-15 02:39:00,54.0,51.4,30.19,NE,50,11.0,13.0,91,0.00,,---,0.00,VWS V14.01,2013-01-15 07:39:00,
2013-01-15 02:40:00,53.8,51.2,30.19,NE,55,9.0,9.0,91,0.00,,---,0.00,VWS V14.01,2013-01-15 07:40:00,
2013-01-15 02:41:00,53.7,51.4,30.19,NE,50,6.0,9.0,92,0.00,,---,0.00,VWS V14.01,2013-01-15 07:41:00,
2013-01-15 02:42:00,53.7,51.4,30.19,NNE,33,7.0,9.0,92,0.00,,---,0.00,VWS V14.01,2013-01-15 07:42:00,
2013-01-15 02:43:00,53.6,51.3,30.19,NNE,25,6.0,7.0,92,0.00,,---,0.00,VWS V14.01,2013-01-15 07:43:00,
2013-01-15 02:44:00,53.5,51.2,30.19,NE,36,5.0,7.0,92,0.00,,---,0.00,VWS V14.01,2013-01-15 07:44:00,
2013-01-15 02:45:00,53.5,51.2,30.19,NNE,29,6.0,8.0,92,0.00,,---,0.00,VWS V14.01,2013-01-15 07:45:00,
2013-01-15 02:46:00,53.4,51.1,30.19,NNE,28,3.0,8.0,92,0.00,,---,0.00,VWS V14.01,2013-01-15 07:46:00,
2013-01-15 02:47:00,53.4,51.1,30.19,NNE,23,9.0,9.0,92,0.00,,---,0.00,VWS V14.01,2013-01-15 07:47:00,
2013-01-15 02:48:00,53.3,51.0,30.19,NE,53,7.0,12.0,92,0.00,,---,0.00,VWS V14.01,2013-01-15 07:48:00,
2013-01-15 02:49:00,53.2,50.9,30.19,ENE,58,9.0,10.0,92,0.00,,---,0.00,VWS V14.01,2013-01-15 07:49:00,
2013-01-15 02:50:00,53.1,50.8,30.19,NE,38,9.0,12.0,92,0.00,,---,0.00,VWS V14.01,2013-01-15 07:50:00,
2013-01-15 02:51:00,53.0,50.7,30.19,NE,51,9.0,12.0,92,0.00,,---,0.00,VWS V14.01,2013-01-15 07:51:00,
2013-01-15 02:52:00,52.9,50.6,30.19,NE,34,9.0,10.0,92,0.00,,---,0.00,VWS V14.01,2013-01-15 07:52:00,
2013-01-15 02:53:00,52.8,50.5,30.19,NE,53,7.0,15.0,92,0.00,,---,0.00,VWS V14.01,2013-01-15 07:53:00,
2013-01-15 02:54:00,52.6,50.3,30.19,NE,36,8.0,13.0,92,0.00,,---,0.00,VWS V14.01,2013-01-15 07:54:00,
2013-01-15 02:55:00,52.4,50.2,30.19,NE,43,8.0,11.0,92,0.00,,---,0.00,VWS V14.01,2013-01-15 07:55:00,
2013-01-15 02:56:00,52.4,50.2,30.19,NE,43,8.0,11.0,92,0.00,,---,0.00,VWS V14.01,2013-01-15 07:56:00,
2013-01-15 02:57:00,52.2,50.0,30.19,NNE,29,6.0,10.0,92,0.00,,---,0.00,VWS V14.01,2013-01-15 07:57:00,
2013-01-15 02:58:00,52.1,49.8,30.19,NE,48,8.0,14.0,92,0.00,,---,0.00,VWS V14.01,2013-01-15 07:58:00,
2013-01-15 02:59:00,52.0,49.8,30.19,ENE,65,10.0,10.0,92,0.00,,---,0.00,VWS V14.01,2013-01-15 07:59:00,
2013-01-15 03:00:00,51.8,49.5,30.19,ENE,58,13.0,13.0,92,0.00,,---,0.00,VWS V14.01,2013-01-15 08:00:00,
2013-01-15 03:01:00,51.8,49.6,30.19,NE,49,12.0,13.0,92,0.00,,---,0.00,VWS V14.01,2013-01-15 08:01:00,
2013-01-15 03:02:00,51.7,49.5,30.20,NE,42,8.0,12.0,92,0.00,,---,0.00,VWS V14.01,2013-01-15 08:02:00,
2013-01-15 03:03:00,51.6,49.7,30.20,NE,42,7.0,12.0,93,0.00,,---,0.00,VWS V14.01,2013-01-15 08:03:00,
2013-01-15 03:04:00,51.6,49.7,30.20,NE,36,9.0,11.0,93,0.00,,---,0.00,VWS V14.01,2013-01-15 08:04:00,
2013-01-15 03:05:00,51.5,49.5,30.20,NNE,22,8.0,9.0,93,0.00,,---,0.00,VWS V14.01,2013-01-15 08:05:00,
2013-01-15 03:06:00,51.4,49.5,30.20,NNE,18,8.0,11.0,93,0.00,,---,0.00,VWS V14.01,2013-01-15 08:06:00,
2013-01-15 03:07:00,51.3,49.3,30.20,NE,47,7.0,11.0,93,0.00,,---,0.00,VWS V14.01,2013-01-15 08:07:00,
2013-01-15 03:08:00,51.3,49.3,30.20,NE,39,5.0,7.0,93,0.00,,---,0.00,VWS V14.01,2013-01-15 08:08:00,
2013-01-15 03:09:00,51.2,49.2,30.20,NE,42,11.0,11.0,93,0.00,,---,0.00,VWS V14.01,2013-01-15 08:09:00,
2013-01-15 03:10:00,51.1,49.2,30.20,NE,39,12.0,16.0,93,0.00,,---,0.00,VWS V14.01,2013-01-15 08:10:00,
2013-01-15 03:11:00,51.0,49.0,30.20,NE,49,11.0,16.0,93,0.00,,---,0.00,VWS V14.01,2013-01-15 08:11:00,
2013-01-15 03:12:00,50.9,49.0,30.20,NE,48,7.0,12.0,93,0.00,,---,0.00,VWS V14.01,2013-01-15 08:12:00,
2013-01-15 03:13:00,50.8,48.8,30.20,NE,47,8.0,10.0,93,0.00,,---,0.00,VWS V14.01,2013-01-15 08:13:00,
2013-01-15 03:14:00,50.8,48.8,30.20,ENE,61,5.0,10.0,93,0.00,,---,0.00,VWS V14.01,2013-01-15 08:14:00,
2013-01-15 03:15:00,50.6,48.7,30.20,ENE,63,8.0,12.0,93,0.00,,---,0.00,VWS V14.01,2013-01-15 08:15:00,
2013-01-15 03:16:00,50.6,48.7,30.20,NE,46,7.0,12.0,93,0.00,,---,0.00,VWS V14.01,2013-01-15 08:16:00,
2013-01-15 03:17:00,50.6,48.7,30.19,ENE,68,8.0,11.0,93,0.00,,---,0.00,VWS V14.01,2013-01-15 08:17:00,
2013-01-15 03:18:00,50.5,48.6,30.19,NNE,31,11.0,11.0,93,0.00,,---,0.00,VWS V14.01,2013-01-15 08:18:00,
2013-01-15 03:19:00,50.5,48.6,30.19,ENE,67,12.0,12.0,93,0.00,,---,0.00,VWS V14.01,2013-01-15 08:19:00,
2013-01-15 03:20:00,50.4,48.5,30.19,NNE,13,7.0,8.0,93,0.00,,---,0.00,VWS V14.01,2013-01-15 08:20:00,
2013-01-15 03:21:00,50.4,48.7,30.19,NE,44,5.0,8.0,94,0.00,,---,0.00,VWS V14.01,2013-01-15 08:21:00,
2013-01-15 03:22:00,50.3,48.6,30.19,NE,42,6.0,7.0,94,0.00,,---,0.00,VWS V14.01,2013-01-15 08:22:00,
2013-01-15 03:23:00,50.3,48.6,30.19,NE,48,5.0,10.0,94,0.00,,---,0.00,VWS V14.01,2013-01-15 08:23:00,
2013-01-15 03:24:00,50.3,48.6,30.19,NE,46,7.0,7.0,94,0.00,,---,0.00,VWS V14.01,2013-01-15 08:24:00,
2013-01-15 03:25:00,50.3,48.6,30.19,ENE,63,10.0,11.0,94,0.00,,---,0.00,VWS V14.01,2013-01-15 08:25:00,
2013-01-15 03:26:00,50.3,48.6,30.19,NE,38,7.0,11.0,94,0.00,,---,0.00,VWS V14.01,2013-01-15 08:26:00,
2013-01-15 03:27:00,50.2,48.5,30.19,NNE,31,8.0,11.0,94,0.00,,---,0.00,VWS V14.01,2013-01-15 08:27:00,
2013-01-15 03:28:00,50.2,48.5,30.19,NE,50,7.0,9.0,94,0.00,,---,0.00,VWS V14.01,2013-01-15 08:28:00,
2013-01-15 03:29:00,50.2,48.5,30.19,NE,38,4.0,7.0,94,0.00,,---,0.00,VWS V14.01,2013-01-15 08:29:00,
2013-01-15 03:30:00,50.1,48.4,30.19,NE,46,3.0,4.0,94,0.00,,---,0.00,VWS V14.01,2013-01-15 08:30:00,
2013-01-15 03:31:00,50.1,48.4,30.19,NE,42,4.0,4.0,94,0.00,,---,0.00,VWS V14.01,2013-01-15 08:31:00,
2013-01-15 03:32:00,50.1,48.4,30.19,NE,53,4.0,7.0,94,0.00,,---,0.00,VWS V14.01,2013-01-15 08:32:00,
2013-01-15 03:33:00,50.1,48.4,30.19,NE,43,9.0,11.0,94,0.00,,---,0.00,VWS V14.01,2013-01-15 08:33:00,
2013-01-15 03:34:00,50.1,48.4,30.19,NE,48,6.0,9.0,94,0.00,,---,0.00,VWS V14.01,2013-01-15 08:34:00,
2013-01-15 03:35:00,50.1,48.4,30.19,NE,42,13.0,13.0,94,0.00,,---,0.00,VWS V14.01,2013-01-15 08:35:00,
2013-01-15 03:36:00,50.1,48.4,30.19,NE,42,11.0,13.0,94,0.00,,---,0.00,VWS V14.01,2013-01-15 08:36:00,
2013-01-15 03:37:00,50.1,48.4,30.19,ENE,61,8.0,13.0,94,0.00,,---,0.00,VWS V14.01,2013-01-15 08:37:00,
2013-01-15 03:38:00,50.1,48.4,30.19,NE,55,14.0,14.0,94,0.00,,---,0.00,VWS V14.01,2013-01-15 08:38:00,
2013-01-15 03:39:00,50.0,48.3,30.19,NE,42,13.0,15.0,94,0.00,,---,0.00,VWS V14.01,2013-01-15 08:39:00,
2013-01-15 03:40:00,49.9,48.2,30.19,ENE,71,15.0,15.0,94,0.00,,---,0.00,VWS V14.01,2013-01-15 08:40:00,
2013-01-15 03:41:00,49.9,48.2,30.19,ENE,69,10.0,15.0,94,0.00,,---,0.00,VWS V14.01,2013-01-15 08:41:00,
2013-01-15 03:42:00,49.8,48.2,30.19,ENE,69,15.0,15.0,94,0.00,,---,0.00,VWS V14.01,2013-01-15 08:42:00,
2013-01-15 03:43:00,49.7,48.0,30.19,ENE,70,9.0,15.0,94,0.00,,---,0.00,VWS V14.01,2013-01-15 08:43:00,
2013-01-15 03:44:00,49.6,48.0,30.19,ENE,64,12.0,15.0,94,0.00,,---,0.00,VWS V14.01,2013-01-15 08:44:00,
2013-01-15 03:45:00,49.5,47.8,30.19,ENE,71,13.0,17.0,94,0.00,,---,0.00,VWS V14.01,2013-01-15 08:45:00,
2013-01-15 03:46:00,49.5,47.8,30.19,ENE,61,9.0,17.0,94,0.00,,---,0.00,VWS V14.01,2013-01-15 08:46:00,
2013-01-15 03:47:00,49.5,47.8,30.19,ENE,76,14.0,14.0,94,0.00,,---,0.00,VWS V14.01,2013-01-15 08:47:00,
2013-01-15 03:48:00,49.4,47.8,30.19,ENE,67,8.0,17.0,94,0.00,,---,0.00,VWS V14.01,2013-01-15 08:48:00,
2013-01-15 03:49:00,49.3,47.7,30.19,ENE,63,10.0,10.0,94,0.00,,---,0.00,VWS V14.01,2013-01-15 08:49:00,
2013-01-15 03:50:00,49.3,47.7,30.19,ENE,71,10.0,11.0,94,0.00,,---,0.00,VWS V14.01,2013-01-15 08:50:00,
2013-01-15 03:51:00,49.3,47.7,30.19,ENE,71,7.0,11.0,94,0.00,,---,0.00,VWS V14.01,2013-01-15 08:51:00,
2013-01-15 03:52:00,49.2,47.5,30.19,NE,48,8.0,11.0,94,0.00,,---,0.00,VWS V14.01,2013-01-15 08:52:00,
2013-01-15 03:53:00,49.2,47.5,30.19,NE,47,8.0,9.0,94,0.00,,---,0.00,VWS V14.01,2013-01-15 08:53:00,
2013-01-15 03:54:00,49.1,47.7,30.19,NE,43,9.0,12.0,95,0.00,,---,0.00,VWS V14.01,2013-01-15 08:54:00,
2013-01-15 03:55:00,49.1,47.5,30.19,ENE,71,8.0,9.0,94,0.00,,---,0.00,VWS V14.01,2013-01-15 08:55:00,
2013-01-15 03:56:00,49.1,47.5,30.19,NE,53,7.0,9.0,94,0.00,,---,0.00,VWS V14.01,2013-01-15 08:56:00,
2013-01-15 03:57:00,49.0,47.6,30.19,East,101,8.0,14.0,95,0.00,,---,0.00,VWS V14.01,2013-01-15 08:57:00,
2013-01-15 03:58:00,49.0,47.6,30.19,ENE,63,5.0,8.0,95,0.00,,---,0.00,VWS V14.01,2013-01-15 08:58:00,
2013-01-15 03:59:00,49.0,47.6,30.19,NE,39,7.0,7.0,95,0.00,,---,0.00,VWS V14.01,2013-01-15 08:59:00,
2013-01-15 04:00:00,48.9,47.5,30.19,ENE,58,8.0,8.0,95,0.00,,---,0.00,VWS V14.01,2013-01-15 09:00:00,
2013-01-15 04:01:00,48.9,47.5,30.19,NE,50,6.0,8.0,95,0.00,,---,0.00,VWS V14.01,2013-01-15 09:01:00,
2013-01-15 04:02:00,48.9,47.5,30.19,NE,34,5.0,7.0,95,0.00,,---,0.00,VWS V14.01,2013-01-15 09:02:00,
2013-01-15 04:03:00,48.8,47.4,30.19,ENE,59,8.0,8.0,95,0.00,,---,0.00,VWS V14.01,2013-01-15 09:03:00,
2013-01-15 04:04:00,48.8,47.4,30.19,NE,40,7.0,8.0,95,0.00,,---,0.00,VWS V14.01,2013-01-15 09:04:00,
2013-01-15 04:05:00,48.7,47.3,30.19,ENE,58,13.0,13.0,95,0.00,,---,0.00,VWS V14.01,2013-01-15 09:05:00,
2013-01-15 04:06:00,48.7,47.3,30.19,NNE,33,9.0,13.0,95,0.00,,---,0.00,VWS V14.01,2013-01-15 09:06:00,
2013-01-15 04:07:00,48.6,47.2,30.19,ENE,61,7.0,10.0,95,0.00,,---,0.00,VWS V14.01,2013-01-15 09:07:00,
2013-01-15 04:08:00,48.6,47.0,30.19,NE,47,9.0,12.0,94,0.00,,---,0.00,VWS V14.01,2013-01-15 09:08:00,
2013-01-15 04:09:00,48.5,46.9,30.20,ENE,59,8.0,12.0,94,0.00,,---,0.00,VWS V14.01,2013-01-15 09:09:00,
2013-01-15 04:10:00,48.5,47.1,30.20,NE,42,6.0,9.0,95,0.00,,---,0.00,VWS V14.01,2013-01-15 09:10:00,
2013-01-15 04:11:00,48.4,47.0,30.20,NE,42,8.0,9.0,95,0.00,,---,0.00,VWS V14.01,2013-01-15 09:11:00,
2013-01-15 04:12:00,48.4,47.0,30.20,NE,47,9.0,10.0,95,0.00,,---,0.00,VWS V14.01,2013-01-15 09:12:00,
2013-01-15 04:13:00,48.4,47.0,30.20,NE,55,9.0,10.0,95,0.00,,---,0.00,VWS V14.01,2013-01-15 09:13:00,
2013-01-15 04:14:00,48.3,46.9,30.20,NE,42,6.0,9.0,95,0.00,,---,0.00,VWS V14.01,2013-01-15 09:14:00,
2013-01-15 04:15:00,48.3,46.9,30.19,ENE,73,5.0,8.0,95,0.00,,---,0.00,VWS V14.01,2013-01-15 09:15:00,
2013-01-15 04:16:00,48.3,46.9,30.19,ENE,62,4.0,8.0,95,0.00,,---,0.00,VWS V14.01,2013-01-15 09:16:00,
2013-01-15 04:17:00,48.3,46.9,30.19,East,88,8.0,8.0,95,0.00,,---,0.00,VWS V14.01,2013-01-15 09:17:00,
2013-01-15 04:18:00,48.3,46.9,30.20,ENE,60,9.0,13.0,95,0.00,,---,0.00,VWS V14.01,2013-01-15 09:18:00,
2013-01-15 04:19:00,48.2,46.8,30.20,NE,45,10.0,11.0,95,0.00,,---,0.00,VWS V14.01,2013-01-15 09:19:00,
2013-01-15 04:20:00,48.2,46.8,30.19,ENE,70,9.0,9.0,95,0.00,,---,0.00,VWS V14.01,2013-01-15 09:20:00,
2013-01-15 04:21:00,48.1,46.7,30.19,ENE,58,10.0,13.0,95,0.00,,---,0.00,VWS V14.01,2013-01-15 09:21:00,
2013-01-15 04:22:00,48.1,46.7,30.20,NE,51,7.0,13.0,95,0.00,,---,0.00,VWS V14.01,2013-01-15 09:22:00,
2013-01-15 04:23:00,48.1,46.7,30.20,NE,50,8.0,12.0,95,0.00,,---,0.00,VWS V14.01,2013-01-15 09:23:00,
2013-01-15 04:24:00,48.0,46.6,30.19,NE,42,6.0,11.0,95,0.00,,---,0.00,VWS V14.01,2013-01-15 09:24:00,
2013-01-15 04:25:00,48.0,46.6,30.20,NE,47,11.0,12.0,95,0.00,,---,0.00,VWS V14.01,2013-01-15 09:25:00,
2013-01-15 04:26:00,48.0,46.6,30.20,ENE,58,10.0,12.0,95,0.00,,---,0.00,VWS V14.01,2013-01-15 09:26:00,
2013-01-15 04:27:00,48.0,46.6,30.19,NE,47,5.0,10.0,95,0.00,,---,0.00,VWS V14.01,2013-01-15 09:27:00,
2013-01-15 04:28:00,47.9,46.5,30.20,NE,51,9.0,12.0,95,0.00,,---,0.00,VWS V14.01,2013-01-15 09:28:00,
2013-01-15 04:29:00,47.9,46.5,30.20,NE,42,5.0,9.0,95,0.00,,---,0.00,VWS V14.01,2013-01-15 09:29:00,
2013-01-15 04:30:00,47.9,46.5,30.19,NE,47,6.0,8.0,95,0.00,,---,0.00,VWS V14.01,2013-01-15 09:30:00,
2013-01-15 04:31:00,47.9,46.5,30.19,ENE,67,9.0,9.0,95,0.00,,---,0.00,VWS V14.01,2013-01-15 09:31:00,
2013-01-15 04:32:00,47.9,46.5,30.19,ENE,73,5.0,9.0,95,0.00,,---,0.00,VWS V14.01,2013-01-15 09:32:00,
2013-01-15 04:33:00,48.0,46.6,30.19,NE,40,8.0,9.0,95,0.00,,---,0.00,VWS V14.01,2013-01-15 09:33:00,
2013-01-15 04:34:00,47.9,46.5,30.19,ENE,66,8.0,9.0,95,0.00,,---,0.00,VWS V14.01,2013-01-15 09:34:00,
2013-01-15 04:35:00,47.9,46.5,30.19,ENE,76,7.0,8.0,95,0.00,,---,0.00,VWS V14.01,2013-01-15 09:35:00,
2013-01-15 04:36:00,47.9,46.5,30.19,ENE,66,8.0,8.0,95,0.00,,---,0.00,VWS V14.01,2013-01-15 09:36:00,
2013-01-15 04:37:00,47.9,46.5,30.19,NE,55,11.0,11.0,95,0.00,,---,0.00,VWS V14.01,2013-01-15 09:37:00,
2013-01-15 04:38:00,47.9,46.5,30.19,ENE,69,8.0,12.0,95,0.00,,---,0.00,VWS V14.01,2013-01-15 09:38:00,
2013-01-15 04:39:00,47.9,46.5,30.19,ENE,65,7.0,13.0,95,0.00,,---,0.00,VWS V14.01,2013-01-15 09:39:00,
2013-01-15 04:40:00,47.8,46.4,30.19,ENE,69,10.0,10.0,95,0.00,,---,0.00,VWS V14.01,2013-01-15 09:40:00,
2013-01-15 04:41:00,47.8,46.4,30.19,ENE,66,12.0,14.0,95,0.00,,---,0.00,VWS V14.01,2013-01-15 09:41:00,
2013-01-15 04:42:00,47.8,46.4,30.19,ENE,73,7.0,14.0,95,0.00,,---,0.00,VWS V14.01,2013-01-15 09:42:00,
2013-01-15 04:43:00,47.8,46.4,30.18,ENE,58,4.0,7.0,95,0.00,,---,0.00,VWS V14.01,2013-01-15 09:43:00,
2013-01-15 04:44:00,47.7,46.3,30.18,ENE,77,9.0,10.0,95,0.00,,---,0.00,VWS V14.01,2013-01-15 09:44:00,
2013-01-15 04:45:00,47.7,46.3,30.18,ENE,76,7.0,8.0,95,0.00,,---,0.00,VWS V14.01,2013-01-15 09:45:00,
2013-01-15 04:46:00,47.7,46.3,30.18,ENE,57,4.0,8.0,95,0.00,,---,0.00,VWS V14.01,2013-01-15 09:46:00,
2013-01-15 04:47:00,47.7,46.3,30.18,NNE,32,5.0,5.0,95,0.00,,---,0.00,VWS V14.01,2013-01-15 09:47:00,
2013-01-15 04:48:00,47.7,46.3,30.18,NE,38,6.0,8.0,95,0.00,,---,0.00,VWS V14.01,2013-01-15 09:48:00,
2013-01-15 04:49:00,47.7,46.3,30.18,NE,47,6.0,9.0,95,0.00,,---,0.00,VWS V14.01,2013-01-15 09:49:00,
2013-01-15 04:50:00,47.6,46.2,30.18,ENE,63,9.0,12.0,95,0.00,,---,0.00,VWS V14.01,2013-01-15 09:50:00,
2013-01-15 04:51:00,47.6,46.2,30.18,NE,53,9.0,12.0,95,0.00,,---,0.00,VWS V14.01,2013-01-15 09:51:00,
2013-01-15 04:52:00,47.6,46.2,30.18,NE,53,6.0,9.0,95,0.00,,---,0.00,VWS V14.01,2013-01-15 09:52:00,
2013-01-15 04:53:00,47.5,46.1,30.18,ENE,71,9.0,9.0,95,0.00,,---,0.00,VWS V14.01,2013-01-15 09:53:00,
2013-01-15 04:54:00,47.5,46.1,30.18,NE,53,4.0,9.0,95,0.00,,---,0.00,VWS V14.01,2013-01-15 09:54:00,
2013-01-15 04:55:00,47.5,46.1,30.18,NE,49,10.0,10.0,95,0.00,,---,0.00,VWS V14.01,2013-01-15 09:55:00,
2013-01-15 04:56:00,47.5,46.1,30.18,NE,53,8.0,11.0,95,0.00,,---,0.00,VWS V14.01,2013-01-15 09:56:00,
2013-01-15 04:57:00,47.4,46.0,30.18,ENE,57,10.0,11.0,95,0.00,,---,0.00,VWS V14.01,2013-01-15 09:57:00,
2013-01-15 04:58:00,47.4,46.0,30.18,NE,51,5.0,14.0,95,0.00,,---,0.00,VWS V14.01,2013-01-15 09:58:00,
2013-01-15 04:59:00,47.4,46.0,30.18,ENE,66,5.0,8.0,95,0.00,,---,0.00,VWS V14.01,2013-01-15 09:59:00,
2013-01-15 05:00:00,47.4,46.0,30.18,East,81,7.0,8.0,95,0.00,,---,0.00,VWS V14.01,2013-01-15 10:00:00,
2013-01-15 05:01:00,47.4,46.0,30.18,NE,42,3.0,8.0,95,0.00,,---,0.00,VWS V14.01,2013-01-15 10:01:00,
2013-01-15 05:02:00,47.3,45.9,30.18,ENE,66,8.0,8.0,95,0.00,,---,0.00,VWS V14.01,2013-01-15 10:02:00,
2013-01-15 05:03:00,47.3,45.9,30.19,NE,53,4.0,9.0,95,0.00,,---,0.00,VWS V14.01,2013-01-15 10:03:00,
2013-01-15 05:04:00,47.3,45.9,30.18,NE,38,6.0,7.0,95,0.00,,---,0.00,VWS V14.01,2013-01-15 10:04:00,
2013-01-15 05:05:00,47.3,45.9,30.18,NE,38,10.0,10.0,95,0.00,,---,0.00,VWS V14.01,2013-01-15 10:05:00,
2013-01-15 05:06:00,47.3,45.9,30.18,NE,39,8.0,10.0,95,0.00,,---,0.00,VWS V14.01,2013-01-15 10:06:00,
2013-01-15 05:07:00,47.3,45.9,30.18,ENE,63,8.0,10.0,95,0.00,,---,0.00,VWS V14.01,2013-01-15 10:07:00,
2013-01-15 05:08:00,47.3,45.9,30.18,ENE,67,10.0,13.0,95,0.00,,---,0.00,VWS V14.01,2013-01-15 10:08:00,
2013-01-15 05:09:00,47.2,45.8,30.18,ENE,76,7.0,12.0,95,0.00,,---,0.00,VWS V14.01,2013-01-15 10:09:00,
2013-01-15 05:10:00,47.3,45.9,30.18,East,80,10.0,10.0,95,0.00,,---,0.00,VWS V14.01,2013-01-15 10:10:00,
2013-01-15 05:11:00,47.2,45.8,30.18,ENE,75,8.0,10.0,95,0.00,,---,0.00,VWS V14.01,2013-01-15 10:11:00,
2013-01-15 05:12:00,47.2,45.8,30.18,East,85,8.0,11.0,95,0.00,,---,0.00,VWS V14.01,2013-01-15 10:12:00,
2013-01-15 05:13:00,47.2,45.8,30.18,ENE,58,8.0,10.0,95,0.00,,---,0.00,VWS V14.01,2013-01-15 10:13:00,
2013-01-15 05:14:00,47.2,45.8,30.18,ENE,73,11.0,12.0,95,0.00,,---,0.00,VWS V14.01,2013-01-15 10:14:00,
2013-01-15 05:15:00,47.2,45.8,30.18,ENE,76,11.0,11.0,95,0.00,,---,0.00,VWS V14.01,2013-01-15 10:15:00,
2013-01-15 05:16:00,47.2,45.8,30.18,ENE,71,9.0,11.0,95,0.00,,---,0.00,VWS V14.01,2013-01-15 10:16:00,
2013-01-15 05:17:00,47.1,45.7,30.17,ENE,76,8.0,12.0,95,0.00,,---,0.00,VWS V14.01,2013-01-15 10:17:00,
2013-01-15 05:18:00,47.1,45.7,30.18,ENE,77,10.0,10.0,95,0.00,,---,0.00,VWS V14.01,2013-01-15 10:18:00,
2013-01-15 05:19:00,47.1,45.7,30.18,ENE,62,7.0,10.0,95,0.00,,---,0.00,VWS V14.01,2013-01-15 10:19:00,
2013-01-15 05:20:00,47.1,45.7,30.18,ENE,64,8.0,10.0,95,0.00,,---,0.00,VWS V14.01,2013-01-15 10:20:00,
2013-01-15 05:21:00,47.1,45.7,30.18,ENE,65,7.0,10.0,95,0.00,,---,0.00,VWS V14.01,2013-01-15 10:21:00,
2013-01-15 05:22:00,47.1,45.7,30.18,ENE,77,5.0,8.0,95,0.00,,---,0.00,VWS V14.01,2013-01-15 10:22:00,
2013-01-15 05:23:00,47.1,45.7,30.18,ENE,63,4.0,7.0,95,0.00,,---,0.00,VWS V14.01,2013-01-15 10:23:00,
2013-01-15 05:24:00,47.1,45.7,30.18,ENE,71,5.0,7.0,95,0.00,,---,0.00,VWS V14.01,2013-01-15 10:24:00,
2013-01-15 05:25:00,47.1,45.7,30.18,ENE,67,8.0,8.0,95,0.00,,---,0.00,VWS V14.01,2013-01-15 10:25:00,
2013-01-15 05:26:00,47.1,45.7,30.18,NE,55,6.0,9.0,95,0.00,,---,0.00,VWS V14.01,2013-01-15 10:26:00,
2013-01-15 05:27:00,47.1,45.7,30.18,ENE,71,8.0,8.0,95,0.00,,---,0.00,VWS V14.01,2013-01-15 10:27:00,
2013-01-15 05:28:00,47.1,45.7,30.17,ENE,74,11.0,11.0,95,0.00,,---,0.00,VWS V14.01,2013-01-15 10:28:00,
2013-01-15 05:29:00,47.1,45.7,30.17,ENE,58,8.0,15.0,95,0.00,,---,0.00,VWS V14.01,2013-01-15 10:29:00,
2013-01-15 05:30:00,47.0,45.7,30.18,ENE,76,9.0,9.0,95,0.00,,---,0.00,VWS V14.01,2013-01-15 10:30:00,
2013-01-15 05:31:00,47.0,45.7,30.18,East,79,6.0,11.0,95,0.00,,---,0.00,VWS V14.01,2013-01-15 10:31:00,
2013-01-15 05:32:00,47.0,45.7,30.18,ENE,74,5.0,12.0,95,0.00,,---,0.00,VWS V14.01,2013-01-15 10:32:00,
2013-01-15 05:33:00,46.9,45.5,30.18,ENE,78,7.0,7.0,95,0.00,,---,0.00,VWS V14.01,2013-01-15 10:33:00,
2013-01-15 05:34:00,46.9,45.5,30.18,NE,55,5.0,8.0,95,0.00,,---,0.00,VWS V14.01,2013-01-15 10:34:00,
2013-01-15 05:35:00,46.9,45.5,30.17,ENE,63,7.0,10.0,95,0.00,,---,0.00,VWS V14.01,2013-01-15 10:35:00,
2013-01-15 05:36:00,46.9,45.5,30.17,ENE,77,11.0,11.0,95,0.00,,---,0.00,VWS V14.01,2013-01-15 10:36:00,
2013-01-15 05:37:00,46.8,45.5,30.17,ENE,67,10.0,16.0,95,0.00,,---,0.00,VWS V14.01,2013-01-15 10:37:00,
2013-01-15 05:38:00,46.8,45.5,30.17,ENE,78,8.0,10.0,95,0.00,,---,0.00,VWS V14.01,2013-01-15 10:38:00,
2013-01-15 05:39:00,46.8,45.5,30.17,ENE,71,9.0,9.0,95,0.00,,---,0.00,VWS V14.01,2013-01-15 10:39:00,
2013-01-15 05:40:00,46.8,45.5,30.17,East,83,13.0,14.0,95,0.00,,---,0.00,VWS V14.01,2013-01-15 10:40:00,
2013-01-15 05:41:00,46.7,45.3,30.17,ENE,74,8.0,14.0,95,0.00,,---,0.00,VWS V14.01,2013-01-15 10:41:00,
2013-01-15 05:42:00,46.7,45.3,30.17,ENE,70,13.0,15.0,95,0.00,,---,0.00,VWS V14.01,2013-01-15 10:42:00,
2013-01-15 05:43:00,46.6,45.2,30.17,ENE,58,8.0,14.0,95,0.00,,---,0.00,VWS V14.01,2013-01-15 10:43:00,
2013-01-15 05:44:00,46.6,45.2,30.17,ENE,62,9.0,11.0,95,0.00,,---,0.00,VWS V14.01,2013-01-15 10:44:00,
2013-01-15 05:45:00,46.6,45.2,30.17,ENE,61,4.0,7.0,95,0.00,,---,0.00,VWS V14.01,2013-01-15 10:45:00,
2013-01-15 05:46:00,46.6,45.2,30.17,East,81,9.0,9.0,95,0.00,,---,0.00,VWS V14.01,2013-01-15 10:46:00,
2013-01-15 05:47:00,46.6,45.2,30.17,ENE,76,7.0,9.0,95,0.00,,---,0.00,VWS V14.01,2013-01-15 10:47:00,
2013-01-15 05:48:00,46.6,45.2,30.17,ENE,67,4.0,7.0,95,0.00,,---,0.00,VWS V14.01,2013-01-15 10:48:00,
2013-01-15 05:49:00,46.6,45.2,30.17,ENE,71,5.0,5.0,95,0.00,,---,0.00,VWS V14.01,2013-01-15 10:49:00,
2013-01-15 05:50:00,46.6,45.5,30.17,NE,53,5.0,5.0,96,0.00,,---,0.00,VWS V14.01,2013-01-15 10:50:00,
2013-01-15 05:51:00,46.6,45.5,30.17,ENE,68,7.0,8.0,96,0.00,,---,0.00,VWS V14.01,2013-01-15 10:51:00,
2013-01-15 05:52:00,46.6,45.5,30.17,ENE,63,9.0,10.0,96,0.00,,---,0.00,VWS V14.01,2013-01-15 10:52:00,
2013-01-15 05:53:00,46.6,45.5,30.17,ENE,75,10.0,11.0,96,0.00,,---,0.00,VWS V14.01,2013-01-15 10:53:00,
2013-01-15 05:54:00,46.6,45.5,30.17,ENE,75,7.0,11.0,96,0.00,,---,0.00,VWS V14.01,2013-01-15 10:54:00,
2013-01-15 05:55:00,46.6,45.5,30.17,ENE,68,5.0,5.0,96,0.00,,---,0.00,VWS V14.01,2013-01-15 10:55:00,
2013-01-15 05:56:00,46.6,45.5,30.17,ENE,66,3.0,5.0,96,0.00,,---,0.00,VWS V14.01,2013-01-15 10:56:00,
2013-01-15 05:57:00,46.6,45.5,30.17,ENE,77,4.0,5.0,96,0.00,,---,0.00,VWS V14.01,2013-01-15 10:57:00,
2013-01-15 05:58:00,46.6,45.5,30.17,ENE,69,7.0,10.0,96,0.00,,---,0.00,VWS V14.01,2013-01-15 10:58:00,
2013-01-15 05:59:00,46.6,45.5,30.17,East,84,8.0,8.0,96,0.00,,---,0.00,VWS V14.01,2013-01-15 10:59:00,
2013-01-15 06:00:00,46.6,45.5,30.17,ENE,61,7.0,7.0,96,0.00,,---,0.00,VWS V14.01,2013-01-15 11:00:00,
2013-01-15 06:01:00,46.6,45.5,30.17,ENE,76,5.0,7.0,96,0.00,,---,0.00,VWS V14.01,2013-01-15 11:01:00,
2013-01-15 06:02:00,46.6,45.5,30.17,East,88,6.0,6.0,96,0.00,,---,0.00,VWS V14.01,2013-01-15 11:02:00,
2013-01-15 06:03:00,46.6,45.5,30.17,ENE,69,8.0,9.0,96,0.00,,---,0.00,VWS V14.01,2013-01-15 11:03:00,
2013-01-15 06:04:00,46.6,45.5,30.17,ENE,58,4.0,10.0,96,0.00,,---,0.00,VWS V14.01,2013-01-15 11:04:00,
2013-01-15 06:05:00,46.6,45.5,30.17,ENE,70,5.0,5.0,96,0.00,,---,0.00,VWS V14.01,2013-01-15 11:05:00,
2013-01-15 06:06:00,46.7,45.6,30.17,ENE,74,4.0,7.0,96,0.00,,---,0.00,VWS V14.01,2013-01-15 11:06:00,
2013-01-15 06:07:00,46.6,45.5,30.17,ENE,61,3.0,5.0,96,0.00,,---,0.00,VWS V14.01,2013-01-15 11:07:00,
2013-01-15 06:08:00,46.6,45.5,30.17,ENE,65,7.0,7.0,96,0.00,,---,0.00,VWS V14.01,2013-01-15 11:08:00,
2013-01-15 06:09:00,46.7,45.6,30.17,ENE,58,5.0,7.0,96,0.00,,---,0.00,VWS V14.01,2013-01-15 11:09:00,
2013-01-15 06:10:00,46.7,45.6,30.17,ENE,69,5.0,7.0,96,0.00,,---,0.00,VWS V14.01,2013-01-15 11:10:00,
2013-01-15 06:11:00,46.7,45.6,30.17,NE,49,4.0,8.0,96,0.00,,---,0.00,VWS V14.01,2013-01-15 11:11:00,
2013-01-15 06:12:00,46.7,45.6,30.17,ENE,68,4.0,5.0,96,0.00,,---,0.00,VWS V14.01,2013-01-15 11:12:00,
2013-01-15 06:13:00,46.7,45.6,30.17,East,84,3.0,4.0,96,0.00,,---,0.00,VWS V14.01,2013-01-15 11:13:00,
2013-01-15 06:14:00,46.7,45.6,30.17,East,79,5.0,7.0,96,0.00,,---,0.00,VWS V14.01,2013-01-15 11:14:00,
2013-01-15 06:15:00,46.7,45.6,30.17,East,94,3.0,4.0,96,0.00,,---,0.00,VWS V14.01,2013-01-15 11:15:00,
2013-01-15 06:16:00,46.7,45.6,30.17,ENE,78,5.0,5.0,96,0.00,,---,0.00,VWS V14.01,2013-01-15 11:16:00,
2013-01-15 06:17:00,46.7,45.6,30.18,ENE,61,4.0,5.0,96,0.00,,---,0.00,VWS V14.01,2013-01-15 11:17:00,
2013-01-15 06:18:00,46.8,45.7,30.17,ENE,76,8.0,8.0,96,0.00,,---,0.00,VWS V14.01,2013-01-15 11:18:00,
2013-01-15 06:19:00,46.8,45.7,30.18,ENE,71,8.0,9.0,96,0.00,,---,0.00,VWS V14.01,2013-01-15 11:19:00,
2013-01-15 06:20:00,46.8,45.7,30.17,ENE,75,2.0,3.0,96,0.00,,---,0.00,VWS V14.01,2013-01-15 11:20:00,
2013-01-15 06:21:00,46.8,45.7,30.17,ENE,66,5.0,8.0,96,0.00,,---,0.00,VWS V14.01,2013-01-15 11:21:00,
2013-01-15 06:22:00,46.8,45.7,30.18,East,86,8.0,9.0,96,0.00,,---,0.00,VWS V14.01,2013-01-15 11:22:00,
2013-01-15 06:23:00,46.8,45.7,30.18,ENE,78,5.0,9.0,96,0.00,,---,0.00,VWS V14.01,2013-01-15 11:23:00,
2013-01-15 06:24:00,46.8,45.7,30.18,East,86,6.0,7.0,96,0.00,,---,0.00,VWS V14.01,2013-01-15 11:24:00,
2013-01-15 06:25:00,46.8,45.7,30.18,ENE,68,3.0,6.0,96,0.00,,---,0.00,VWS V14.01,2013-01-15 11:25:00,
2013-01-15 06:26:00,46.8,45.7,30.18,East,86,6.0,6.0,96,0.00,,---,0.00,VWS V14.01,2013-01-15 11:26:00,
2013-01-15 06:27:00,46.9,45.8,30.17,East,88,6.0,10.0,96,0.00,,---,0.00,VWS V14.01,2013-01-15 11:27:00,
2013-01-15 06:28:00,46.9,45.8,30.17,ENE,78,7.0,10.0,96,0.00,,---,0.00,VWS V14.01,2013-01-15 11:28:00,
2013-01-15 06:29:00,46.9,45.8,30.17,East,88,6.0,7.0,96,0.00,,---,0.00,VWS V14.01,2013-01-15 11:29:00,
2013-01-15 06:30:00,46.9,45.8,30.17,East,86,7.0,7.0,96,0.00,,---,0.00,VWS V14.01,2013-01-15 11:30:00,
2013-01-15 06:31:00,46.9,45.8,30.17,East,96,9.0,9.0,96,0.00,,---,0.00,VWS V14.01,2013-01-15 11:31:00,
2013-01-15 06:32:00,46.9,45.8,30.17,ENE,77,5.0,9.0,96,0.00,,---,0.00,VWS V14.01,2013-01-15 11:32:00,
2013-01-15 06:33:00,46.9,45.8,30.17,ENE,63,5.0,7.0,96,0.00,,---,0.00,VWS V14.01,2013-01-15 11:33:00,
2013-01-15 06:34:00,46.9,45.8,30.17,East,98,7.0,7.0,96,0.00,,---,0.00,VWS V14.01,2013-01-15 11:34:00,
2013-01-15 06:35:00,46.9,45.8,30.17,East,88,8.0,9.0,96,0.00,,---,0.00,VWS V14.01,2013-01-15 11:35:00,
2013-01-15 06:36:00,46.9,45.8,30.17,ESE,103,9.0,10.0,96,0.00,,---,0.00,VWS V14.01,2013-01-15 11:36:00,
2013-01-15 06:37:00,46.9,45.8,30.17,ESE,109,10.0,10.0,96,0.00,,---,0.00,VWS V14.01,2013-01-15 11:37:00,
2013-01-15 06:38:00,46.9,45.8,30.17,East,79,10.0,10.0,96,0.00,,---,0.00,VWS V14.01,2013-01-15 11:38:00,
2013-01-15 06:39:00,46.9,45.8,30.17,ENE,64,9.0,11.0,96,0.00,,---,0.00,VWS V14.01,2013-01-15 11:39:00,
2013-01-15 06:40:00,46.9,45.8,30.17,ENE,78,9.0,10.0,96,0.00,,---,0.00,VWS V14.01,2013-01-15 11:40:00,
2013-01-15 06:41:00,46.9,45.8,30.17,ENE,76,8.0,10.0,96,0.00,,---,0.00,VWS V14.01,2013-01-15 11:41:00,
2013-01-15 06:42:00,46.9,45.8,30.17,East,92,8.0,8.0,96,0.00,,---,0.00,VWS V14.01,2013-01-15 11:42:00,
2013-01-15 06:43:00,46.9,45.8,30.17,East,100,7.0,9.0,96,0.00,,---,0.00,VWS V14.01,2013-01-15 11:43:00,
2013-01-15 06:44:00,46.9,45.8,30.17,East,84,7.0,10.0,96,0.00,,---,0.00,VWS V14.01,2013-01-15 11:44:00,
2013-01-15 06:45:00,46.9,45.8,30.17,East,92,9.0,9.0,96,0.00,,---,0.00,VWS V14.01,2013-01-15 11:45:00,
2013-01-15 06:46:00,46.9,45.8,30.17,East,92,10.0,11.0,96,0.00,,---,0.00,VWS V14.01,2013-01-15 11:46:00,
2013-01-15 06:47:00,46.9,45.8,30.17,ESE,105,10.0,10.0,96,0.00,,---,0.00,VWS V14.01,2013-01-15 11:47:00,
2013-01-15 06:48:00,46.9,45.8,30.17,ENE,68,10.0,14.0,96,0.00,,---,0.00,VWS V14.01,2013-01-15 11:48:00,
2013-01-15 06:49:00,46.9,45.8,30.17,East,94,14.0,14.0,96,0.00,,---,0.00,VWS V14.01,2013-01-15 11:49:00,
2013-01-15 06:50:00,46.9,45.8,30.18,ENE,74,7.0,7.0,96,0.00,,---,0.00,VWS V14.01,2013-01-15 11:50:00,
2013-01-15 06:51:00,46.9,45.8,30.18,ENE,70,5.0,7.0,96,0.00,,---,0.00,VWS V14.01,2013-01-15 11:51:00,
2013-01-15 06:52:00,46.9,45.8,30.18,East,88,3.0,6.0,96,0.00,,---,0.00,VWS V14.01,2013-01-15 11:52:00,
2013-01-15 06:53:00,46.9,45.8,30.18,ENE,67,4.0,8.0,96,0.00,,---,0.00,VWS V14.01,2013-01-15 11:53:00,
2013-01-15 06:54:00,46.9,45.8,30.18,East,82,8.0,10.0,96,0.00,,---,0.00,VWS V14.01,2013-01-15 11:54:00,
2013-01-15 06:55:00,46.9,45.8,30.18,East,92,7.0,13.0,96,0.00,,---,0.00,VWS V14.01,2013-01-15 11:55:00,
2013-01-15 06:56:00,46.9,45.8,30.18,NE,42,6.0,13.0,96,0.00,,---,0.00,VWS V14.01,2013-01-15 11:56:00,
2013-01-15 06:57:00,46.9,45.8,30.18,East,88,8.0,11.0,96,0.00,,---,0.00,VWS V14.01,2013-01-15 11:57:00,
2013-01-15 06:58:00,46.9,45.8,30.18,East,83,7.0,10.0,96,0.00,,---,0.00,VWS V14.01,2013-01-15 11:58:00,
2013-01-15 06:59:00,46.9,45.8,30.18,East,88,5.0,5.0,96,0.00,,---,0.00,VWS V14.01,2013-01-15 11:59:00,
2013-01-15 07:00:00,46.9,45.8,30.18,ENE,74,3.0,5.0,96,0.00,,---,0.00,VWS V14.01,2013-01-15 12:00:00,
2013-01-15 07:01:00,46.9,45.8,30.18,ENE,71,7.0,8.0,96,0.00,,---,0.00,VWS V14.01,2013-01-15 12:01:00,
2013-01-15 07:02:00,46.9,45.8,30.18,East,88,9.0,10.0,96,0.00,,---,0.00,VWS V14.01,2013-01-15 12:02:00,
2013-01-15 07:03:00,46.9,45.8,30.18,ENE,74,4.0,9.0,96,0.00,,---,0.00,VWS V14.01,2013-01-15 12:03:00,
2013-01-15 07:04:00,46.9,45.8,30.18,East,88,8.0,8.0,96,0.00,,---,0.00,VWS V14.01,2013-01-15 12:04:00,
2013-01-15 07:05:00,46.9,45.8,30.18,East,88,13.0,13.0,96,0.00,,---,0.00,VWS V14.01,2013-01-15 12:05:00,
2013-01-15 07:06:00,46.8,45.7,30.18,ENE,63,5.0,13.0,96,0.00,,---,0.00,VWS V14.01,2013-01-15 12:06:00,
2013-01-15 07:07:00,46.8,45.7,30.18,East,88,8.0,9.0,96,0.00,,---,0.00,VWS V14.01,2013-01-15 12:07:00,
2013-01-15 07:08:00,46.8,45.7,30.18,East,97,7.0,9.0,96,0.00,,---,0.00,VWS V14.01,2013-01-15 12:08:00,
2013-01-15 07:09:00,46.8,45.7,30.18,East,88,10.0,10.0,96,0.00,,---,0.00,VWS V14.01,2013-01-15 12:09:00,
2013-01-15 07:10:00,46.7,45.6,30.18,ENE,78,8.0,9.0,96,0.00,,---,0.00,VWS V14.01,2013-01-15 12:10:00,
2013-01-15 07:11:00,46.7,45.6,30.18,ENE,69,7.0,9.0,96,0.00,,---,0.00,VWS V14.01,2013-01-15 12:11:00,
2013-01-15 07:12:00,46.7,45.6,30.18,East,88,5.0,7.0,96,0.00,,---,0.00,VWS V14.01,2013-01-15 12:12:00,
2013-01-15 07:13:00,46.8,45.7,30.18,East,94,6.0,6.0,96,0.00,,---,0.00,VWS V14.01,2013-01-15 12:13:00,
2013-01-15 07:14:00,46.7,45.6,30.19,East,86,2.0,6.0,96,0.00,,---,0.00,VWS V14.01,2013-01-15 12:14:00,
2013-01-15 07:15:00,46.8,45.7,30.19,ENE,66,4.0,4.0,96,0.00,,---,0.00,VWS V14.01,2013-01-15 12:15:00,
2013-01-15 07:16:00,46.8,45.7,30.19,ENE,73,10.0,11.0,96,0.00,,---,0.00,VWS V14.01,2013-01-15 12:16:00,
2013-01-15 07:17:00,46.7,45.6,30.19,ENE,78,7.0,10.0,96,0.00,,---,0.00,VWS V14.01,2013-01-15 12:17:00,
2013-01-15 07:18:00,46.7,45.6,30.19,East,90,7.0,7.0,96,0.00,,---,0.00,VWS V14.01,2013-01-15 12:18:00,
2013-01-15 07:19:00,46.6,45.5,30.19,East,82,5.0,10.0,96,0.00,,---,0.00,VWS V14.01,2013-01-15 12:19:00,
2013-01-15 07:20:00,46.6,45.5,30.19,ENE,65,9.0,9.0,96,0.00,,---,0.00,VWS V14.01,2013-01-15 12:20:00,
2013-01-15 07:21:00,46.5,45.4,30.19,ENE,76,9.0,11.0,96,0.00,,---,0.00,VWS V14.01,2013-01-15 12:21:00,
2013-01-15 07:22:00,46.5,45.4,30.19,ENE,68,11.0,11.0,96,0.00,,---,0.00,VWS V14.01,2013-01-15 12:22:00,
2013-01-15 07:23:00,46.5,45.4,30.19,ENE,67,9.0,11.0,96,0.00,,---,0.00,VWS V14.01,2013-01-15 12:23:00,
2013-01-15 07:24:00,46.4,45.3,30.19,ENE,76,4.0,9.0,96,0.00,,---,0.00,VWS V14.01,2013-01-15 12:24:00,
2013-01-15 07:25:00,46.4,45.3,30.19,ENE,74,5.0,8.0,96,0.00,,---,0.00,VWS V14.01,2013-01-15 12:25:00,
2013-01-15 07:26:00,46.4,45.3,30.19,ENE,70,5.0,8.0,96,0.00,,---,0.00,VWS V14.01,2013-01-15 12:26:00,
2013-01-15 07:27:00,46.4,45.3,30.19,NE,51,4.0,7.0,96,0.00,,---,0.00,VWS V14.01,2013-01-15 12:27:00,
2013-01-15 07:28:00,46.4,45.3,30.20,East,80,5.0,5.0,96,0.00,,---,0.00,VWS V14.01,2013-01-15 12:28:00,
2013-01-15 07:29:00,46.4,45.3,30.20,East,79,3.0,6.0,96,0.00,,---,0.00,VWS V14.01,2013-01-15 12:29:00,
2013-01-15 07:30:00,46.4,45.3,30.19,East,92,9.0,9.0,96,0.00,,---,0.00,VWS V14.01,2013-01-15 12:30:00,
2013-01-15 07:31:00,46.3,45.2,30.19,ENE,65,10.0,11.0,96,0.00,,---,0.00,VWS V14.01,2013-01-15 12:31:00,
2013-01-15 07:32:00,46.4,45.3,30.19,ENE,68,7.0,10.0,96,0.00,,---,0.00,VWS V14.01,2013-01-15 12:32:00,
2013-01-15 07:33:00,46.4,45.3,30.19,ENE,63,3.0,8.0,96,0.00,,---,0.00,VWS V14.01,2013-01-15 12:33:00,
2013-01-15 07:34:00,46.4,45.3,30.20,NNE,29,1.0,4.0,96,0.00,,---,0.00,VWS V14.01,2013-01-15 12:34:00,
2013-01-15 07:35:00,46.4,45.3,30.20,West,272,1.0,2.0,96,0.00,,---,0.00,VWS V14.01,2013-01-15 12:35:00,
2013-01-15 07:36:00,46.4,45.3,30.20,WSW,250,0.0,1.0,96,0.00,,---,0.00,VWS V14.01,2013-01-15 12:36:00,
2013-01-15 07:37:00,46.4,45.3,30.20,WSW,252,1.0,1.0,96,0.00,,---,0.00,VWS V14.01,2013-01-15 12:37:00,
2013-01-15 07:38:00,46.4,45.3,30.20,ENE,78,8.0,8.0,96,0.00,,---,0.00,VWS V14.01,2013-01-15 12:38:00,
2013-01-15 07:39:00,46.4,45.3,30.19,ENE,67,7.0,9.0,96,0.00,,---,0.00,VWS V14.01,2013-01-15 12:39:00,
2013-01-15 07:40:00,46.4,45.3,30.19,East,83,10.0,10.0,96,0.00,,---,0.00,VWS V14.01,2013-01-15 12:40:00,
2013-01-15 07:41:00,46.4,45.3,30.19,East,88,7.0,10.0,96,0.00,,---,0.00,VWS V14.01,2013-01-15 12:41:00,
2013-01-15 07:42:00,46.3,45.2,30.19,ENE,73,4.0,7.0,96,0.00,,---,0.00,VWS V14.01,2013-01-15 12:42:00,
2013-01-15 07:43:00,46.4,45.3,30.19,East,80,6.0,9.0,96,0.00,,---,0.00,VWS V14.01,2013-01-15 12:43:00,
2013-01-15 07:44:00,46.3,45.2,30.20,ENE,69,7.0,10.0,96,0.00,,---,0.00,VWS V14.01,2013-01-15 12:44:00,
2013-01-15 07:45:00,46.3,45.2,30.20,East,99,7.0,7.0,96,0.00,,---,0.00,VWS V14.01,2013-01-15 12:45:00,
2013-01-15 07:46:00,46.3,45.2,30.20,ENE,65,4.0,9.0,96,0.00,,---,0.00,VWS V14.01,2013-01-15 12:46:00,
2013-01-15 07:47:00,46.3,45.2,30.20,East,90,9.0,9.0,96,0.00,,---,0.00,VWS V14.01,2013-01-15 12:47:00,
2013-01-15 07:48:00,46.3,45.2,30.20,ENE,71,8.0,9.0,96,0.00,,---,0.00,VWS V14.01,2013-01-15 12:48:00,
2013-01-15 07:49:00,46.3,45.2,30.20,ENE,73,7.0,10.0,96,0.00,,---,0.00,VWS V14.01,2013-01-15 12:49:00,
2013-01-15 07:50:00,46.3,45.2,30.20,East,82,8.0,9.0,96,0.00,,---,0.00,VWS V14.01,2013-01-15 12:50:00,
2013-01-15 07:51:00,46.2,45.1,30.20,ENE,74,4.0,8.0,96,0.00,,---,0.00,VWS V14.01,2013-01-15 12:51:00,
2013-01-15 07:52:00,46.2,45.1,30.20,ENE,68,1.0,4.0,96,0.00,,---,0.00,VWS V14.01,2013-01-15 12:52:00,
2013-01-15 07:53:00,46.2,45.1,30.21,NE,50,4.0,5.0,96,0.00,,---,0.00,VWS V14.01,2013-01-15 12:53:00,
2013-01-15 07:54:00,46.2,45.1,30.21,East,96,5.0,5.0,96,0.00,,---,0.00,VWS V14.01,2013-01-15 12:54:00,
2013-01-15 07:55:00,46.2,45.1,30.21,ENE,63,3.0,5.0,96,0.00,,---,0.00,VWS V14.01,2013-01-15 12:55:00,
2013-01-15 07:56:00,46.2,45.1,30.21,ENE,73,5.0,5.0,96,0.00,,---,0.00,VWS V14.01,2013-01-15 12:56:00,
2013-01-15 07:57:00,46.2,45.1,30.21,ENE,76,4.0,7.0,96,0.00,,---,0.00,VWS V14.01,2013-01-15 12:57:00,
2013-01-15 07:58:00,46.2,45.1,30.21,ENE,71,5.0,7.0,96,0.00,,---,0.00,VWS V14.01,2013-01-15 12:58:00,
2013-01-15 07:59:00,46.2,45.1,30.21,ENE,64,4.0,7.0,96,0.00,,---,0.00,VWS V14.01,2013-01-15 12:59:00,
2013-01-15 08:00:00,46.2,45.1,30.21,ENE,71,4.0,4.0,96,0.00,,---,0.00,VWS V14.01,2013-01-15 13:00:00,
2013-01-15 08:01:00,46.2,45.1,30.21,ENE,58,5.0,8.0,96,0.00,,---,0.00,VWS V14.01,2013-01-15 13:01:00,
2013-01-15 08:02:00,46.2,45.1,30.21,ENE,78,4.0,6.0,96,0.00,,---,0.00,VWS V14.01,2013-01-15 13:02:00,
2013-01-15 08:03:00,46.2,45.1,30.21,East,88,5.0,6.0,96,0.00,,---,0.00,VWS V14.01,2013-01-15 13:03:00,
2013-01-15 08:04:00,46.2,45.1,30.21,ENE,68,3.0,5.0,96,0.00,,---,0.00,VWS V14.01,2013-01-15 13:04:00,
2013-01-15 08:05:00,46.2,45.1,30.21,East,87,3.0,3.0,96,0.00,,---,0.00,VWS V14.01,2013-01-15 13:05:00,
2013-01-15 08:06:00,46.2,45.1,30.21,ENE,71,4.0,8.0,96,0.00,,---,0.00,VWS V14.01,2013-01-15 13:06:00,
2013-01-15 08:07:00,46.2,45.1,30.21,ENE,76,3.0,5.0,96,0.00,,---,0.00,VWS V14.01,2013-01-15 13:07:00,
2013-01-15 08:08:00,46.2,45.1,30.22,ENE,76,2.0,3.0,96,0.00,,---,0.00,VWS V14.01,2013-01-15 13:08:00,
2013-01-15 08:09:00,46.2,45.1,30.22,ENE,76,2.0,5.0,96,0.00,,---,0.00,VWS V14.01,2013-01-15 13:09:00,
2013-01-15 08:10:00,46.2,45.1,30.22,East,96,2.0,3.0,96,0.00,,---,0.00,VWS V14.01,2013-01-15 13:10:00,
2013-01-15 08:11:00,46.2,45.1,30.22,ENE,63,3.0,3.0,96,0.00,,---,0.00,VWS V14.01,2013-01-15 13:11:00,
2013-01-15 08:12:00,46.2,45.1,30.22,East,88,3.0,7.0,96,0.00,,---,0.00,VWS V14.01,2013-01-15 13:12:00,
2013-01-15 08:13:00,46.2,45.1,30.22,East,86,2.0,3.0,96,0.00,,---,0.00,VWS V14.01,2013-01-15 13:13:00,
2013-01-15 08:14:00,46.3,45.2,30.22,ENE,71,3.0,3.0,96,0.00,,---,0.00,VWS V14.01,2013-01-15 13:14:00,
2013-01-15 08:15:00,46.3,45.2,30.22,East,81,5.0,6.0,96,0.00,,---,0.00,VWS V14.01,2013-01-15 13:15:00,
2013-01-15 08:16:00,46.2,45.1,30.22,ENE,78,5.0,7.0,96,0.00,,---,0.00,VWS V14.01,2013-01-15 13:16:00,
2013-01-15 08:17:00,46.2,45.1,30.22,East,80,6.0,7.0,96,0.00,,---,0.00,VWS V14.01,2013-01-15 13:17:00,
2013-01-15 08:18:00,46.2,45.1,30.22,ENE,77,4.0,6.0,96,0.00,,---,0.00,VWS V14.01,2013-01-15 13:18:00,
2013-01-15 08:19:00,46.2,45.1,30.23,East,84,2.0,5.0,96,0.00,,---,0.00,VWS V14.01,2013-01-15 13:19:00,
2013-01-15 08:20:00,46.3,45.2,30.23,ENE,63,4.0,8.0,96,0.00,,---,0.00,VWS V14.01,2013-01-15 13:20:00,
2013-01-15 08:21:00,46.3,45.2,30.23,ENE,76,7.0,11.0,96,0.00,,---,0.00,VWS V14.01,2013-01-15 13:21:00,
2013-01-15 08:22:00,46.2,45.1,30.23,ENE,70,5.0,10.0,96,0.00,,---,0.00,VWS V14.01,2013-01-15 13:22:00,
2013-01-15 08:23:00,46.2,45.1,30.23,East,83,7.0,7.0,96,0.00,,---,0.00,VWS V14.01,2013-01-15 13:23:00,
2013-01-15 08:24:00,46.2,45.1,30.23,ENE,58,4.0,8.0,96,0.00,,---,0.00,VWS V14.01,2013-01-15 13:24:00,
2013-01-15 08:25:00,46.2,45.1,30.23,ENE,73,3.0,5.0,96,0.00,,---,0.00,VWS V14.01,2013-01-15 13:25:00,
2013-01-15 08:26:00,46.2,45.1,30.23,ENE,69,4.0,4.0,96,0.00,,---,0.00,VWS V14.01,2013-01-15 13:26:00,
2013-01-15 08:27:00,46.2,45.1,30.23,ENE,73,3.0,4.0,96,0.00,,---,0.00,VWS V14.01,2013-01-15 13:27:00,
2013-01-15 08:28:00,46.2,45.1,30.23,ENE,74,3.0,7.0,96,0.00,,---,0.00,VWS V14.01,2013-01-15 13:28:00,
2013-01-15 08:29:00,46.2,45.1,30.24,ENE,77,2.0,3.0,96,0.00,,---,0.00,VWS V14.01,2013-01-15 13:29:00,
2013-01-15 08:30:00,46.2,45.1,30.24,ENE,64,3.0,3.0,96,0.00,,---,0.00,VWS V14.01,2013-01-15 13:30:00,
2013-01-15 08:31:00,46.2,45.1,30.24,ENE,76,2.0,5.0,96,0.00,,---,0.00,VWS V14.01,2013-01-15 13:31:00,
2013-01-15 08:32:00,46.2,45.1,30.24,ENE,68,7.0,8.0,96,0.00,,---,0.00,VWS V14.01,2013-01-15 13:32:00,
2013-01-15 08:33:00,46.2,45.1,30.24,ENE,67,3.0,7.0,96,0.00,,---,0.00,VWS V14.01,2013-01-15 13:33:00,
2013-01-15 08:34:00,46.2,45.1,30.23,East,83,3.0,5.0,96,0.00,,---,0.00,VWS V14.01,2013-01-15 13:34:00,
2013-01-15 08:35:00,46.2,45.1,30.23,ENE,68,3.0,7.0,96,0.00,,---,0.00,VWS V14.01,2013-01-15 13:35:00,
2013-01-15 08:36:00,46.2,45.1,30.23,ENE,78,5.0,6.0,96,0.00,,---,0.00,VWS V14.01,2013-01-15 13:36:00,
2013-01-15 08:37:00,46.2,45.1,30.23,East,83,7.0,9.0,96,0.00,,---,0.00,VWS V14.01,2013-01-15 13:37:00,
2013-01-15 08:38:00,46.2,44.8,30.23,ENE,76,4.0,8.0,95,0.00,,---,0.00,VWS V14.01,2013-01-15 13:38:00,
2013-01-15 08:39:00,46.2,44.8,30.23,East,92,7.0,9.0,95,0.00,,---,0.00,VWS V14.01,2013-01-15 13:39:00,
2013-01-15 08:40:00,46.2,44.8,30.23,East,88,6.0,9.0,95,0.00,,---,0.00,VWS V14.01,2013-01-15 13:40:00,
2013-01-15 08:41:00,46.2,44.8,30.23,ENE,71,8.0,8.0,95,0.00,,---,0.00,VWS V14.01,2013-01-15 13:41:00,
2013-01-15 08:42:00,46.2,44.8,30.23,ENE,78,8.0,8.0,95,0.00,,---,0.00,VWS V14.01,2013-01-15 13:42:00,
2013-01-15 08:43:00,46.2,44.8,30.23,East,96,8.0,8.0,95,0.00,,---,0.00,VWS V14.01,2013-01-15 13:43:00,
2013-01-15 08:44:00,46.2,44.8,30.23,ENE,71,7.0,8.0,95,0.00,,---,0.00,VWS V14.01,2013-01-15 13:44:00,
2013-01-15 08:45:00,46.2,44.8,30.23,East,82,3.0,7.0,95,0.00,,---,0.00,VWS V14.01,2013-01-15 13:45:00,
2013-01-15 08:46:00,46.2,44.8,30.23,East,90,5.0,5.0,95,0.00,,---,0.00,VWS V14.01,2013-01-15 13:46:00,
2013-01-15 08:47:00,46.2,45.1,30.23,East,88,5.0,7.0,96,0.00,,---,0.00,VWS V14.01,2013-01-15 13:47:00,
2013-01-15 08:48:00,46.2,45.1,30.23,East,101,8.0,10.0,96,0.00,,---,0.00,VWS V14.01,2013-01-15 13:48:00,
2013-01-15 08:49:00,46.2,44.8,30.23,ENE,75,3.0,8.0,95,0.00,,---,0.00,VWS V14.01,2013-01-15 13:49:00,
2013-01-15 08:50:00,46.2,44.8,30.23,ENE,76,9.0,10.0,95,0.00,,---,0.00,VWS V14.01,2013-01-15 13:50:00,
2013-01-15 08:51:00,46.2,44.8,30.23,ENE,60,5.0,8.0,95,0.00,,---,0.00,VWS V14.01,2013-01-15 13:51:00,
2013-01-15 08:52:00,46.2,44.8,30.23,East,92,6.0,6.0,95,0.00,,---,0.00,VWS V14.01,2013-01-15 13:52:00,
2013-01-15 08:53:00,46.3,45.0,30.23,East,82,5.0,7.0,95,0.00,,---,0.00,VWS V14.01,2013-01-15 13:53:00,
2013-01-15 08:54:00,46.3,45.0,30.24,East,94,6.0,6.0,95,0.00,,---,0.00,VWS V14.01,2013-01-15 13:54:00,
2013-01-15 08:55:00,46.3,45.0,30.24,ENE,77,3.0,6.0,95,0.00,,---,0.00,VWS V14.01,2013-01-15 13:55:00,
2013-01-15 08:56:00,46.3,45.0,30.24,ENE,60,3.0,4.0,95,0.00,,---,0.00,VWS V14.01,2013-01-15 13:56:00,
2013-01-15 08:57:00,46.3,45.0,30.24,East,92,6.0,6.0,95,0.00,,---,0.00,VWS V14.01,2013-01-15 13:57:00,
2013-01-15 08:58:00,46.3,45.0,30.24,East,86,6.0,8.0,95,0.00,,---,0.00,VWS V14.01,2013-01-15 13:58:00,
2013-01-15 08:59:00,46.3,45.0,30.24,East,86,7.0,7.0,95,0.00,,---,0.00,VWS V14.01,2013-01-15 13:59:00,
2013-01-15 09:00:00,46.3,45.0,30.24,ENE,67,4.0,8.0,95,0.00,,---,0.00,VWS V14.01,2013-01-15 14:00:00,
2013-01-15 09:01:00,46.2,44.8,30.24,East,80,3.0,6.0,95,0.00,,---,0.00,VWS V14.01,2013-01-15 14:01:00,
2013-01-15 09:02:00,46.2,44.8,30.24,East,81,2.0,4.0,95,0.00,,---,0.00,VWS V14.01,2013-01-15 14:02:00,
2013-01-15 09:03:00,46.2,44.8,30.24,East,83,5.0,7.0,95,0.00,,---,0.00,VWS V14.01,2013-01-15 14:03:00,
2013-01-15 09:04:00,46.2,44.8,30.24,East,85,3.0,5.0,95,0.00,,---,0.00,VWS V14.01,2013-01-15 14:04:00,
2013-01-15 09:05:00,46.2,44.8,30.24,ENE,65,3.0,3.0,95,0.00,,---,0.00,VWS V14.01,2013-01-15 14:05:00,
2013-01-15 09:06:00,46.3,45.0,30.24,ENE,61,2.0,2.0,95,0.00,,---,0.00,VWS V14.01,2013-01-15 14:06:00,
2013-01-15 09:07:00,46.3,45.0,30.25,ENE,78,2.0,3.0,95,0.00,,---,0.00,VWS V14.01,2013-01-15 14:07:00,
2013-01-15 09:08:00,46.3,45.0,30.24,ENE,78,3.0,5.0,95,0.00,,---,0.00,VWS V14.01,2013-01-15 14:08:00,
2013-01-15 09:09:00,46.3,45.0,30.24,East,82,2.0,5.0,95,0.00,,---,0.00,VWS V14.01,2013-01-15 14:09:00,
2013-01-15 09:10:00,46.3,45.0,30.25,ENE,77,2.0,3.0,95,0.00,,---,0.00,VWS V14.01,2013-01-15 14:10:00,
2013-01-15 09:11:00,46.3,45.0,30.25,NNE,29,3.0,3.0,95,0.00,,---,0.00,VWS V14.01,2013-01-15 14:11:00,
2013-01-15 09:12:00,46.3,45.0,30.25,NNE,30,3.0,4.0,95,0.00,,---,0.00,VWS V14.01,2013-01-15 14:12:00,
2013-01-15 09:13:00,46.3,45.0,30.25,ENE,58,1.0,3.0,95,0.00,,---,0.00,VWS V14.01,2013-01-15 14:13:00,
2013-01-15 09:14:00,46.4,45.0,30.25,NE,43,4.0,4.0,95,0.00,,---,0.00,VWS V14.01,2013-01-15 14:14:00,
2013-01-15 09:15:00,46.4,45.0,30.25,NE,42,4.0,5.0,95,0.00,,---,0.00,VWS V14.01,2013-01-15 14:15:00,
2013-01-15 09:16:00,46.3,45.0,30.25,NE,53,3.0,4.0,95,0.00,,---,0.00,VWS V14.01,2013-01-15 14:16:00,
2013-01-15 09:17:00,46.3,45.0,30.25,NE,51,3.0,6.0,95,0.00,,---,0.00,VWS V14.01,2013-01-15 14:17:00,
2013-01-15 09:18:00,46.3,45.0,30.25,NE,53,6.0,7.0,95,0.00,,---,0.00,VWS V14.01,2013-01-15 14:18:00,
2013-01-15 09:19:00,46.3,45.0,30.25,NE,56,5.0,6.0,95,0.00,,---,0.00,VWS V14.01,2013-01-15 14:19:00,
2013-01-15 09:20:00,46.3,45.0,30.25,ENE,75,2.0,5.0,95,0.00,,---,0.00,VWS V14.01,2013-01-15 14:20:00,
2013-01-15 09:21:00,46.3,45.0,30.25,NE,53,3.0,3.0,95,0.00,,---,0.00,VWS V14.01,2013-01-15 14:21:00,
2013-01-15 09:22:00,46.3,45.0,30.25,NE,46,3.0,3.0,95,0.00,,---,0.00,VWS V14.01,2013-01-15 14:22:00,
2013-01-15 09:23:00,46.3,45.0,30.25,ENE,58,2.0,4.0,95,0.00,,---,0.00,VWS V14.01,2013-01-15 14:23:00,
2013-01-15 09:24:00,46.3,45.0,30.25,NNE,33,3.0,4.0,95,0.00,,---,0.00,VWS V14.01,2013-01-15 14:24:00,
2013-01-15 09:25:00,46.3,45.0,30.25,NE,45,2.0,3.0,95,0.00,,---,0.00,VWS V14.01,2013-01-15 14:25:00,
2013-01-15 09:26:00,46.3,45.2,30.25,ENE,77,3.0,4.0,96,0.00,,---,0.00,VWS V14.01,2013-01-15 14:26:00,
2013-01-15 09:27:00,46.3,45.2,30.25,NE,50,4.0,6.0,96,0.00,,---,0.00,VWS V14.01,2013-01-15 14:27:00,
2013-01-15 09:28:00,46.3,45.2,30.25,NE,55,3.0,4.0,96,0.00,,---,0.00,VWS V14.01,2013-01-15 14:28:00,
2013-01-15 09:29:00,46.3,45.2,30.25,ENE,66,5.0,6.0,96,0.00,,---,0.00,VWS V14.01,2013-01-15 14:29:00,
2013-01-15 09:30:00,46.3,45.2,30.25,ENE,66,5.0,8.0,96,0.00,,---,0.00,VWS V14.01,2013-01-15 14:30:00,
2013-01-15 09:31:00,46.3,45.0,30.25,East,83,6.0,8.0,95,0.00,,---,0.00,VWS V14.01,2013-01-15 14:31:00,
2013-01-15 09:32:00,46.3,45.0,30.25,ENE,71,4.0,6.0,95,0.00,,---,0.00,VWS V14.01,2013-01-15 14:32:00,
2013-01-15 09:33:00,46.3,45.0,30.25,ENE,69,3.0,5.0,95,0.00,,---,0.00,VWS V14.01,2013-01-15 14:33:00,
2013-01-15 09:34:00,46.3,45.0,30.25,ENE,57,4.0,4.0,95,0.00,,---,0.00,VWS V14.01,2013-01-15 14:34:00,
2013-01-15 09:35:00,46.3,45.0,30.25,ENE,58,2.0,4.0,95,0.00,,---,0.00,VWS V14.01,2013-01-15 14:35:00,
2013-01-15 09:36:00,46.3,45.2,30.25,ENE,58,2.0,5.0,96,0.00,,---,0.00,VWS V14.01,2013-01-15 14:36:00,
2013-01-15 09:37:00,46.3,45.2,30.25,NE,42,2.0,3.0,96,0.00,,---,0.00,VWS V14.01,2013-01-15 14:37:00,
2013-01-15 09:38:00,46.3,45.2,30.25,NE,47,3.0,3.0,96,0.00,,---,0.00,VWS V14.01,2013-01-15 14:38:00,
2013-01-15 09:39:00,46.3,45.0,30.25,ENE,73,4.0,5.0,95,0.00,,---,0.00,VWS V14.01,2013-01-15 14:39:00,
2013-01-15 09:40:00,46.3,45.0,30.25,ENE,67,5.0,5.0,95,0.00,,---,0.00,VWS V14.01,2013-01-15 14:40:00,
2013-01-15 09:41:00,46.2,44.8,30.25,ENE,57,7.0,7.0,95,0.00,,---,0.00,VWS V14.01,2013-01-15 14:41:00,
2013-01-15 09:42:00,46.2,44.8,30.25,NE,49,4.0,7.0,95,0.00,,---,0.00,VWS V14.01,2013-01-15 14:42:00,
2013-01-15 09:43:00,46.1,44.8,30.25,ENE,61,3.0,4.0,95,0.00,,---,0.00,VWS V14.01,2013-01-15 14:43:00,
2013-01-15 09:44:00,46.1,44.8,30.25,NE,35,3.0,4.0,95,0.00,,---,0.00,VWS V14.01,2013-01-15 14:44:00,
2013-01-15 09:45:00,46.1,44.8,30.25,ENE,62,4.0,4.0,95,0.00,,---,0.00,VWS V14.01,2013-01-15 14:45:00,
2013-01-15 09:46:00,46.1,44.8,30.25,ENE,61,5.0,7.0,95,0.00,,---,0.00,VWS V14.01,2013-01-15 14:46:00,
2013-01-15 09:47:00,46.1,44.8,30.25,NE,54,5.0,6.0,95,0.00,,---,0.00,VWS V14.01,2013-01-15 14:47:00,
2013-01-15 09:48:00,46.1,44.8,30.25,ENE,57,5.0,6.0,95,0.00,,---,0.00,VWS V14.01,2013-01-15 14:48:00,
2013-01-15 09:49:00,46.1,44.8,30.25,NE,46,6.0,6.0,95,0.00,,---,0.00,VWS V14.01,2013-01-15 14:49:00,
2013-01-15 09:50:00,46.1,44.8,30.25,ENE,60,5.0,6.0,95,0.00,,---,0.00,VWS V14.01,2013-01-15 14:50:00,
2013-01-15 09:51:00,46.1,44.8,30.25,NE,42,5.0,5.0,95,0.00,,---,0.00,VWS V14.01,2013-01-15 14:51:00,
2013-01-15 09:52:00,46.0,44.7,30.25,NE,49,6.0,8.0,95,0.00,,---,0.00,VWS V14.01,2013-01-15 14:52:00,
2013-01-15 09:53:00,46.1,44.8,30.25,ENE,58,5.0,7.0,95,0.00,,---,0.00,VWS V14.01,2013-01-15 14:53:00,
2013-01-15 09:54:00,46.0,44.7,30.25,ENE,64,4.0,5.0,95,0.00,,---,0.00,VWS V14.01,2013-01-15 14:54:00,
2013-01-15 09:55:00,46.0,44.7,30.25,NE,55,4.0,6.0,95,0.00,,---,0.00,VWS V14.01,2013-01-15 14:55:00,
2013-01-15 09:56:00,46.1,45.0,30.25,NE,42,6.0,6.0,96,0.00,,---,0.00,VWS V14.01,2013-01-15 14:56:00,
2013-01-15 09:57:00,46.1,45.0,30.25,ENE,59,8.0,8.0,96,0.00,,---,0.00,VWS V14.01,2013-01-15 14:57:00,
2013-01-15 09:58:00,46.1,45.0,30.25,ENE,66,3.0,8.0,96,0.00,,---,0.00,VWS V14.01,2013-01-15 14:58:00,
2013-01-15 09:59:00,46.1,45.0,30.26,ENE,74,4.0,4.0,96,0.00,,---,0.00,VWS V14.01,2013-01-15 14:59:00,
2013-01-15 10:00:00,46.1,45.0,30.26,ENE,67,2.0,4.0,96,0.00,,---,0.00,VWS V14.01,2013-01-15 15:00:00,
2013-01-15 10:01:00,46.2,45.1,30.26,ENE,58,4.0,7.0,96,0.00,,---,0.00,VWS V14.01,2013-01-15 15:01:00,
2013-01-15 10:02:00,46.2,45.1,30.26,NE,49,4.0,5.0,96,0.00,,---,0.00,VWS V14.01,2013-01-15 15:02:00,
2013-01-15 10:03:00,46.2,45.1,30.26,NE,49,5.0,5.0,96,0.00,,---,0.00,VWS V14.01,2013-01-15 15:03:00,
2013-01-15 10:04:00,46.3,45.2,30.26,NE,54,3.0,5.0,96,0.00,,---,0.00,VWS V14.01,2013-01-15 15:04:00,
2013-01-15 10:05:00,46.3,45.2,30.25,NNE,32,5.0,5.0,96,0.00,,---,0.00,VWS V14.01,2013-01-15 15:05:00,
2013-01-15 10:06:00,46.3,45.2,30.25,NNE,27,4.0,4.0,96,0.00,,---,0.00,VWS V14.01,2013-01-15 15:06:00,
2013-01-15 10:07:00,46.3,45.2,30.25,NE,53,4.0,4.0,96,0.00,,---,0.00,VWS V14.01,2013-01-15 15:07:00,
2013-01-15 10:08:00,46.4,45.3,30.25,ENE,63,2.0,5.0,96,0.00,,---,0.00,VWS V14.01,2013-01-15 15:08:00,
2013-01-15 10:09:00,46.4,45.3,30.25,ENE,68,3.0,4.0,96,0.00,,---,0.00,VWS V14.01,2013-01-15 15:09:00,
2013-01-15 10:10:00,46.4,45.3,30.25,ENE,73,4.0,5.0,96,0.00,,---,0.00,VWS V14.01,2013-01-15 15:10:00,
2013-01-15 10:11:00,46.4,45.3,30.25,ENE,58,7.0,8.0,96,0.00,,---,0.00,VWS V14.01,2013-01-15 15:11:00,
2013-01-15 10:12:00,46.4,45.3,30.25,NE,49,3.0,8.0,96,0.00,,---,0.00,VWS V14.01,2013-01-15 15:12:00,
2013-01-15 10:13:00,46.5,45.4,30.25,NE,34,5.0,5.0,96,0.00,,---,0.00,VWS V14.01,2013-01-15 15:13:00,
2013-01-15 10:14:00,46.5,45.4,30.25,ENE,63,7.0,7.0,96,0.00,,---,0.00,VWS V14.01,2013-01-15 15:14:00,
2013-01-15 10:15:00,46.5,45.4,30.25,East,83,6.0,7.0,96,0.00,,---,0.00,VWS V14.01,2013-01-15 15:15:00,
2013-01-15 10:16:00,46.5,45.4,30.25,ENE,73,4.0,7.0,96,0.00,,---,0.00,VWS V14.01,2013-01-15 15:16:00,
2013-01-15 10:17:00,46.5,45.4,30.25,ENE,68,3.0,4.0,96,0.00,,---,0.00,VWS V14.01,2013-01-15 15:17:00,
2013-01-15 10:18:00,46.6,45.5,30.25,NE,36,5.0,5.0,96,0.00,,---,0.00,VWS V14.01,2013-01-15 15:18:00,
2013-01-15 10:19:00,46.6,45.5,30.25,NE,38,7.0,7.0,96,0.00,,---,0.00,VWS V14.01,2013-01-15 15:19:00,
2013-01-15 10:20:00,46.6,45.5,30.25,NE,46,6.0,8.0,96,0.00,,---,0.00,VWS V14.01,2013-01-15 15:20:00,
2013-01-15 10:21:00,46.5,45.4,30.25,NNE,26,6.0,6.0,96,0.00,,---,0.00,VWS V14.01,2013-01-15 15:21:00,
2013-01-15 10:22:00,46.5,45.4,30.25,NE,36,4.0,6.0,96,0.00,,---,0.00,VWS V14.01,2013-01-15 15:22:00,
2013-01-15 10:23:00,46.5,45.4,30.25,NNW,344,5.0,5.0,96,0.00,,---,0.00,VWS V14.01,2013-01-15 15:23:00,
2013-01-15 10:24:00,46.5,45.4,30.25,NE,47,3.0,5.0,96,0.00,,---,0.00,VWS V14.01,2013-01-15 15:24:00,
2013-01-15 10:25:00,46.5,45.4,30.25,NE,46,3.0,4.0,96,0.00,,---,0.00,VWS V14.01,2013-01-15 15:25:00,
2013-01-15 10:26:00,46.6,45.5,30.25,NNE,29,3.0,5.0,96,0.00,,---,0.00,VWS V14.01,2013-01-15 15:26:00,
2013-01-15 10:27:00,46.6,45.5,30.25,NE,42,3.0,4.0,96,0.00,,---,0.00,VWS V14.01,2013-01-15 15:27:00,
2013-01-15 10:28:00,46.6,45.5,30.25,NNE,15,2.0,3.0,96,0.00,,---,0.00,VWS V14.01,2013-01-15 15:28:00,
2013-01-15 10:29:00,46.6,45.5,30.25,NE,42,5.0,7.0,96,0.00,,---,0.00,VWS V14.01,2013-01-15 15:29:00,
2013-01-15 10:30:00,46.6,45.5,30.25,NE,48,6.0,7.0,96,0.00,,---,0.00,VWS V14.01,2013-01-15 15:30:00,
2013-01-15 10:31:00,46.6,45.5,30.25,NE,49,4.0,8.0,96,0.00,,---,0.00,VWS V14.01,2013-01-15 15:31:00,
2013-01-15 10:32:00,46.6,45.2,30.25,ENE,70,3.0,5.0,95,0.00,,---,0.00,VWS V14.01,2013-01-15 15:32:00,
2013-01-15 10:33:00,46.6,45.5,30.25,ENE,69,4.0,5.0,96,0.00,,---,0.00,VWS V14.01,2013-01-15 15:33:00,
2013-01-15 10:34:00,46.7,45.6,30.25,ENE,65,8.0,8.0,96,0.00,,---,0.00,VWS V14.01,2013-01-15 15:34:00,
2013-01-15 10:35:00,46.6,45.5,30.25,ENE,70,5.0,8.0,96,0.00,,---,0.00,VWS V14.01,2013-01-15 15:35:00,
2013-01-15 10:36:00,46.6,45.5,30.25,ENE,65,5.0,12.0,96,0.00,,---,0.00,VWS V14.01,2013-01-15 15:36:00,
2013-01-15 10:37:00,46.6,45.2,30.25,ENE,69,7.0,9.0,95,0.00,,---,0.00,VWS V14.01,2013-01-15 15:37:00,
2013-01-15 10:38:00,46.6,45.2,30.25,ENE,63,9.0,9.0,95,0.00,,---,0.00,VWS V14.01,2013-01-15 15:38:00,
2013-01-15 10:39:00,46.5,45.2,30.25,ENE,63,8.0,10.0,95,0.00,,---,0.00,VWS V14.01,2013-01-15 15:39:00,
2013-01-15 10:40:00,46.5,45.2,30.25,ENE,67,7.0,10.0,95,0.00,,---,0.00,VWS V14.01,2013-01-15 15:40:00,
2013-01-15 10:41:00,46.5,45.2,30.24,ENE,66,5.0,7.0,95,0.00,,---,0.00,VWS V14.01,2013-01-15 15:41:00,
2013-01-15 10:42:00,46.5,45.4,30.24,ENE,68,5.0,5.0,96,0.00,,---,0.00,VWS V14.01,2013-01-15 15:42:00,
2013-01-15 10:43:00,46.6,45.5,30.24,East,88,8.0,8.0,96,0.00,,---,0.00,VWS V14.01,2013-01-15 15:43:00,
2013-01-15 10:44:00,46.6,45.5,30.24,ENE,58,5.0,9.0,96,0.00,,---,0.00,VWS V14.01,2013-01-15 15:44:00,
2013-01-15 10:45:00,46.6,45.5,30.24,ENE,71,7.0,9.0,96,0.00,,---,0.00,VWS V14.01,2013-01-15 15:45:00,
2013-01-15 10:46:00,46.6,45.5,30.24,East,80,7.0,8.0,96,0.00,,---,0.00,VWS V14.01,2013-01-15 15:46:00,
2013-01-15 10:47:00,46.6,45.5,30.24,ENE,76,7.0,7.0,96,0.00,,---,0.00,VWS V14.01,2013-01-15 15:47:00,
2013-01-15 10:48:00,46.6,45.5,30.25,ENE,74,4.0,9.0,96,0.00,,---,0.00,VWS V14.01,2013-01-15 15:48:00,
2013-01-15 10:49:00,46.6,45.5,30.25,ENE,63,4.0,5.0,96,0.00,,---,0.00,VWS V14.01,2013-01-15 15:49:00,
2013-01-15 10:50:00,46.6,45.5,30.25,ENE,74,7.0,7.0,96,0.00,,---,0.00,VWS V14.01,2013-01-15 15:50:00,
2013-01-15 10:51:00,46.6,45.5,30.25,NNE,30,6.0,10.0,96,0.00,,---,0.00,VWS V14.01,2013-01-15 15:51:00,
2013-01-15 10:52:00,46.6,45.5,30.25,NE,51,7.0,7.0,96,0.00,,---,0.00,VWS V14.01,2013-01-15 15:52:00,
2013-01-15 10:53:00,46.6,45.5,30.25,NE,48,6.0,7.0,96,0.00,,---,0.00,VWS V14.01,2013-01-15 15:53:00,
2013-01-15 10:54:00,46.6,45.5,30.25,NE,38,4.0,7.0,96,0.00,,---,0.00,VWS V14.01,2013-01-15 15:54:00,
2013-01-15 10:55:00,46.6,45.5,30.25,NE,53,4.0,7.0,96,0.00,,---,0.00,VWS V14.01,2013-01-15 15:55:00,
2013-01-15 10:56:00,46.6,45.5,30.25,ENE,58,5.0,7.0,96,0.00,,---,0.00,VWS V14.01,2013-01-15 15:56:00,
2013-01-15 10:57:00,46.6,45.5,30.25,NE,53,5.0,9.0,96,0.00,,---,0.00,VWS V14.01,2013-01-15 15:57:00,
2013-01-15 10:58:00,46.6,45.5,30.25,ENE,74,4.0,8.0,96,0.00,,---,0.00,VWS V14.01,2013-01-15 15:58:00,
2013-01-15 10:59:00,46.5,45.4,30.25,NE,50,7.0,9.0,96,0.00,,---,0.00,VWS V14.01,2013-01-15 15:59:00,
2013-01-15 11:00:00,46.5,45.4,30.25,ENE,58,7.0,9.0,96,0.00,,---,0.00,VWS V14.01,2013-01-15 16:00:00,
2013-01-15 11:01:00,46.5,45.2,30.25,NE,53,5.0,7.0,95,0.00,,---,0.00,VWS V14.01,2013-01-15 16:01:00,
2013-01-15 11:02:00,46.4,45.0,30.25,ENE,63,8.0,9.0,95,0.00,,---,0.00,VWS V14.01,2013-01-15 16:02:00,
2013-01-15 11:03:00,46.4,45.0,30.25,ENE,66,7.0,8.0,95,0.00,,---,0.00,VWS V14.01,2013-01-15 16:03:00,
2013-01-15 11:04:00,46.3,45.0,30.25,ENE,67,5.0,8.0,95,0.00,,---,0.00,VWS V14.01,2013-01-15 16:04:00,
2013-01-15 11:05:00,46.3,45.0,30.25,ENE,74,7.0,8.0,95,0.00,,---,0.00,VWS V14.01,2013-01-15 16:05:00,
2013-01-15 11:06:00,46.2,44.8,30.25,NE,53,5.0,9.0,95,0.00,,---,0.00,VWS V14.01,2013-01-15 16:06:00,
2013-01-15 11:07:00,46.2,44.8,30.25,NE,34,4.0,7.0,95,0.00,,---,0.00,VWS V14.01,2013-01-15 16:07:00,
2013-01-15 11:08:00,46.2,45.1,30.25,NE,49,5.0,8.0,96,0.00,,---,0.00,VWS V14.01,2013-01-15 16:08:00,
2013-01-15 11:09:00,46.2,45.1,30.25,NE,44,4.0,5.0,96,0.00,,---,0.00,VWS V14.01,2013-01-15 16:09:00,
2013-01-15 11:10:00,46.2,45.1,30.25,ENE,71,8.0,8.0,96,0.00,,---,0.00,VWS V14.01,2013-01-15 16:10:00,
2013-01-15 11:11:00,46.2,45.1,30.25,ENE,67,2.0,8.0,96,0.00,,---,0.00,VWS V14.01,2013-01-15 16:11:00,
2013-01-15 11:12:00,46.1,45.0,30.25,NE,55,4.0,6.0,96,0.00,,---,0.00,VWS V14.01,2013-01-15 16:12:00,
2013-01-15 11:13:00,46.1,45.0,30.25,ENE,58,2.0,5.0,96,0.00,,---,0.00,VWS V14.01,2013-01-15 16:13:00,
2013-01-15 11:14:00,46.1,45.0,30.25,ENE,65,4.0,7.0,96,0.00,,---,0.00,VWS V14.01,2013-01-15 16:14:00,
2013-01-15 11:15:00,46.2,45.1,30.25,ENE,59,4.0,7.0,96,0.00,,---,0.00,VWS V14.01,2013-01-15 16:15:00,
2013-01-15 11:16:00,46.1,45.0,30.25,ENE,70,5.0,7.0,96,0.00,,---,0.00,VWS V14.01,2013-01-15 16:16:00,
2013-01-15 11:17:00,46.2,45.1,30.25,ENE,73,3.0,7.0,96,0.00,,---,0.00,VWS V14.01,2013-01-15 16:17:00,
2013-01-15 11:18:00,46.2,45.1,30.25,ENE,61,5.0,8.0,96,0.00,,---,0.00,VWS V14.01,2013-01-15 16:18:00,
2013-01-15 11:19:00,46.1,45.0,30.25,ENE,66,3.0,8.0,96,0.00,,---,0.00,VWS V14.01,2013-01-15 16:19:00,
2013-01-15 11:20:00,46.1,45.0,30.25,ESE,103,4.0,8.0,96,0.00,,---,0.00,VWS V14.01,2013-01-15 16:20:00,
2013-01-15 11:21:00,46.1,45.0,30.25,ENE,73,5.0,5.0,96,0.00,,---,0.00,VWS V14.01,2013-01-15 16:21:00,
2013-01-15 11:22:00,46.1,45.0,30.25,ENE,71,8.0,9.0,96,0.00,,---,0.00,VWS V14.01,2013-01-15 16:22:00,
2013-01-15 11:23:00,46.1,45.0,30.25,ENE,71,4.0,8.0,96,0.00,,---,0.00,VWS V14.01,2013-01-15 16:23:00,
2013-01-15 11:24:00,46.1,45.0,30.25,ENE,65,3.0,5.0,96,0.00,,---,0.00,VWS V14.01,2013-01-15 16:24:00,
2013-01-15 11:25:00,46.1,45.0,30.25,NE,51,3.0,5.0,96,0.00,,---,0.00,VWS V14.01,2013-01-15 16:25:00,
2013-01-15 11:26:00,46.1,45.0,30.25,NE,55,4.0,7.0,96,0.00,,---,0.00,VWS V14.01,2013-01-15 16:26:00,
2013-01-15 11:27:00,46.1,45.0,30.25,ENE,62,4.0,9.0,96,0.00,,---,0.00,VWS V14.01,2013-01-15 16:27:00,
2013-01-15 11:28:00,46.1,45.0,30.25,ENE,76,4.0,5.0,96,0.00,,---,0.00,VWS V14.01,2013-01-15 16:28:00,
2013-01-15 11:29:00,46.0,44.9,30.25,ENE,77,5.0,5.0,96,0.00,,---,0.00,VWS V14.01,2013-01-15 16:29:00,
2013-01-15 11:30:00,46.0,44.9,30.25,ENE,73,4.0,5.0,96,0.00,,---,0.00,VWS V14.01,2013-01-15 16:30:00,
2013-01-15 11:31:00,46.0,44.9,30.25,NE,50,4.0,7.0,96,0.00,,---,0.00,VWS V14.01,2013-01-15 16:31:00,
2013-01-15 11:32:00,46.0,44.9,30.25,ENE,78,5.0,7.0,96,0.00,,---,0.00,VWS V14.01,2013-01-15 16:32:00,
2013-01-15 11:33:00,45.9,44.8,30.25,ENE,63,7.0,10.0,96,0.00,,---,0.00,VWS V14.01,2013-01-15 16:33:00,
2013-01-15 11:34:00,45.9,44.8,30.25,ENE,76,5.0,10.0,96,0.00,,---,0.00,VWS V14.01,2013-01-15 16:34:00,
2013-01-15 11:35:00,45.9,44.8,30.25,ENE,74,7.0,10.0,96,0.00,,---,0.00,VWS V14.01,2013-01-15 16:35:00,
2013-01-15 11:36:00,45.9,44.8,30.24,ENE,60,4.0,7.0,96,0.00,,---,0.00,VWS V14.01,2013-01-15 16:36:00,
2013-01-15 11:37:00,45.9,44.8,30.24,ENE,71,5.0,7.0,96,0.00,,---,0.00,VWS V14.01,2013-01-15 16:37:00,
2013-01-15 11:38:00,45.9,44.8,30.24,NE,36,3.0,6.0,96,0.00,,---,0.00,VWS V14.01,2013-01-15 16:38:00,
2013-01-15 11:39:00,46.0,44.9,30.24,East,83,6.0,6.0,96,0.00,,---,0.00,VWS V14.01,2013-01-15 16:39:00,
2013-01-15 11:40:00,46.0,44.9,30.24,ENE,65,4.0,6.0,96,0.00,,---,0.00,VWS V14.01,2013-01-15 16:40:00,
2013-01-15 11:41:00,46.0,44.9,30.24,NE,47,4.0,7.0,96,0.00,,---,0.00,VWS V14.01,2013-01-15 16:41:00,
2013-01-15 11:42:00,46.0,44.9,30.24,ENE,73,9.0,10.0,96,0.00,,---,0.00,VWS V14.01,2013-01-15 16:42:00,
2013-01-15 11:43:00,45.9,44.8,30.24,ENE,70,11.0,11.0,96,0.00,,---,0.00,VWS V14.01,2013-01-15 16:43:00,
2013-01-15 11:44:00,45.8,44.7,30.24,ENE,71,7.0,7.0,96,0.00,,---,0.00,VWS V14.01,2013-01-15 16:44:00,
2013-01-15 11:45:00,45.8,44.7,30.24,East,81,8.0,10.0,96,0.00,,---,0.00,VWS V14.01,2013-01-15 16:45:00,
2013-01-15 11:46:00,45.7,44.6,30.24,ENE,71,8.0,10.0,96,0.00,,---,0.00,VWS V14.01,2013-01-15 16:46:00,
2013-01-15 11:47:00,45.7,44.6,30.23,ENE,58,4.0,9.0,96,0.00,,---,0.00,VWS V14.01,2013-01-15 16:47:00,
2013-01-15 11:48:00,45.7,44.6,30.23,ENE,69,3.0,4.0,96,0.00,,---,0.00,VWS V14.01,2013-01-15 16:48:00,
2013-01-15 11:49:00,45.7,44.6,30.23,NE,51,8.0,9.0,96,0.00,,---,0.00,VWS V14.01,2013-01-15 16:49:00,
2013-01-15 11:50:00,45.7,44.6,30.23,ENE,67,5.0,9.0,96,0.00,,---,0.00,VWS V14.01,2013-01-15 16:50:00,
2013-01-15 11:51:00,45.7,44.6,30.23,ENE,61,5.0,7.0,96,0.00,,---,0.00,VWS V14.01,2013-01-15 16:51:00,
2013-01-15 11:52:00,45.7,44.6,30.23,ENE,60,7.0,8.0,96,0.00,,---,0.00,VWS V14.01,2013-01-15 16:52:00,
2013-01-15 11:53:00,45.7,44.6,30.23,ENE,73,9.0,9.0,96,0.00,,---,0.00,VWS V14.01,2013-01-15 16:53:00,
2013-01-15 11:54:00,45.7,44.6,30.23,NE,53,5.0,5.0,96,0.00,,---,0.00,VWS V14.01,2013-01-15 16:54:00,
2013-01-15 11:55:00,45.7,44.6,30.23,NE,34,8.0,8.0,96,0.00,,---,0.00,VWS V14.01,2013-01-15 16:55:00,
2013-01-15 11:56:00,45.6,44.5,30.23,NE,51,4.0,8.0,96,0.00,,---,0.00,VWS V14.01,2013-01-15 16:56:00,
2013-01-15 11:57:00,45.6,44.5,30.23,ENE,63,4.0,10.0,96,0.00,,---,0.00,VWS V14.01,2013-01-15 16:57:00,
2013-01-15 11:58:00,45.6,44.5,30.23,ENE,71,7.0,9.0,96,0.00,,---,0.00,VWS V14.01,2013-01-15 16:58:00,
2013-01-15 11:59:00,45.6,44.5,30.23,NE,49,6.0,8.0,96,0.00,,---,0.00,VWS V14.01,2013-01-15 16:59:00,
2013-01-15 12:00:00,45.6,44.5,30.23,NE,36,7.0,9.0,96,0.00,,---,0.00,VWS V14.01,2013-01-15 17:00:00,
2013-01-15 12:01:00,45.6,44.5,30.23,ENE,66,5.0,8.0,96,0.00,,---,0.00,VWS V14.01,2013-01-15 17:01:00,
2013-01-15 12:02:00,45.5,44.4,30.23,NE,42,9.0,9.0,96,0.00,,---,0.00,VWS V14.01,2013-01-15 17:02:00,
2013-01-15 12:03:00,45.5,44.4,30.23,ENE,69,5.0,9.0,96,0.00,,---,0.00,VWS V14.01,2013-01-15 17:03:00,
2013-01-15 12:04:00,45.5,44.4,30.23,ENE,78,5.0,8.0,96,0.00,,---,0.00,VWS V14.01,2013-01-15 17:04:00,
2013-01-15 12:05:00,45.5,44.4,30.23,East,80,8.0,8.0,96,0.00,,---,0.00,VWS V14.01,2013-01-15 17:05:00,
2013-01-15 12:06:00,45.5,44.4,30.23,ENE,62,9.0,9.0,96,0.00,,---,0.00,VWS V14.01,2013-01-15 17:06:00,
2013-01-15 12:07:00,45.5,44.4,30.23,ENE,58,4.0,9.0,96,0.00,,---,0.00,VWS V14.01,2013-01-15 17:07:00,
2013-01-15 12:08:00,45.6,44.5,30.23,ENE,58,9.0,9.0,96,0.00,,---,0.00,VWS V14.01,2013-01-15 17:08:00,
2013-01-15 12:09:00,45.6,44.5,30.23,NE,49,5.0,10.0,96,0.00,,---,0.00,VWS V14.01,2013-01-15 17:09:00,
2013-01-15 12:10:00,45.6,44.5,30.23,NE,35,6.0,10.0,96,0.00,,---,0.00,VWS V14.01,2013-01-15 17:10:00,
2013-01-15 12:11:00,45.6,44.5,30.22,NE,50,6.0,9.0,96,0.00,,---,0.00,VWS V14.01,2013-01-15 17:11:00,
2013-01-15 12:12:00,45.6,44.5,30.22,ENE,73,7.0,8.0,96,0.00,,---,0.00,VWS V14.01,2013-01-15 17:12:00,
2013-01-15 12:13:00,45.6,44.5,30.22,ENE,63,9.0,11.0,96,0.00,,---,0.00,VWS V14.01,2013-01-15 17:13:00,
2013-01-15 12:14:00,45.6,44.5,30.22,ENE,67,7.0,10.0,96,0.00,,---,0.00,VWS V14.01,2013-01-15 17:14:00,
2013-01-15 12:15:00,45.6,44.5,30.22,ENE,58,9.0,11.0,96,0.00,,---,0.00,VWS V14.01,2013-01-15 17:15:00,
2013-01-15 12:16:00,45.5,44.4,30.22,ENE,73,10.0,10.0,96,0.00,,---,0.00,VWS V14.01,2013-01-15 17:16:00,
2013-01-15 12:17:00,45.5,44.4,30.22,ENE,66,8.0,10.0,96,0.00,,---,0.00,VWS V14.01,2013-01-15 17:17:00,
2013-01-15 12:18:00,45.5,44.4,30.22,ENE,59,4.0,8.0,96,0.00,,---,0.00,VWS V14.01,2013-01-15 17:18:00,
2013-01-15 12:19:00,45.6,44.5,30.22,ENE,76,10.0,10.0,96,0.00,,---,0.00,VWS V14.01,2013-01-15 17:19:00,
2013-01-15 12:20:00,45.6,44.5,30.22,ENE,75,7.0,10.0,96,0.00,,---,0.00,VWS V14.01,2013-01-15 17:20:00,
2013-01-15 12:21:00,45.6,44.5,30.22,East,80,8.0,10.0,96,0.00,,---,0.00,VWS V14.01,2013-01-15 17:21:00,
2013-01-15 12:22:00,45.5,44.4,30.22,ENE,63,8.0,10.0,96,0.00,,---,0.00,VWS V14.01,2013-01-15 17:22:00,
2013-01-15 12:23:00,45.5,44.4,30.22,ENE,70,7.0,9.0,96,0.00,,---,0.00,VWS V14.01,2013-01-15 17:23:00,
2013-01-15 12:24:00,45.6,44.5,30.22,ENE,74,7.0,7.0,96,0.00,,---,0.00,VWS V14.01,2013-01-15 17:24:00,
2013-01-15 12:25:00,45.6,44.5,30.22,East,88,8.0,9.0,96,0.00,,---,0.00,VWS V14.01,2013-01-15 17:25:00,
2013-01-15 12:26:00,45.6,44.5,30.22,ENE,62,9.0,11.0,96,0.00,,---,0.00,VWS V14.01,2013-01-15 17:26:00,
2013-01-15 12:27:00,45.6,44.5,30.22,ENE,69,7.0,9.0,96,0.00,,---,0.00,VWS V14.01,2013-01-15 17:27:00,
2013-01-15 12:28:00,45.5,44.4,30.22,NE,55,7.0,13.0,96,0.00,,---,0.00,VWS V14.01,2013-01-15 17:28:00,
2013-01-15 12:29:00,45.5,44.4,30.22,East,94,7.0,9.0,96,0.00,,---,0.00,VWS V14.01,2013-01-15 17:29:00,
2013-01-15 12:30:00,45.5,44.4,30.22,ENE,76,7.0,9.0,96,0.00,,---,0.00,VWS V14.01,2013-01-15 17:30:00,
2013-01-15 12:31:00,45.5,44.4,30.22,ENE,73,5.0,8.0,96,0.00,,---,0.00,VWS V14.01,2013-01-15 17:31:00,
2013-01-15 12:32:00,45.5,44.4,30.22,NE,38,3.0,5.0,96,0.00,,---,0.00,VWS V14.01,2013-01-15 17:32:00,
2013-01-15 12:33:00,45.5,44.4,30.22,NE,39,5.0,5.0,96,0.00,,---,0.00,VWS V14.01,2013-01-15 17:33:00,
2013-01-15 12:34:00,45.6,44.5,30.22,ENE,60,8.0,8.0,96,0.00,,---,0.00,VWS V14.01,2013-01-15 17:34:00,
2013-01-15 12:35:00,45.6,44.5,30.22,NE,45,7.0,9.0,96,0.00,,---,0.00,VWS V14.01,2013-01-15 17:35:00,
2013-01-15 12:36:00,45.6,44.5,30.22,NE,51,4.0,8.0,96,0.00,,---,0.00,VWS V14.01,2013-01-15 17:36:00,
2013-01-15 12:37:00,45.5,44.4,30.22,NE,43,5.0,6.0,96,0.00,,---,0.00,VWS V14.01,2013-01-15 17:37:00,
2013-01-15 12:38:00,45.6,44.5,30.22,NE,55,3.0,5.0,96,0.00,,---,0.00,VWS V14.01,2013-01-15 17:38:00,
2013-01-15 12:39:00,45.6,44.5,30.22,NE,43,7.0,8.0,96,0.00,,---,0.00,VWS V14.01,2013-01-15 17:39:00,
2013-01-15 12:40:00,45.6,44.5,30.22,NE,36,8.0,8.0,96,0.00,,---,0.00,VWS V14.01,2013-01-15 17:40:00,
2013-01-15 12:41:00,45.5,44.4,30.22,ENE,62,10.0,10.0,96,0.00,,---,0.00,VWS V14.01,2013-01-15 17:41:00,
2013-01-15 12:42:00,45.5,44.4,30.22,ENE,58,8.0,10.0,96,0.00,,---,0.00,VWS V14.01,2013-01-15 17:42:00,
2013-01-15 12:43:00,45.5,44.4,30.22,ENE,58,7.0,8.0,96,0.00,,---,0.00,VWS V14.01,2013-01-15 17:43:00,
2013-01-15 12:44:00,45.5,44.4,30.22,ENE,62,7.0,9.0,96,0.00,,---,0.00,VWS V14.01,2013-01-15 17:44:00,
2013-01-15 12:45:00,45.6,44.5,30.22,ENE,64,9.0,9.0,96,0.00,,---,0.00,VWS V14.01,2013-01-15 17:45:00,
2013-01-15 12:46:00,45.6,44.5,30.22,NE,39,8.0,11.0,96,0.00,,---,0.00,VWS V14.01,2013-01-15 17:46:00,
2013-01-15 12:47:00,45.5,44.4,30.22,NE,55,7.0,9.0,96,0.00,,---,0.00,VWS V14.01,2013-01-15 17:47:00,
2013-01-15 12:48:00,45.5,44.4,30.22,ENE,63,7.0,9.0,96,0.00,,---,0.00,VWS V14.01,2013-01-15 17:48:00,
2013-01-15 12:49:00,45.5,44.4,30.22,NE,44,6.0,9.0,96,0.00,,---,0.00,VWS V14.01,2013-01-15 17:49:00,
2013-01-15 12:50:00,45.5,44.4,30.22,ENE,64,8.0,11.0,96,0.00,,---,0.00,VWS V14.01,2013-01-15 17:50:00,
2013-01-15 12:51:00,45.6,44.5,30.22,ENE,71,5.0,8.0,96,0.00,,---,0.00,VWS V14.01,2013-01-15 17:51:00,
2013-01-15 12:52:00,45.6,44.5,30.22,East,80,6.0,9.0,96,0.00,,---,0.00,VWS V14.01,2013-01-15 17:52:00,
2013-01-15 12:53:00,45.6,44.5,30.22,ENE,74,9.0,11.0,96,0.00,,---,0.00,VWS V14.01,2013-01-15 17:53:00,
2013-01-15 12:54:00,45.6,44.5,30.22,ENE,75,8.0,10.0,96,0.00,,---,0.00,VWS V14.01,2013-01-15 17:54:00,
2013-01-15 12:55:00,45.6,44.5,30.22,ENE,74,10.0,12.0,96,0.00,,---,0.00,VWS V14.01,2013-01-15 17:55:00,
2013-01-15 12:56:00,45.6,44.2,30.21,ENE,66,8.0,14.0,95,0.00,,---,0.00,VWS V14.01,2013-01-15 17:56:00,
2013-01-15 12:57:00,45.6,44.2,30.21,NE,47,5.0,8.0,95,0.00,,---,0.00,VWS V14.01,2013-01-15 17:57:00,
2013-01-15 12:58:00,45.6,44.2,30.21,ENE,76,5.0,8.0,95,0.00,,---,0.00,VWS V14.01,2013-01-15 17:58:00,
2013-01-15 12:59:00,45.6,44.2,30.21,ENE,75,5.0,6.0,95,0.00,,---,0.00,VWS V14.01,2013-01-15 17:59:00,
2013-01-15 13:00:00,45.6,44.2,30.21,ENE,74,8.0,8.0,95,0.00,,---,0.00,VWS V14.01,2013-01-15 18:00:00,
2013-01-15 13:01:00,45.6,44.2,30.21,ENE,77,5.0,9.0,95,0.00,,---,0.00,VWS V14.01,2013-01-15 18:01:00,
2013-01-15 13:02:00,45.6,44.5,30.21,East,86,6.0,8.0,96,0.00,,---,0.00,VWS V14.01,2013-01-15 18:02:00,
2013-01-15 13:03:00,45.7,44.6,30.21,ENE,69,7.0,9.0,96,0.00,,---,0.00,VWS V14.01,2013-01-15 18:03:00,
2013-01-15 13:04:00,45.7,44.3,30.21,ENE,57,7.0,8.0,95,0.00,,---,0.00,VWS V14.01,2013-01-15 18:04:00,
2013-01-15 13:05:00,45.7,44.3,30.21,NE,49,6.0,8.0,95,0.00,,---,0.00,VWS V14.01,2013-01-15 18:05:00,
2013-01-15 13:06:00,45.7,44.3,30.21,ENE,65,8.0,9.0,95,0.00,,---,0.00,VWS V14.01,2013-01-15 18:06:00,
2013-01-15 13:07:00,45.7,44.3,30.21,ENE,70,5.0,8.0,95,0.00,,---,0.00,VWS V14.01,2013-01-15 18:07:00,
2013-01-15 13:08:00,45.7,44.3,30.21,ENE,66,7.0,8.0,95,0.00,,---,0.00,VWS V14.01,2013-01-15 18:08:00,
2013-01-15 13:09:00,45.7,44.3,30.21,ENE,63,7.0,7.0,95,0.00,,---,0.00,VWS V14.01,2013-01-15 18:09:00,
2013-01-15 13:10:00,45.7,44.3,30.21,ENE,70,5.0,7.0,95,0.00,,---,0.00,VWS V14.01,2013-01-15 18:10:00,
2013-01-15 13:11:00,45.8,44.5,30.21,NE,55,5.0,5.0,95,0.00,,---,0.00,VWS V14.01,2013-01-15 18:11:00,
2013-01-15 13:12:00,45.8,44.5,30.21,ENE,74,5.0,5.0,95,0.00,,---,0.00,VWS V14.01,2013-01-15 18:12:00,
2013-01-15 13:13:00,45.9,44.5,30.21,ENE,61,5.0,7.0,95,0.00,,---,0.00,VWS V14.01,2013-01-15 18:13:00,
2013-01-15 13:14:00,45.9,44.5,30.21,ENE,74,5.0,7.0,95,0.00,,---,0.00,VWS V14.01,2013-01-15 18:14:00,
2013-01-15 13:15:00,45.9,44.5,30.21,ENE,67,4.0,7.0,95,0.00,,---,0.00,VWS V14.01,2013-01-15 18:15:00,
2013-01-15 13:16:00,46.0,44.7,30.21,ENE,73,7.0,7.0,95,0.00,,---,0.00,VWS V14.01,2013-01-15 18:16:00,
2013-01-15 13:17:00,46.0,44.7,30.21,East,83,5.0,7.0,95,0.00,,---,0.00,VWS V14.01,2013-01-15 18:17:00,
2013-01-15 13:18:00,46.0,44.7,30.21,ENE,65,3.0,5.0,95,0.00,,---,0.00,VWS V14.01,2013-01-15 18:18:00,
2013-01-15 13:19:00,46.1,44.8,30.21,ENE,74,7.0,7.0,95,0.00,,---,0.00,VWS V14.01,2013-01-15 18:19:00,
2013-01-15 13:20:00,46.2,44.8,30.21,East,81,13.0,13.0,95,0.00,,---,0.00,VWS V14.01,2013-01-15 18:20:00,
2013-01-15 13:21:00,46.1,44.8,30.21,ENE,76,11.0,13.0,95,0.00,,---,0.00,VWS V14.01,2013-01-15 18:21:00,
2013-01-15 13:22:00,46.1,44.8,30.21,East,92,9.0,11.0,95,0.00,,---,0.00,VWS V14.01,2013-01-15 18:22:00,
2013-01-15 13:23:00,46.1,44.8,30.21,ENE,76,11.0,11.0,95,0.00,,---,0.00,VWS V14.01,2013-01-15 18:23:00,
2013-01-15 13:24:00,46.1,44.8,30.20,ENE,68,9.0,9.0,95,0.00,,---,0.00,VWS V14.01,2013-01-15 18:24:00,
2013-01-15 13:25:00,46.1,44.8,30.20,East,80,8.0,11.0,95,0.00,,---,0.00,VWS V14.01,2013-01-15 18:25:00,
2013-01-15 13:26:00,46.1,44.8,30.20,East,90,9.0,11.0,95,0.00,,---,0.00,VWS V14.01,2013-01-15 18:26:00,
2013-01-15 13:27:00,46.0,44.7,30.20,ENE,73,8.0,9.0,95,0.00,,---,0.00,VWS V14.01,2013-01-15 18:27:00,
2013-01-15 13:28:00,46.1,44.8,30.20,East,86,6.0,10.0,95,0.00,,---,0.00,VWS V14.01,2013-01-15 18:28:00,
2013-01-15 13:29:00,46.1,44.8,30.20,ENE,65,8.0,8.0,95,0.00,,---,0.00,VWS V14.01,2013-01-15 18:29:00,
2013-01-15 13:30:00,46.1,44.8,30.20,ENE,66,8.0,8.0,95,0.00,,---,0.00,VWS V14.01,2013-01-15 18:30:00,
2013-01-15 13:31:00,46.1,44.8,30.20,ENE,62,7.0,8.0,95,0.00,,---,0.00,VWS V14.01,2013-01-15 18:31:00,
2013-01-15 13:32:00,46.1,44.8,30.20,NE,46,4.0,10.0,95,0.00,,---,0.00,VWS V14.01,2013-01-15 18:32:00,
2013-01-15 13:33:00,46.1,44.8,30.20,ENE,77,7.0,8.0,95,0.00,,---,0.00,VWS V14.01,2013-01-15 18:33:00,
2013-01-15 13:34:00,46.1,44.8,30.20,ENE,64,5.0,5.0,95,0.00,,---,0.00,VWS V14.01,2013-01-15 18:34:00,
2013-01-15 13:35:00,46.1,44.8,30.20,ENE,66,7.0,9.0,95,0.00,,---,0.00,VWS V14.01,2013-01-15 18:35:00,
2013-01-15 13:36:00,46.1,44.8,30.20,ENE,74,8.0,12.0,95,0.00,,---,0.00,VWS V14.01,2013-01-15 18:36:00,
2013-01-15 13:37:00,46.1,44.8,30.20,ENE,71,8.0,9.0,95,0.00,,---,0.00,VWS V14.01,2013-01-15 18:37:00,
2013-01-15 13:38:00,46.0,44.7,30.19,ENE,65,5.0,14.0,95,0.00,,---,0.00,VWS V14.01,2013-01-15 18:38:00,
2013-01-15 13:39:00,46.1,44.8,30.19,ENE,70,5.0,5.0,95,0.00,,---,0.00,VWS V14.01,2013-01-15 18:39:00,
2013-01-15 13:40:00,46.1,44.8,30.19,ENE,69,5.0,8.0,95,0.00,,---,0.00,VWS V14.01,2013-01-15 18:40:00,
2013-01-15 13:41:00,46.1,44.8,30.19,ENE,74,7.0,8.0,95,0.00,,---,0.00,VWS V14.01,2013-01-15 18:41:00,
2013-01-15 13:42:00,46.1,44.8,30.19,NE,49,4.0,7.0,95,0.00,,---,0.00,VWS V14.01,2013-01-15 18:42:00,
2013-01-15 13:43:00,46.1,44.8,30.19,ENE,61,7.0,7.0,95,0.00,,---,0.00,VWS V14.01,2013-01-15 18:43:00,
2013-01-15 13:44:00,46.1,44.8,30.19,NE,55,5.0,5.0,95,0.00,,---,0.00,VWS V14.01,2013-01-15 18:44:00,
2013-01-15 13:45:00,46.1,44.8,30.19,East,83,7.0,8.0,95,0.00,,---,0.00,VWS V14.01,2013-01-15 18:45:00,
2013-01-15 13:46:00,46.1,44.8,30.19,ENE,71,5.0,8.0,95,0.00,,---,0.00,VWS V14.01,2013-01-15 18:46:00,
2013-01-15 13:47:00,46.1,44.8,30.19,ENE,66,4.0,7.0,95,0.00,,---,0.00,VWS V14.01,2013-01-15 18:47:00,
2013-01-15 13:48:00,46.2,44.8,30.19,ENE,66,4.0,6.0,95,0.00,,---,0.00,VWS V14.01,2013-01-15 18:48:00,
2013-01-15 13:49:00,46.2,44.8,30.20,NE,36,6.0,7.0,95,0.00,,---,0.00,VWS V14.01,2013-01-15 18:49:00,
2013-01-15 13:50:00,46.2,44.8,30.20,ENE,70,5.0,8.0,95,0.00,,---,0.00,VWS V14.01,2013-01-15 18:50:00,
2013-01-15 13:51:00,46.2,44.8,30.20,NE,50,4.0,5.0,95,0.00,,---,0.00,VWS V14.01,2013-01-15 18:51:00,
2013-01-15 13:52:00,46.3,45.0,30.20,ENE,58,3.0,4.0,95,0.00,,---,0.00,VWS V14.01,2013-01-15 18:52:00,
2013-01-15 13:53:00,46.3,45.0,30.20,NE,49,3.0,4.0,95,0.00,,---,0.00,VWS V14.01,2013-01-15 18:53:00,
2013-01-15 13:54:00,46.4,45.0,30.20,ENE,60,4.0,4.0,95,0.00,,---,0.00,VWS V14.01,2013-01-15 18:54:00,
2013-01-15 13:55:00,46.4,45.0,30.20,NE,48,6.0,7.0,95,0.00,,---,0.00,VWS V14.01,2013-01-15 18:55:00,
2013-01-15 13:56:00,46.4,45.0,30.20,NE,51,5.0,8.0,95,0.00,,---,0.00,VWS V14.01,2013-01-15 18:56:00,
2013-01-15 13:57:00,46.3,45.0,30.20,NE,55,5.0,8.0,95,0.00,,---,0.00,VWS V14.01,2013-01-15 18:57:00,
2013-01-15 13:58:00,46.3,45.0,30.19,NE,48,5.0,8.0,95,0.00,,---,0.00,VWS V14.01,2013-01-15 18:58:00,
2013-01-15 13:59:00,46.3,45.0,30.19,East,84,9.0,9.0,95,0.00,,---,0.00,VWS V14.01,2013-01-15 18:59:00,
2013-01-15 14:00:00,46.3,45.0,30.19,ENE,75,8.0,9.0,95,0.00,,---,0.00,VWS V14.01,2013-01-15 19:00:00,
2013-01-15 14:01:00,46.3,45.0,30.19,ENE,74,7.0,8.0,95,0.00,,---,0.00,VWS V14.01,2013-01-15 19:01:00,
2013-01-15 14:02:00,46.3,45.0,30.19,East,88,7.0,8.0,95,0.00,,---,0.00,VWS V14.01,2013-01-15 19:02:00,
2013-01-15 14:03:00,46.3,45.0,30.19,ENE,64,3.0,8.0,95,0.00,,---,0.00,VWS V14.01,2013-01-15 19:03:00,
2013-01-15 14:04:00,46.3,45.0,30.20,ENE,58,4.0,5.0,95,0.00,,---,0.00,VWS V14.01,2013-01-15 19:04:00,
2013-01-15 14:05:00,46.3,45.0,30.20,NE,42,6.0,7.0,95,0.00,,---,0.00,VWS V14.01,2013-01-15 19:05:00,
2013-01-15 14:06:00,46.3,45.0,30.19,NE,53,2.0,6.0,95,0.00,,---,0.00,VWS V14.01,2013-01-15 19:06:00,
2013-01-15 14:07:00,46.3,45.0,30.19,ENE,60,3.0,3.0,95,0.00,,---,0.00,VWS V14.01,2013-01-15 19:07:00,
2013-01-15 14:08:00,46.4,45.0,30.19,East,93,6.0,7.0,95,0.00,,---,0.00,VWS V14.01,2013-01-15 19:08:00,
2013-01-15 14:09:00,46.4,45.0,30.19,East,79,5.0,5.0,95,0.00,,---,0.00,VWS V14.01,2013-01-15 19:09:00,
2013-01-15 14:10:00,46.5,45.2,30.19,ENE,71,7.0,7.0,95,0.00,,---,0.00,VWS V14.01,2013-01-15 19:10:00,
2013-01-15 14:11:00,46.5,45.2,30.19,ENE,74,9.0,10.0,95,0.00,,---,0.00,VWS V14.01,2013-01-15 19:11:00,
2013-01-15 14:12:00,46.5,45.2,30.19,East,84,8.0,10.0,95,0.00,,---,0.00,VWS V14.01,2013-01-15 19:12:00,
2013-01-15 14:13:00,46.5,45.2,30.19,ENE,75,5.0,8.0,95,0.00,,---,0.00,VWS V14.01,2013-01-15 19:13:00,
2013-01-15 14:14:00,46.5,45.2,30.19,ENE,74,4.0,4.0,95,0.00,,---,0.00,VWS V14.01,2013-01-15 19:14:00,
2013-01-15 14:15:00,46.5,45.2,30.19,East,84,7.0,7.0,95,0.00,,---,0.00,VWS V14.01,2013-01-15 19:15:00,
2013-01-15 14:16:00,46.4,45.0,30.19,East,89,6.0,9.0,95,0.00,,---,0.00,VWS V14.01,2013-01-15 19:16:00,
2013-01-15 14:17:00,46.4,45.0,30.19,NE,48,5.0,6.0,95,0.00,,---,0.00,VWS V14.01,2013-01-15 19:17:00,
2013-01-15 14:18:00,46.4,45.0,30.19,ENE,73,4.0,5.0,95,0.00,,---,0.00,VWS V14.01,2013-01-15 19:18:00,
2013-01-15 14:19:00,46.5,45.2,30.20,ENE,73,10.0,10.0,95,0.00,,---,0.00,VWS V14.01,2013-01-15 19:19:00,
2013-01-15 14:20:00,46.4,45.0,30.20,ENE,65,5.0,10.0,95,0.00,,---,0.00,VWS V14.01,2013-01-15 19:20:00,
2013-01-15 14:21:00,46.4,45.0,30.19,NE,53,4.0,8.0,95,0.00,,---,0.00,VWS V14.01,2013-01-15 19:21:00,
2013-01-15 14:22:00,46.4,45.0,30.19,ENE,68,4.0,8.0,95,0.00,,---,0.00,VWS V14.01,2013-01-15 19:22:00,
2013-01-15 14:23:00,46.4,45.0,30.19,NE,42,3.0,7.0,95,0.00,,---,0.00,VWS V14.01,2013-01-15 19:23:00,
2013-01-15 14:24:00,46.4,45.0,30.19,NE,42,4.0,5.0,95,0.00,,---,0.00,VWS V14.01,2013-01-15 19:24:00,
2013-01-15 14:25:00,46.4,45.0,30.19,NE,47,6.0,7.0,95,0.00,,---,0.00,VWS V14.01,2013-01-15 19:25:00,
2013-01-15 14:26:00,46.5,45.2,30.19,NE,53,4.0,6.0,95,0.00,,---,0.00,VWS V14.01,2013-01-15 19:26:00,
2013-01-15 14:27:00,46.5,45.2,30.19,ENE,78,5.0,8.0,95,0.00,,---,0.00,VWS V14.01,2013-01-15 19:27:00,
2013-01-15 14:28:00,46.5,45.2,30.19,East,83,8.0,9.0,95,0.00,,---,0.00,VWS V14.01,2013-01-15 19:28:00,
2013-01-15 14:29:00,46.4,45.0,30.19,ENE,68,4.0,5.0,95,0.00,,---,0.00,VWS V14.01,2013-01-15 19:29:00,
2013-01-15 14:30:00,46.4,45.0,30.19,ENE,63,4.0,5.0,95,0.00,,---,0.00,VWS V14.01,2013-01-15 19:30:00,
2013-01-15 14:31:00,46.5,45.2,30.19,East,88,5.0,7.0,95,0.00,,---,0.00,VWS V14.01,2013-01-15 19:31:00,
2013-01-15 14:32:00,46.5,45.2,30.19,ENE,67,4.0,5.0,95,0.00,,---,0.00,VWS V14.01,2013-01-15 19:32:00,
2013-01-15 14:33:00,46.5,45.2,30.19,ESE,118,3.0,5.0,95,0.00,,---,0.00,VWS V14.01,2013-01-15 19:33:00,
2013-01-15 14:34:00,46.5,45.2,30.19,ENE,68,7.0,8.0,95,0.00,,---,0.00,VWS V14.01,2013-01-15 19:34:00,
2013-01-15 14:35:00,46.5,45.2,30.19,East,81,7.0,8.0,95,0.00,,---,0.00,VWS V14.01,2013-01-15 19:35:00,
2013-01-15 14:36:00,46.5,45.2,30.19,ENE,73,9.0,9.0,95,0.00,,---,0.00,VWS V14.01,2013-01-15 19:36:00,
2013-01-15 14:37:00,46.5,45.2,30.19,ENE,63,11.0,11.0,95,0.00,,---,0.00,VWS V14.01,2013-01-15 19:37:00,
2013-01-15 14:38:00,46.5,45.2,30.19,ENE,71,9.0,13.0,95,0.00,,---,0.00,VWS V14.01,2013-01-15 19:38:00,
2013-01-15 14:39:00,46.4,45.0,30.19,ENE,69,5.0,5.0,95,0.00,,---,0.00,VWS V14.01,2013-01-15 19:39:00,
2013-01-15 14:40:00,46.4,45.0,30.19,East,80,8.0,10.0,95,0.00,,---,0.00,VWS V14.01,2013-01-15 19:40:00,
2013-01-15 14:41:00,46.4,45.0,30.19,ENE,70,7.0,10.0,95,0.00,,---,0.00,VWS V14.01,2013-01-15 19:41:00,
2013-01-15 14:42:00,46.4,45.0,30.20,East,82,7.0,9.0,95,0.00,,---,0.00,VWS V14.01,2013-01-15 19:42:00,
2013-01-15 14:43:00,46.4,45.0,30.20,ENE,73,4.0,9.0,95,0.00,,---,0.00,VWS V14.01,2013-01-15 19:43:00,
2013-01-15 14:44:00,46.5,45.2,30.20,NE,47,4.0,4.0,95,0.00,,---,0.00,VWS V14.01,2013-01-15 19:44:00,
2013-01-15 14:45:00,46.5,45.2,30.19,East,88,6.0,6.0,95,0.00,,---,0.00,VWS V14.01,2013-01-15 19:45:00,
2013-01-15 14:46:00,46.5,45.2,30.19,ENE,71,5.0,9.0,95,0.00,,---,0.00,VWS V14.01,2013-01-15 19:46:00,
2013-01-15 14:47:00,46.5,45.2,30.19,East,86,6.0,9.0,95,0.00,,---,0.00,VWS V14.01,2013-01-15 19:47:00,
2013-01-15 14:48:00,46.5,45.2,30.19,ENE,76,8.0,8.0,95,0.00,,---,0.00,VWS V14.01,2013-01-15 19:48:00,
2013-01-15 14:49:00,46.5,45.2,30.19,ENE,65,4.0,8.0,95,0.00,,---,0.00,VWS V14.01,2013-01-15 19:49:00,
2013-01-15 14:50:00,46.5,45.2,30.19,ENE,78,7.0,7.0,95,0.00,,---,0.00,VWS V14.01,2013-01-15 19:50:00,
2013-01-15 14:51:00,46.6,45.2,30.19,NE,36,3.0,7.0,95,0.00,,---,0.00,VWS V14.01,2013-01-15 19:51:00,
2013-01-15 14:52:00,46.6,45.2,30.19,NE,40,5.0,6.0,95,0.00,,---,0.00,VWS V14.01,2013-01-15 19:52:00,
2013-01-15 14:53:00,46.6,45.2,30.19,NE,44,4.0,5.0,95,0.00,,---,0.00,VWS V14.01,2013-01-15 19:53:00,
2013-01-15 14:54:00,46.7,45.3,30.19,NE,53,4.0,5.0,95,0.00,,---,0.00,VWS V14.01,2013-01-15 19:54:00,
2013-01-15 14:55:00,46.7,45.3,30.19,East,79,3.0,7.0,95,0.00,,---,0.00,VWS V14.01,2013-01-15 19:55:00,
2013-01-15 14:56:00,46.7,45.3,30.19,NE,51,5.0,5.0,95,0.00,,---,0.00,VWS V14.01,2013-01-15 19:56:00,
2013-01-15 14:57:00,46.7,45.6,30.19,NE,49,6.0,8.0,96,0.00,,---,0.00,VWS V14.01,2013-01-15 19:57:00,
2013-01-15 14:58:00,46.6,45.2,30.20,ENE,67,5.0,7.0,95,0.00,,---,0.00,VWS V14.01,2013-01-15 19:58:00,
2013-01-15 14:59:00,46.6,45.2,30.20,ENE,74,5.0,5.0,95,0.00,,---,0.00,VWS V14.01,2013-01-15 19:59:00,
2013-01-15 15:00:00,46.6,45.2,30.20,NE,53,5.0,7.0,95,0.00,,---,0.00,VWS V14.01,2013-01-15 20:00:00,
2013-01-15 15:01:00,46.6,45.2,30.20,ENE,62,5.0,7.0,95,0.00,,---,0.00,VWS V14.01,2013-01-15 20:01:00,
2013-01-15 15:02:00,46.6,45.2,30.20,NE,55,3.0,7.0,95,0.00,,---,0.00,VWS V14.01,2013-01-15 20:02:00,
2013-01-15 15:03:00,46.7,45.3,30.20,NE,34,3.0,4.0,95,0.00,,---,0.00,VWS V14.01,2013-01-15 20:03:00,
2013-01-15 15:04:00,46.7,45.3,30.20,ENE,73,8.0,8.0,95,0.00,,---,0.00,VWS V14.01,2013-01-15 20:04:00,
2013-01-15 15:05:00,46.6,45.2,30.20,ENE,69,8.0,9.0,95,0.00,,---,0.00,VWS V14.01,2013-01-15 20:05:00,
2013-01-15 15:06:00,46.6,45.2,30.20,ENE,62,5.0,8.0,95,0.00,,---,0.00,VWS V14.01,2013-01-15 20:06:00,
2013-01-15 15:07:00,46.6,45.2,30.20,ENE,58,4.0,5.0,95,0.00,,---,0.00,VWS V14.01,2013-01-15 20:07:00,
2013-01-15 15:08:00,46.6,45.2,30.20,ENE,63,8.0,9.0,95,0.00,,---,0.00,VWS V14.01,2013-01-15 20:08:00,
2013-01-15 15:09:00,46.6,45.2,30.20,ENE,71,4.0,8.0,95,0.00,,---,0.00,VWS V14.01,2013-01-15 20:09:00,
2013-01-15 15:10:00,46.6,45.2,30.20,ENE,68,8.0,8.0,95,0.00,,---,0.00,VWS V14.01,2013-01-15 20:10:00,
2013-01-15 15:11:00,46.5,45.2,30.20,East,92,6.0,8.0,95,0.00,,---,0.00,VWS V14.01,2013-01-15 20:11:00,
2013-01-15 15:12:00,46.5,45.2,30.20,ENE,78,3.0,6.0,95,0.00,,---,0.00,VWS V14.01,2013-01-15 20:12:00,
2013-01-15 15:13:00,46.5,45.2,30.20,ENE,69,5.0,9.0,95,0.00,,---,0.00,VWS V14.01,2013-01-15 20:13:00,
2013-01-15 15:14:00,46.5,45.2,30.20,NE,42,5.0,5.0,95,0.00,,---,0.00,VWS V14.01,2013-01-15 20:14:00,
2013-01-15 15:15:00,46.5,45.4,30.20,NE,49,5.0,5.0,96,0.00,,---,0.00,VWS V14.01,2013-01-15 20:15:00,
2013-01-15 15:16:00,46.5,45.4,30.20,ENE,73,4.0,7.0,96,0.00,,---,0.00,VWS V14.01,2013-01-15 20:16:00,
2013-01-15 15:17:00,46.5,45.4,30.20,NE,50,4.0,7.0,96,0.00,,---,0.00,VWS V14.01,2013-01-15 20:17:00,
2013-01-15 15:18:00,46.5,45.4,30.20,NE,51,2.0,4.0,96,0.00,,---,0.00,VWS V14.01,2013-01-15 20:18:00,
2013-01-15 15:19:00,46.6,45.5,30.20,ESE,102,7.0,7.0,96,0.00,,---,0.00,VWS V14.01,2013-01-15 20:19:00,
2013-01-15 15:20:00,46.6,45.5,30.20,East,80,8.0,8.0,96,0.00,,---,0.00,VWS V14.01,2013-01-15 20:20:00,
2013-01-15 15:21:00,46.6,45.5,30.20,East,79,3.0,8.0,96,0.00,,---,0.00,VWS V14.01,2013-01-15 20:21:00,
2013-01-15 15:22:00,46.6,45.5,30.20,ENE,58,4.0,4.0,96,0.00,,---,0.00,VWS V14.01,2013-01-15 20:22:00,
2013-01-15 15:23:00,46.6,45.5,30.20,ENE,73,7.0,7.0,96,0.00,,---,0.00,VWS V14.01,2013-01-15 20:23:00,
2013-01-15 15:24:00,46.6,45.5,30.20,ENE,58,3.0,8.0,96,0.00,,---,0.00,VWS V14.01,2013-01-15 20:24:00,
2013-01-15 15:25:00,46.7,45.6,30.19,ENE,69,5.0,7.0,96,0.00,,---,0.00,VWS V14.01,2013-01-15 20:25:00,
2013-01-15 15:26:00,46.7,45.6,30.20,East,84,7.0,7.0,96,0.00,,---,0.00,VWS V14.01,2013-01-15 20:26:00,
2013-01-15 15:27:00,46.7,45.6,30.20,ENE,74,3.0,7.0,96,0.00,,---,0.00,VWS V14.01,2013-01-15 20:27:00,
2013-01-15 15:28:00,46.7,45.6,30.20,ENE,74,3.0,6.0,96,0.00,,---,0.00,VWS V14.01,2013-01-15 20:28:00,
2013-01-15 15:29:00,46.7,45.6,30.20,East,97,3.0,3.0,96,0.00,,---,0.00,VWS V14.01,2013-01-15 20:29:00,
2013-01-15 15:30:00,46.7,45.6,30.20,ENE,63,3.0,5.0,96,0.00,,---,0.00,VWS V14.01,2013-01-15 20:30:00,
2013-01-15 15:31:00,46.7,45.6,30.20,ENE,78,5.0,7.0,96,0.00,,---,0.00,VWS V14.01,2013-01-15 20:31:00,
2013-01-15 15:32:00,46.7,45.6,30.20,ENE,63,3.0,5.0,96,0.00,,---,0.00,VWS V14.01,2013-01-15 20:32:00,
2013-01-15 15:33:00,46.8,45.7,30.20,ENE,73,9.0,9.0,96,0.00,,---,0.00,VWS V14.01,2013-01-15 20:33:00,
2013-01-15 15:34:00,46.7,45.6,30.20,ESE,105,4.0,9.0,96,0.00,,---,0.00,VWS V14.01,2013-01-15 20:34:00,
2013-01-15 15:35:00,46.8,45.7,30.20,East,86,6.0,7.0,96,0.00,,---,0.00,VWS V14.01,2013-01-15 20:35:00,
2013-01-15 15:36:00,46.8,45.7,30.20,East,97,8.0,9.0,96,0.00,,---,0.00,VWS V14.01,2013-01-15 20:36:00,
2013-01-15 15:37:00,46.8,45.7,30.20,East,84,7.0,8.0,96,0.00,,---,0.00,VWS V14.01,2013-01-15 20:37:00,
2013-01-15 15:38:00,46.8,45.7,30.20,ENE,68,3.0,7.0,96,0.00,,---,0.00,VWS V14.01,2013-01-15 20:38:00,
2013-01-15 15:39:00,46.8,45.7,30.20,East,101,9.0,9.0,96,0.00,,---,0.00,VWS V14.01,2013-01-15 20:39:00,
2013-01-15 15:40:00,46.8,45.7,30.20,ENE,78,7.0,8.0,96,0.00,,---,0.00,VWS V14.01,2013-01-15 20:40:00,
2013-01-15 15:41:00,46.8,45.7,30.20,East,86,5.0,9.0,96,0.00,,---,0.00,VWS V14.01,2013-01-15 20:41:00,
2013-01-15 15:42:00,46.8,45.7,30.20,ENE,77,5.0,8.0,96,0.00,,---,0.00,VWS V14.01,2013-01-15 20:42:00,
2013-01-15 15:43:00,46.8,45.7,30.20,East,86,5.0,8.0,96,0.00,,---,0.00,VWS V14.01,2013-01-15 20:43:00,
2013-01-15 15:44:00,46.8,45.7,30.20,East,83,8.0,8.0,96,0.00,,---,0.00,VWS V14.01,2013-01-15 20:44:00,
2013-01-15 15:45:00,46.8,45.7,30.20,ENE,67,9.0,9.0,96,0.00,,---,0.00,VWS V14.01,2013-01-15 20:45:00,
2013-01-15 15:46:00,46.8,45.7,30.20,ENE,74,9.0,10.0,96,0.00,,---,0.00,VWS V14.01,2013-01-15 20:46:00,
2013-01-15 15:47:00,46.8,45.7,30.20,ENE,71,7.0,9.0,96,0.00,,---,0.00,VWS V14.01,2013-01-15 20:47:00,
2013-01-15 15:48:00,46.7,45.6,30.19,ENE,74,7.0,8.0,96,0.00,,---,0.00,VWS V14.01,2013-01-15 20:48:00,
2013-01-15 15:49:00,46.7,45.6,30.19,ENE,77,8.0,10.0,96,0.00,,---,0.00,VWS V14.01,2013-01-15 20:49:00,
2013-01-15 15:50:00,46.7,45.6,30.19,ENE,67,8.0,9.0,96,0.00,,---,0.00,VWS V14.01,2013-01-15 20:50:00,
2013-01-15 15:51:00,46.7,45.6,30.19,ENE,73,7.0,9.0,96,0.00,,---,0.00,VWS V14.01,2013-01-15 20:51:00,
2013-01-15 15:52:00,46.7,45.6,30.19,East,96,7.0,7.0,96,0.00,,---,0.00,VWS V14.01,2013-01-15 20:52:00,
2013-01-15 15:53:00,46.7,45.6,30.19,East,87,7.0,9.0,96,0.00,,---,0.00,VWS V14.01,2013-01-15 20:53:00,
2013-01-15 15:54:00,46.7,45.6,30.20,ESE,102,10.0,10.0,96,0.00,,---,0.00,VWS V14.01,2013-01-15 20:54:00,
2013-01-15 15:55:00,46.7,45.6,30.20,East,80,8.0,9.0,96,0.00,,---,0.00,VWS V14.01,2013-01-15 20:55:00,
2013-01-15 15:56:00,46.7,45.6,30.20,ENE,77,5.0,8.0,96,0.00,,---,0.00,VWS V14.01,2013-01-15 20:56:00,
2013-01-15 15:57:00,46.7,45.6,30.20,ENE,69,3.0,6.0,96,0.00,,---,0.00,VWS V14.01,2013-01-15 20:57:00,
2013-01-15 15:58:00,46.8,45.7,30.20,ENE,71,4.0,4.0,96,0.00,,---,0.00,VWS V14.01,2013-01-15 20:58:00,
2013-01-15 15:59:00,46.8,45.7,30.20,ENE,76,7.0,10.0,96,0.00,,---,0.00,VWS V14.01,2013-01-15 20:59:00,
2013-01-15 16:00:00,46.8,45.7,30.20,ENE,75,5.0,8.0,96,0.00,,---,0.00,VWS V14.01,2013-01-15 21:00:00,
2013-01-15 16:01:00,46.8,45.7,30.20,East,92,7.0,8.0,96,0.00,,---,0.00,VWS V14.01,2013-01-15 21:01:00,
2013-01-15 16:02:00,46.8,45.7,30.20,East,100,7.0,7.0,96,0.00,,---,0.00,VWS V14.01,2013-01-15 21:02:00,
2013-01-15 16:03:00,46.8,45.7,30.20,East,99,5.0,7.0,96,0.00,,---,0.00,VWS V14.01,2013-01-15 21:03:00,
2013-01-15 16:04:00,46.8,45.7,30.20,East,90,6.0,8.0,96,0.00,,---,0.00,VWS V14.01,2013-01-15 21:04:00,
2013-01-15 16:05:00,46.8,45.7,30.20,East,90,5.0,6.0,96,0.00,,---,0.00,VWS V14.01,2013-01-15 21:05:00,
2013-01-15 16:06:00,46.9,45.8,30.20,ENE,68,3.0,5.0,96,0.00,,---,0.00,VWS V14.01,2013-01-15 21:06:00,
2013-01-15 16:07:00,46.9,45.8,30.20,East,90,5.0,7.0,96,0.00,,---,0.00,VWS V14.01,2013-01-15 21:07:00,
2013-01-15 16:08:00,46.9,45.8,30.21,ENE,68,2.0,5.0,96,0.00,,---,0.00,VWS V14.01,2013-01-15 21:08:00,
2013-01-15 16:09:00,46.9,45.8,30.21,East,90,4.0,7.0,96,0.00,,---,0.00,VWS V14.01,2013-01-15 21:09:00,
2013-01-15 16:10:00,46.9,45.8,30.21,ENE,68,7.0,10.0,96,0.00,,---,0.00,VWS V14.01,2013-01-15 21:10:00,
2013-01-15 16:11:00,46.9,45.8,30.20,ENE,68,6.0,8.0,96,0.00,,---,0.00,VWS V14.01,2013-01-15 21:11:00,
2013-01-15 16:12:00,46.9,45.8,30.20,ENE,68,7.0,8.0,96,0.00,,---,0.00,VWS V14.01,2013-01-15 21:12:00,
2013-01-15 16:13:00,46.9,45.8,30.20,ENE,68,6.0,8.0,96,0.00,,---,0.00,VWS V14.01,2013-01-15 21:13:00,
2013-01-15 16:14:00,46.9,45.8,30.20,NE,45,5.0,7.0,96,0.00,,---,0.00,VWS V14.01,2013-01-15 21:14:00,
2013-01-15 16:15:00,46.9,45.8,30.20,ENE,68,3.0,5.0,96,0.00,,---,0.00,VWS V14.01,2013-01-15 21:15:00,
2013-01-15 16:16:00,46.9,45.8,30.20,ENE,68,6.0,8.0,96,0.00,,---,0.00,VWS V14.01,2013-01-15 21:16:00,
2013-01-15 16:17:00,46.8,45.7,30.20,ENE,68,6.0,7.0,96,0.00,,---,0.00,VWS V14.01,2013-01-15 21:17:00,
2013-01-15 16:18:00,46.8,45.7,30.20,East,90,7.0,9.0,96,0.00,,---,0.00,VWS V14.01,2013-01-15 21:18:00,
2013-01-15 16:19:00,46.8,45.7,30.20,ENE,68,7.0,9.0,96,0.00,,---,0.00,VWS V14.01,2013-01-15 21:19:00,
2013-01-15 16:20:00,46.8,45.7,30.20,ENE,68,7.0,9.0,96,0.00,,---,0.00,VWS V14.01,2013-01-15 21:20:00,
2013-01-15 16:21:00,46.8,45.7,30.20,East,90,7.0,8.0,96,0.00,,---,0.00,VWS V14.01,2013-01-15 21:21:00,
2013-01-15 16:22:00,46.8,45.7,30.20,East,90,6.0,7.0,96,0.00,,---,0.00,VWS V14.01,2013-01-15 21:22:00,
2013-01-15 16:23:00,46.8,45.7,30.20,East,90,7.0,8.0,96,0.00,,---,0.00,VWS V14.01,2013-01-15 21:23:00,
2013-01-15 16:24:00,46.8,45.7,30.20,ENE,68,5.0,8.0,96,0.00,,---,0.00,VWS V14.01,2013-01-15 21:24:00,
2013-01-15 16:25:00,46.8,45.7,30.20,East,90,5.0,7.0,96,0.00,,---,0.00,VWS V14.01,2013-01-15 21:25:00,
2013-01-15 16:26:00,46.8,45.7,30.20,ENE,68,4.0,7.0,96,0.00,,---,0.00,VWS V14.01,2013-01-15 21:26:00,
2013-01-15 16:27:00,46.8,45.7,30.20,ENE,68,4.0,5.0,96,0.00,,---,0.00,VWS V14.01,2013-01-15 21:27:00,
2013-01-15 16:28:00,46.8,45.7,30.20,ENE,68,4.0,5.0,96,0.00,,---,0.00,VWS V14.01,2013-01-15 21:28:00,
2013-01-15 16:29:00,46.9,45.8,30.20,ENE,68,3.0,4.0,96,0.00,,---,0.00,VWS V14.01,2013-01-15 21:29:00,
2013-01-15 16:30:00,46.9,45.8,30.20,ENE,68,3.0,4.0,96,0.00,,---,0.00,VWS V14.01,2013-01-15 21:30:00,
2013-01-15 16:31:00,46.9,45.8,30.20,ENE,68,4.0,5.0,96,0.00,,---,0.00,VWS V14.01,2013-01-15 21:31:00,
2013-01-15 16:32:00,46.9,45.8,30.20,ENE,68,6.0,8.0,96,0.00,,---,0.00,VWS V14.01,2013-01-15 21:32:00,
2013-01-15 16:33:00,46.9,45.8,30.20,ENE,68,5.0,7.0,96,0.00,,---,0.00,VWS V14.01,2013-01-15 21:33:00,
2013-01-15 16:34:00,46.9,45.8,30.20,ENE,68,5.0,7.0,96,0.00,,---,0.00,VWS V14.01,2013-01-15 21:34:00,
2013-01-15 16:35:00,46.8,45.7,30.20,ENE,68,6.0,8.0,96,0.00,,---,0.00,VWS V14.01,2013-01-15 21:35:00,
2013-01-15 16:36:00,46.8,45.7,30.21,ENE,68,7.0,8.0,96,0.00,,---,0.00,VWS V14.01,2013-01-15 21:36:00,
2013-01-15 16:37:00,46.8,45.7,30.20,ENE,68,5.0,8.0,96,0.00,,---,0.00,VWS V14.01,2013-01-15 21:37:00,
2013-01-15 16:38:00,46.8,45.7,30.20,East,90,5.0,7.0,96,0.00,,---,0.00,VWS V14.01,2013-01-15 21:38:00,
2013-01-15 16:39:00,46.8,45.7,30.20,ENE,68,4.0,7.0,96,0.00,,---,0.00,VWS V14.01,2013-01-15 21:39:00,
2013-01-15 16:40:00,46.8,45.7,30.20,ENE,68,4.0,6.0,96,0.00,,---,0.00,VWS V14.01,2013-01-15 21:40:00,
2013-01-15 16:41:00,46.8,45.7,30.20,ENE,68,4.0,5.0,96,0.00,,---,0.00,VWS V14.01,2013-01-15 21:41:00,
2013-01-15 16:42:00,46.8,45.7,30.20,ENE,68,3.0,5.0,96,0.00,,---,0.00,VWS V14.01,2013-01-15 21:42:00,
2013-01-15 16:43:00,46.8,45.7,30.20,ENE,68,4.0,6.0,96,0.00,,---,0.00,VWS V14.01,2013-01-15 21:43:00,
2013-01-15 16:44:00,46.8,45.7,30.21,ENE,68,5.0,7.0,96,0.00,,---,0.00,VWS V14.01,2013-01-15 21:44:00,
2013-01-15 16:45:00,46.8,45.7,30.20,ENE,68,4.0,5.0,96,0.00,,---,0.00,VWS V14.01,2013-01-15 21:45:00,
2013-01-15 16:46:00,46.8,45.7,30.20,ENE,68,6.0,7.0,96,0.00,,---,0.00,VWS V14.01,2013-01-15 21:46:00,
2013-01-15 16:47:00,46.8,45.7,30.20,ENE,68,6.0,8.0,96,0.00,,---,0.00,VWS V14.01,2013-01-15 21:47:00,
2013-01-15 16:48:00,46.8,45.7,30.20,ENE,68,7.0,9.0,96,0.00,,---,0.00,VWS V14.01,2013-01-15 21:48:00,
2013-01-15 16:49:00,46.8,45.7,30.20,ENE,68,8.0,10.0,96,0.00,,---,0.00,VWS V14.01,2013-01-15 21:49:00,
2013-01-15 16:50:00,46.8,45.7,30.20,ENE,68,8.0,10.0,96,0.00,,---,0.00,VWS V14.01,2013-01-15 21:50:00,
2013-01-15 16:51:00,46.7,45.6,30.20,ENE,68,7.0,8.0,96,0.00,,---,0.00,VWS V14.01,2013-01-15 21:51:00,
2013-01-15 16:52:00,46.7,45.6,30.20,ENE,68,8.0,10.0,96,0.00,,---,0.00,VWS V14.01,2013-01-15 21:52:00,
2013-01-15 16:53:00,46.7,45.6,30.20,ENE,68,6.0,8.0,96,0.00,,---,0.00,VWS V14.01,2013-01-15 21:53:00,
2013-01-15 16:54:00,46.7,45.6,30.20,ENE,68,5.0,8.0,96,0.00,,---,0.00,VWS V14.01,2013-01-15 21:54:00,
2013-01-15 16:55:00,46.7,45.6,30.20,ENE,68,6.0,9.0,96,0.00,,---,0.00,VWS V14.01,2013-01-15 21:55:00,
2013-01-15 16:56:00,46.7,45.6,30.20,ENE,68,5.0,8.0,96,0.00,,---,0.00,VWS V14.01,2013-01-15 21:56:00,
2013-01-15 16:57:00,46.7,45.6,30.20,ENE,68,5.0,7.0,96,0.00,,---,0.00,VWS V14.01,2013-01-15 21:57:00,
2013-01-15 16:58:00,46.7,45.6,30.20,ENE,68,4.0,6.0,96,0.00,,---,0.00,VWS V14.01,2013-01-15 21:58:00,
2013-01-15 16:59:00,46.7,45.6,30.20,ENE,68,6.0,9.0,96,0.00,,---,0.00,VWS V14.01,2013-01-15 21:59:00,
2013-01-15 17:00:00,46.7,45.6,30.20,ENE,68,8.0,11.0,96,0.00,,---,0.00,VWS V14.01,2013-01-15 22:00:00,
2013-01-15 17:01:00,46.7,45.6,30.20,ENE,68,5.0,9.0,96,0.00,,---,0.00,VWS V14.01,2013-01-15 22:01:00,
2013-01-15 17:02:00,46.7,45.6,30.20,ENE,68,4.0,5.0,96,0.00,,---,0.00,VWS V14.01,2013-01-15 22:02:00,
2013-01-15 17:03:00,46.7,45.6,30.20,ENE,68,5.0,7.0,96,0.00,,---,0.00,VWS V14.01,2013-01-15 22:03:00,
2013-01-15 17:04:00,46.7,45.6,30.20,ENE,68,5.0,8.0,96,0.00,,---,0.00,VWS V14.01,2013-01-15 22:04:00,
2013-01-15 17:05:00,46.7,45.6,30.20,ENE,68,7.0,9.0,96,0.00,,---,0.00,VWS V14.01,2013-01-15 22:05:00,
2013-01-15 17:06:00,46.7,45.6,30.20,ENE,68,6.0,8.0,96,0.00,,---,0.00,VWS V14.01,2013-01-15 22:06:00,
2013-01-15 17:07:00,46.6,45.5,30.20,ENE,68,6.0,9.0,96,0.00,,---,0.00,VWS V14.01,2013-01-15 22:07:00,
2013-01-15 17:08:00,46.7,45.6,30.20,East,90,7.0,8.0,96,0.00,,---,0.00,VWS V14.01,2013-01-15 22:08:00,
2013-01-15 17:09:00,46.7,45.6,30.20,ENE,68,5.0,7.0,96,0.00,,---,0.00,VWS V14.01,2013-01-15 22:09:00,
2013-01-15 17:10:00,46.7,45.6,30.20,ENE,68,7.0,10.0,96,0.00,,---,0.00,VWS V14.01,2013-01-15 22:10:00,
2013-01-15 17:11:00,46.7,45.6,30.20,ENE,68,6.0,8.0,96,0.00,,---,0.00,VWS V14.01,2013-01-15 22:11:00,
2013-01-15 17:12:00,46.6,45.5,30.20,ENE,68,8.0,10.0,96,0.00,,---,0.00,VWS V14.01,2013-01-15 22:12:00,
2013-01-15 17:13:00,46.6,45.5,30.20,ENE,68,7.0,9.0,96,0.00,,---,0.00,VWS V14.01,2013-01-15 22:13:00,
2013-01-15 17:14:00,46.6,45.5,30.20,ENE,68,8.0,9.0,96,0.00,,---,0.00,VWS V14.01,2013-01-15 22:14:00,
2013-01-15 17:15:00,46.6,45.5,30.20,ENE,68,5.0,8.0,96,0.00,,---,0.00,VWS V14.01,2013-01-15 22:15:00,
2013-01-15 17:16:00,46.6,45.5,30.20,ENE,68,6.0,8.0,96,0.00,,---,0.00,VWS V14.01,2013-01-15 22:16:00,
2013-01-15 17:17:00,46.6,45.5,30.20,ENE,68,7.0,9.0,96,0.00,,---,0.00,VWS V14.01,2013-01-15 22:17:00,
2013-01-15 17:18:00,46.6,45.5,30.20,ENE,68,8.0,11.0,96,0.00,,---,0.00,VWS V14.01,2013-01-15 22:18:00,
2013-01-15 17:19:00,46.6,45.5,30.19,ENE,68,7.0,11.0,96,0.00,,---,0.00,VWS V14.01,2013-01-15 22:19:00,
2013-01-15 17:20:00,46.6,45.5,30.19,ENE,68,9.0,10.0,96,0.00,,---,0.00,VWS V14.01,2013-01-15 22:20:00,
2013-01-15 17:21:00,46.6,45.5,30.19,ENE,68,7.0,10.0,96,0.00,,---,0.00,VWS V14.01,2013-01-15 22:21:00,
2013-01-15 17:22:00,46.5,45.4,30.19,ENE,68,9.0,11.0,96,0.00,,---,0.00,VWS V14.01,2013-01-15 22:22:00,
2013-01-15 17:23:00,46.5,45.4,30.19,NE,45,5.0,7.0,96,0.00,,---,0.00,VWS V14.01,2013-01-15 22:23:00,
2013-01-15 17:24:00,46.5,45.4,30.19,ENE,68,5.0,7.0,96,0.00,,---,0.00,VWS V14.01,2013-01-15 22:24:00,
2013-01-15 17:25:00,46.6,45.5,30.19,ENE,68,7.0,9.0,96,0.00,,---,0.00,VWS V14.01,2013-01-15 22:25:00,
2013-01-15 17:26:00,46.6,45.5,30.19,ENE,68,6.0,9.0,96,0.00,,---,0.00,VWS V14.01,2013-01-15 22:26:00,
2013-01-15 17:27:00,46.5,45.4,30.19,ENE,68,5.0,9.0,96,0.00,,---,0.00,VWS V14.01,2013-01-15 22:27:00,
2013-01-15 17:28:00,46.6,45.5,30.19,ENE,68,7.0,9.0,96,0.00,,---,0.00,VWS V14.01,2013-01-15 22:28:00,
2013-01-15 17:29:00,46.6,45.5,30.19,ENE,68,6.0,9.0,96,0.00,,---,0.00,VWS V14.01,2013-01-15 22:29:00,
2013-01-15 17:30:00,46.5,45.4,30.19,ENE,68,7.0,9.0,96,0.00,,---,0.00,VWS V14.01,2013-01-15 22:30:00,
2013-01-15 17:31:00,46.5,45.4,30.19,ENE,68,6.0,8.0,96,0.00,,---,0.00,VWS V14.01,2013-01-15 22:31:00,
2013-01-15 17:32:00,46.5,45.4,30.19,ENE,68,5.0,7.0,96,0.00,,---,0.00,VWS V14.01,2013-01-15 22:32:00,
2013-01-15 17:33:00,46.5,45.4,30.19,East,90,6.0,7.0,96,0.00,,---,0.00,VWS V14.01,2013-01-15 22:33:00,
2013-01-15 17:34:00,46.5,45.4,30.19,East,90,5.0,7.0,96,0.00,,---,0.00,VWS V14.01,2013-01-15 22:34:00,
2013-01-15 17:35:00,46.5,45.4,30.19,ENE,68,4.0,5.0,96,0.00,,---,0.00,VWS V14.01,2013-01-15 22:35:00,
2013-01-15 17:36:00,46.5,45.4,30.19,ENE,68,3.0,4.0,96,0.00,,---,0.00,VWS V14.01,2013-01-15 22:36:00,
2013-01-15 17:37:00,46.6,45.8,30.19,ENE,68,4.0,5.0,97,0.00,,---,0.00,VWS V14.01,2013-01-15 22:37:00,
2013-01-15 17:38:00,46.6,45.8,30.19,ENE,68,4.0,7.0,97,0.00,,---,0.00,VWS V14.01,2013-01-15 22:38:00,
2013-01-15 17:39:00,46.6,45.8,30.19,East,90,7.0,8.0,97,0.00,,---,0.00,VWS V14.01,2013-01-15 22:39:00,
2013-01-15 17:40:00,46.6,45.8,30.19,East,90,7.0,9.0,97,0.00,,---,0.00,VWS V14.01,2013-01-15 22:40:00,
2013-01-15 17:41:00,46.6,45.8,30.19,ENE,68,5.0,8.0,97,0.00,,---,0.00,VWS V14.01,2013-01-15 22:41:00,
2013-01-15 17:42:00,46.6,45.8,30.19,ENE,68,6.0,8.0,97,0.00,,---,0.00,VWS V14.01,2013-01-15 22:42:00,
2013-01-15 17:43:00,46.6,45.8,30.19,ENE,68,9.0,11.0,97,0.00,,---,0.00,VWS V14.01,2013-01-15 22:43:00,
2013-01-15 17:44:00,46.5,45.7,30.19,ENE,68,8.0,9.0,97,0.00,,---,0.00,VWS V14.01,2013-01-15 22:44:00,
2013-01-15 17:45:00,46.5,45.4,30.19,ENE,68,7.0,10.0,96,0.00,,---,0.00,VWS V14.01,2013-01-15 22:45:00,
2013-01-15 17:46:00,46.5,45.7,30.19,NE,45,6.0,7.0,97,0.00,,---,0.00,VWS V14.01,2013-01-15 22:46:00,
2013-01-15 17:47:00,46.5,45.7,30.19,ENE,68,7.0,8.0,97,0.00,,---,0.00,VWS V14.01,2013-01-15 22:47:00,
2013-01-15 17:48:00,46.5,45.7,30.20,ENE,68,6.0,8.0,97,0.00,,---,0.00,VWS V14.01,2013-01-15 22:48:00,
2013-01-15 17:49:00,46.5,45.7,30.20,East,90,7.0,9.0,97,0.00,,---,0.00,VWS V14.01,2013-01-15 22:49:00,
2013-01-15 17:50:00,46.5,45.7,30.20,ENE,68,5.0,8.0,97,0.00,,---,0.00,VWS V14.01,2013-01-15 22:50:00,
2013-01-15 17:51:00,46.5,45.7,30.19,ENE,68,7.0,9.0,97,0.00,,---,0.00,VWS V14.01,2013-01-15 22:51:00,
2013-01-15 17:52:00,46.5,45.7,30.19,ENE,68,7.0,10.0,97,0.00,,---,0.00,VWS V14.01,2013-01-15 22:52:00,
2013-01-15 17:53:00,46.5,45.7,30.19,ENE,68,6.0,8.0,97,0.00,,---,0.00,VWS V14.01,2013-01-15 22:53:00,
2013-01-15 17:54:00,46.5,45.7,30.20,ENE,68,8.0,9.0,97,0.00,,---,0.00,VWS V14.01,2013-01-15 22:54:00,
2013-01-15 17:55:00,46.5,45.7,30.19,ENE,68,5.0,7.0,97,0.00,,---,0.00,VWS V14.01,2013-01-15 22:55:00,
2013-01-15 17:56:00,46.5,45.7,30.19,ENE,68,6.0,8.0,97,0.00,,---,0.00,VWS V14.01,2013-01-15 22:56:00,
2013-01-15 17:57:00,46.5,45.7,30.19,ENE,68,4.0,5.0,97,0.00,,---,0.00,VWS V14.01,2013-01-15 22:57:00,
2013-01-15 17:58:00,46.5,45.7,30.19,East,90,4.0,6.0,97,0.00,,---,0.00,VWS V14.01,2013-01-15 22:58:00,
2013-01-15 17:59:00,46.5,45.7,30.19,ENE,68,3.0,4.0,97,0.00,,---,0.00,VWS V14.01,2013-01-15 22:59:00,
2013-01-15 18:00:00,46.5,45.7,30.19,East,90,4.0,6.0,97,0.00,,---,0.00,VWS V14.01,2013-01-15 23:00:00,
2013-01-15 18:01:00,46.5,45.7,30.19,ENE,68,6.0,7.0,97,0.00,,---,0.00,VWS V14.01,2013-01-15 23:01:00,
2013-01-15 18:02:00,46.5,45.7,30.19,ENE,68,5.0,7.0,97,0.00,,---,0.00,VWS V14.01,2013-01-15 23:02:00,
2013-01-15 18:03:00,46.5,45.7,30.19,ENE,68,5.0,7.0,97,0.00,,---,0.00,VWS V14.01,2013-01-15 23:03:00,
2013-01-15 18:04:00,46.4,45.6,30.19,ENE,68,4.0,7.0,97,0.00,,---,0.00,VWS V14.01,2013-01-15 23:04:00,
2013-01-15 18:05:00,46.4,45.6,30.19,ENE,68,4.0,5.0,97,0.00,,---,0.00,VWS V14.01,2013-01-15 23:05:00,
2013-01-15 18:06:00,46.4,45.6,30.19,ENE,68,5.0,7.0,97,0.00,,---,0.00,VWS V14.01,2013-01-15 23:06:00,
2013-01-15 18:07:00,46.4,45.6,30.19,ENE,68,5.0,7.0,97,0.00,,---,0.00,VWS V14.01,2013-01-15 23:07:00,
2013-01-15 18:08:00,46.4,45.6,30.19,ENE,68,6.0,9.0,97,0.00,,---,0.00,VWS V14.01,2013-01-15 23:08:00,
2013-01-15 18:09:00,46.4,45.6,30.19,East,90,6.0,7.0,97,0.00,,---,0.00,VWS V14.01,2013-01-15 23:09:00,
2013-01-15 18:10:00,46.4,45.6,30.20,ENE,68,5.0,8.0,97,0.00,,---,0.00,VWS V14.01,2013-01-15 23:10:00,
2013-01-15 18:11:00,46.4,45.6,30.20,ENE,68,6.0,8.0,97,0.00,,---,0.00,VWS V14.01,2013-01-15 23:11:00,
2013-01-15 18:12:00,46.4,45.6,30.20,East,90,8.0,13.0,97,0.00,,---,0.00,VWS V14.01,2013-01-15 23:12:00,
2013-01-15 18:13:00,46.4,45.6,30.20,ENE,68,6.0,9.0,97,0.00,,---,0.00,VWS V14.01,2013-01-15 23:13:00,
2013-01-15 18:14:00,46.4,45.6,30.20,ENE,68,6.0,8.0,97,0.00,,---,0.00,VWS V14.01,2013-01-15 23:14:00,
2013-01-15 18:15:00,46.4,45.6,30.20,East,90,5.0,6.0,97,0.00,,---,0.00,VWS V14.01,2013-01-15 23:15:00,
2013-01-15 18:16:00,46.4,45.6,30.20,ENE,68,6.0,9.0,97,0.00,,---,0.00,VWS V14.01,2013-01-15 23:16:00,
2013-01-15 18:17:00,46.3,45.5,30.20,East,90,6.0,8.0,97,0.00,,---,0.00,VWS V14.01,2013-01-15 23:17:00,
2013-01-15 18:18:00,46.3,45.5,30.20,ENE,68,4.0,6.0,97,0.00,,---,0.00,VWS V14.01,2013-01-15 23:18:00,
2013-01-15 18:19:00,46.3,45.5,30.20,ENE,68,5.0,8.0,97,0.00,,---,0.00,VWS V14.01,2013-01-15 23:19:00,
2013-01-15 18:20:00,46.3,45.5,30.20,ENE,68,4.0,7.0,97,0.00,,---,0.00,VWS V14.01,2013-01-15 23:20:00,
2013-01-15 18:21:00,46.3,45.5,30.20,East,90,5.0,8.0,97,0.00,,---,0.00,VWS V14.01,2013-01-15 23:21:00,
2013-01-15 18:22:00,46.3,45.5,30.20,East,90,5.0,6.0,97,0.00,,---,0.00,VWS V14.01,2013-01-15 23:22:00,
2013-01-15 18:23:00,46.3,45.5,30.20,East,90,8.0,10.0,97,0.00,,---,0.00,VWS V14.01,2013-01-15 23:23:00,
2013-01-15 18:24:00,46.3,45.5,30.20,East,90,8.0,9.0,97,0.00,,---,0.00,VWS V14.01,2013-01-15 23:24:00,
2013-01-15 18:25:00,46.3,45.5,30.20,ENE,68,4.0,7.0,97,0.00,,---,0.00,VWS V14.01,2013-01-15 23:25:00,
2013-01-15 18:26:00,46.3,45.5,30.20,East,90,6.0,8.0,97,0.00,,---,0.00,VWS V14.01,2013-01-15 23:26:00,
2013-01-15 18:27:00,46.3,45.5,30.20,East,90,4.0,6.0,97,0.00,,---,0.00,VWS V14.01,2013-01-15 23:27:00,
2013-01-15 18:28:00,46.3,45.5,30.20,East,90,4.0,6.0,97,0.00,,---,0.00,VWS V14.01,2013-01-15 23:28:00,
2013-01-15 18:29:00,46.3,45.5,30.20,East,90,4.0,6.0,97,0.00,,---,0.00,VWS V14.01,2013-01-15 23:29:00,
2013-01-15 18:30:00,46.3,45.5,30.20,ENE,68,3.0,5.0,97,0.00,,---,0.00,VWS V14.01,2013-01-15 23:30:00,
2013-01-15 18:31:00,46.3,45.5,30.20,ENE,68,3.0,4.0,97,0.00,,---,0.00,VWS V14.01,2013-01-15 23:31:00,
2013-01-15 18:32:00,46.3,45.5,30.20,East,90,5.0,6.0,97,0.00,,---,0.00,VWS V14.01,2013-01-15 23:32:00,
2013-01-15 18:33:00,46.3,45.5,30.20,East,90,7.0,11.0,97,0.00,,---,0.00,VWS V14.01,2013-01-15 23:33:00,
2013-01-15 18:34:00,46.3,45.5,30.20,East,90,7.0,8.0,97,0.00,,---,0.00,VWS V14.01,2013-01-15 23:34:00,
2013-01-15 18:35:00,46.3,45.5,30.20,East,90,6.0,7.0,97,0.00,,---,0.00,VWS V14.01,2013-01-15 23:35:00,
2013-01-15 18:36:00,46.3,45.5,30.20,East,90,5.0,7.0,97,0.00,,---,0.00,VWS V14.01,2013-01-15 23:36:00,
2013-01-15 18:37:00,46.3,45.5,30.20,ENE,68,7.0,9.0,97,0.00,,---,0.00,VWS V14.01,2013-01-15 23:37:00,
2013-01-15 18:38:00,46.3,45.5,30.20,ENE,68,6.0,9.0,97,0.00,,---,0.00,VWS V14.01,2013-01-15 23:38:00,
2013-01-15 18:39:00,46.3,45.5,30.20,East,90,6.0,9.0,97,0.00,,---,0.00,VWS V14.01,2013-01-15 23:39:00,
2013-01-15 18:40:00,46.2,45.4,30.20,East,90,8.0,10.0,97,0.00,,---,0.00,VWS V14.01,2013-01-15 23:40:00,
2013-01-15 18:41:00,46.2,45.4,30.20,East,90,9.0,11.0,97,0.00,,---,0.00,VWS V14.01,2013-01-15 23:41:00,
2013-01-15 18:42:00,46.2,45.4,30.20,East,90,6.0,9.0,97,0.00,,---,0.00,VWS V14.01,2013-01-15 23:42:00,
2013-01-15 18:43:00,46.2,45.4,30.20,East,90,6.0,8.0,97,0.00,,---,0.00,VWS V14.01,2013-01-15 23:43:00,
2013-01-15 18:44:00,46.2,45.4,30.20,East,90,5.0,7.0,97,0.00,,---,0.00,VWS V14.01,2013-01-15 23:44:00,
2013-01-15 18:45:00,46.2,45.4,30.20,ENE,68,7.0,10.0,97,0.00,,---,0.00,VWS V14.01,2013-01-15 23:45:00,
2013-01-15 18:46:00,46.2,45.4,30.20,East,90,8.0,12.0,97,0.00,,---,0.00,VWS V14.01,2013-01-15 23:46:00,
2013-01-15 18:47:00,46.2,45.4,30.20,East,90,10.0,13.0,97,0.00,,---,0.00,VWS V14.01,2013-01-15 23:47:00,
2013-01-15 18:48:00,46.1,45.3,30.20,ENE,68,8.0,9.0,97,0.00,,---,0.00,VWS V14.01,2013-01-15 23:48:00,
2013-01-15 18:49:00,46.1,45.3,30.20,East,90,7.0,10.0,97,0.00,,---,0.00,VWS V14.01,2013-01-15 23:49:00,
2013-01-15 18:50:00,46.1,45.3,30.20,East,90,6.0,8.0,97,0.00,,---,0.00,VWS V14.01,2013-01-15 23:50:00,
2013-01-15 18:51:00,46.1,45.3,30.20,East,90,7.0,9.0,97,0.00,,---,0.00,VWS V14.01,2013-01-15 23:51:00,
2013-01-15 18:52:00,46.1,45.3,30.20,East,90,6.0,8.0,97,0.00,,---,0.00,VWS V14.01,2013-01-15 23:52:00,
2013-01-15 18:53:00,46.1,45.3,30.20,East,90,6.0,10.0,97,0.00,,---,0.00,VWS V14.01,2013-01-15 23:53:00,
2013-01-15 18:54:00,46.1,45.3,30.20,East,90,6.0,8.0,97,0.00,,---,0.00,VWS V14.01,2013-01-15 23:54:00,
2013-01-15 18:55:00,46.1,45.3,30.20,ENE,68,5.0,6.0,97,0.00,,---,0.00,VWS V14.01,2013-01-15 23:55:00,
2013-01-15 18:56:00,46.1,45.3,30.20,ENE,68,6.0,10.0,97,0.00,,---,0.00,VWS V14.01,2013-01-15 23:56:00,
2013-01-15 18:57:00,46.1,45.3,30.20,East,90,7.0,9.0,97,0.00,,---,0.00,VWS V14.01,2013-01-15 23:57:00,
2013-01-15 18:58:00,46.1,45.3,30.20,East,90,6.0,8.0,97,0.00,,---,0.00,VWS V14.01,2013-01-15 23:58:00,
2013-01-15 18:59:00,46.1,45.3,30.20,ENE,68,5.0,7.0,97,0.00,,---,0.00,VWS V14.01,2013-01-15 23:59:00,
2013-01-15 19:00:00,46.1,45.3,30.20,ENE,68,4.0,6.0,97,0.00,,---,0.00,VWS V14.01,2013-01-16 00:00:00,
2013-01-15 19:01:00,46.1,45.3,30.20,ENE,68,4.0,5.0,97,0.00,,---,0.00,VWS V14.01,2013-01-16 00:01:00,
2013-01-15 19:02:00,46.1,45.3,30.20,ENE,68,3.0,3.0,97,0.00,,---,0.00,VWS V14.01,2013-01-16 00:02:00,
2013-01-15 19:03:00,46.1,45.3,30.20,East,90,5.0,9.0,97,0.00,,---,0.00,VWS V14.01,2013-01-16 00:03:00,
2013-01-15 19:04:00,46.0,45.2,30.20,ENE,68,6.0,7.0,97,0.00,,---,0.00,VWS V14.01,2013-01-16 00:04:00,
2013-01-15 19:05:00,46.0,45.2,30.20,ENE,68,5.0,8.0,97,0.00,,---,0.00,VWS V14.01,2013-01-16 00:05:00,
2013-01-15 19:06:00,46.0,45.2,30.20,East,90,7.0,9.0,97,0.00,,---,0.00,VWS V14.01,2013-01-16 00:06:00,
2013-01-15 19:07:00,46.0,45.2,30.20,ENE,68,5.0,7.0,97,0.00,,---,0.00,VWS V14.01,2013-01-16 00:07:00,
2013-01-15 19:08:00,46.0,45.2,30.20,East,90,9.0,13.0,97,0.00,,---,0.00,VWS V14.01,2013-01-16 00:08:00,
2013-01-15 19:09:00,46.0,45.2,30.20,East,90,9.0,10.0,97,0.00,,---,0.00,VWS V14.01,2013-01-16 00:09:00,
2013-01-15 19:10:00,46.0,45.2,30.20,ENE,68,7.0,9.0,97,0.00,,---,0.00,VWS V14.01,2013-01-16 00:10:00,
2013-01-15 19:11:00,45.9,45.1,30.20,ENE,68,5.0,6.0,97,0.00,,---,0.00,VWS V14.01,2013-01-16 00:11:00,
2013-01-15 19:12:00,46.0,45.2,30.20,East,90,6.0,7.0,97,0.00,,---,0.00,VWS V14.01,2013-01-16 00:12:00,
2013-01-15 19:13:00,45.9,45.1,30.20,East,90,7.0,8.0,97,0.00,,---,0.00,VWS V14.01,2013-01-16 00:13:00,
2013-01-15 19:14:00,45.9,45.1,30.21,ENE,68,4.0,5.0,97,0.00,,---,0.00,VWS V14.01,2013-01-16 00:14:00,
2013-01-15 19:15:00,46.0,45.2,30.21,East,90,3.0,5.0,97,0.00,,---,0.00,VWS V14.01,2013-01-16 00:15:00,
2013-01-15 19:16:00,46.0,45.2,30.20,East,90,5.0,7.0,97,0.00,,---,0.00,VWS V14.01,2013-01-16 00:16:00,
2013-01-15 19:17:00,46.0,45.2,30.20,ENE,68,4.0,7.0,97,0.00,,---,0.00,VWS V14.01,2013-01-16 00:17:00,
2013-01-15 19:18:00,46.0,45.2,30.20,ENE,68,3.0,4.0,97,0.00,,---,0.00,VWS V14.01,2013-01-16 00:18:00,
2013-01-15 19:19:00,46.0,45.2,30.20,East,90,3.0,5.0,97,0.00,,---,0.00,VWS V14.01,2013-01-16 00:19:00,
2013-01-15 19:20:00,46.0,45.2,30.20,ENE,68,3.0,6.0,97,0.00,,---,0.00,VWS V14.01,2013-01-16 00:20:00,
2013-01-15 19:21:00,46.0,45.2,30.20,East,90,3.0,5.0,97,0.00,,---,0.00,VWS V14.01,2013-01-16 00:21:00,
2013-01-15 19:22:00,46.0,45.2,30.20,East,90,2.0,3.0,97,0.00,,---,0.00,VWS V14.01,2013-01-16 00:22:00,
2013-01-15 19:23:00,46.0,45.2,30.20,East,90,2.0,3.0,97,0.00,,---,0.00,VWS V14.01,2013-01-16 00:23:00,
2013-01-15 19:24:00,46.0,45.2,30.20,ENE,68,3.0,5.0,97,0.00,,---,0.00,VWS V14.01,2013-01-16 00:24:00,
2013-01-15 19:25:00,46.0,45.2,30.20,East,90,4.0,6.0,97,0.00,,---,0.00,VWS V14.01,2013-01-16 00:25:00,
2013-01-15 19:26:00,46.0,45.2,30.19,East,90,5.0,6.0,97,0.00,,---,0.00,VWS V14.01,2013-01-16 00:26:00,
2013-01-15 19:27:00,46.0,45.2,30.19,East,90,6.0,7.0,97,0.00,,---,0.00,VWS V14.01,2013-01-16 00:27:00,
2013-01-15 19:28:00,46.0,45.2,30.19,East,90,5.0,6.0,97,0.00,,---,0.00,VWS V14.01,2013-01-16 00:28:00,
2013-01-15 19:29:00,46.0,45.2,30.19,East,90,3.0,5.0,97,0.00,,---,0.00,VWS V14.01,2013-01-16 00:29:00,
2013-01-15 19:30:00,46.1,45.3,30.19,East,90,4.0,5.0,97,0.00,,---,0.00,VWS V14.01,2013-01-16 00:30:00,
2013-01-15 19:31:00,46.0,45.2,30.19,East,90,4.0,6.0,97,0.00,,---,0.00,VWS V14.01,2013-01-16 00:31:00,
2013-01-15 19:32:00,46.0,45.2,30.19,East,90,8.0,11.0,97,0.00,,---,0.00,VWS V14.01,2013-01-16 00:32:00,
2013-01-15 19:33:00,46.0,45.2,30.19,East,90,10.0,13.0,97,0.00,,---,0.00,VWS V14.01,2013-01-16 00:33:00,
2013-01-15 19:34:00,46.0,45.2,30.19,East,90,7.0,11.0,97,0.00,,---,0.00,VWS V14.01,2013-01-16 00:34:00,
2013-01-15 19:35:00,45.9,45.1,30.19,East,90,7.0,10.0,97,0.00,,---,0.00,VWS V14.01,2013-01-16 00:35:00,
2013-01-15 19:36:00,45.9,45.1,30.19,East,90,8.0,9.0,97,0.00,,---,0.00,VWS V14.01,2013-01-16 00:36:00,
2013-01-15 19:37:00,45.9,45.1,30.19,East,90,5.0,7.0,97,0.00,,---,0.00,VWS V14.01,2013-01-16 00:37:00,
2013-01-15 19:38:00,45.9,45.1,30.19,East,90,7.0,8.0,97,0.00,,---,0.00,VWS V14.01,2013-01-16 00:38:00,
2013-01-15 19:39:00,45.9,45.1,30.18,East,90,8.0,11.0,97,0.00,,---,0.00,VWS V14.01,2013-01-16 00:39:00,
2013-01-15 19:40:00,45.9,45.1,30.18,East,90,5.0,8.0,97,0.00,,---,0.00,VWS V14.01,2013-01-16 00:40:00,
2013-01-15 19:41:00,45.9,45.1,30.19,East,90,4.0,8.0,97,0.00,,---,0.00,VWS V14.01,2013-01-16 00:41:00,
2013-01-15 19:42:00,45.9,45.1,30.18,East,90,8.0,10.0,97,0.00,,---,0.00,VWS V14.01,2013-01-16 00:42:00,
2013-01-15 19:43:00,45.9,45.1,30.18,East,90,7.0,8.0,97,0.00,,---,0.00,VWS V14.01,2013-01-16 00:43:00,
2013-01-15 19:44:00,45.9,45.1,30.18,East,90,6.0,10.0,97,0.00,,---,0.00,VWS V14.01,2013-01-16 00:44:00,
2013-01-15 19:45:00,45.9,45.1,30.18,East,90,9.0,11.0,97,0.00,,---,0.00,VWS V14.01,2013-01-16 00:45:00,
2013-01-15 19:46:00,45.9,45.1,30.18,East,90,6.0,8.0,97,0.00,,---,0.00,VWS V14.01,2013-01-16 00:46:00,
2013-01-15 19:47:00,45.8,45.0,30.18,ESE,112,4.0,6.0,97,0.00,,---,0.00,VWS V14.01,2013-01-16 00:47:00,
2013-01-15 19:48:00,45.9,45.1,30.19,East,90,5.0,7.0,97,0.00,,---,0.00,VWS V14.01,2013-01-16 00:48:00,
2013-01-15 19:49:00,45.9,45.1,30.19,East,90,2.0,3.0,97,0.00,,---,0.00,VWS V14.01,2013-01-16 00:49:00,
2013-01-15 19:50:00,45.8,45.0,30.18,East,90,5.0,9.0,97,0.00,,---,0.00,VWS V14.01,2013-01-16 00:50:00,
2013-01-15 19:51:00,45.9,45.1,30.18,East,90,8.0,9.0,97,0.00,,---,0.00,VWS V14.01,2013-01-16 00:51:00,
2013-01-15 19:52:00,45.8,45.0,30.18,East,90,7.0,9.0,97,0.00,,---,0.00,VWS V14.01,2013-01-16 00:52:00,
2013-01-15 19:53:00,45.9,45.1,30.18,East,90,7.0,9.0,97,0.00,,---,0.00,VWS V14.01,2013-01-16 00:53:00,
2013-01-15 19:54:00,45.9,45.1,30.18,East,90,8.0,13.0,97,0.00,,---,0.00,VWS V14.01,2013-01-16 00:54:00,
2013-01-15 19:55:00,45.8,45.0,30.18,East,90,9.0,15.0,97,0.00,,---,0.00,VWS V14.01,2013-01-16 00:55:00,
2013-01-15 19:56:00,45.8,45.0,30.18,East,90,8.0,9.0,97,0.00,,---,0.00,VWS V14.01,2013-01-16 00:56:00,
2013-01-15 19:57:00,45.8,45.0,30.19,East,90,7.0,8.0,97,0.00,,---,0.00,VWS V14.01,2013-01-16 00:57:00,
2013-01-15 19:58:00,45.8,45.0,30.18,East,90,7.0,9.0,97,0.00,,---,0.00,VWS V14.01,2013-01-16 00:58:00,
2013-01-15 19:59:00,45.8,45.0,30.18,East,90,6.0,7.0,97,0.00,,---,0.00,VWS V14.01,2013-01-16 00:59:00,
2013-01-15 20:00:00,45.8,45.0,30.18,East,90,4.0,6.0,97,0.00,,---,0.00,VWS V14.01,2013-01-16 01:00:00,
2013-01-15 20:01:00,45.8,45.0,30.18,ENE,68,3.0,4.0,97,0.00,,---,0.00,VWS V14.01,2013-01-16 01:01:00,
2013-01-15 20:02:00,45.9,45.1,30.18,East,90,2.0,3.0,97,0.00,,---,0.00,VWS V14.01,2013-01-16 01:02:00,
2013-01-15 20:03:00,45.9,45.1,30.18,East,90,2.0,2.0,97,0.00,,---,0.00,VWS V14.01,2013-01-16 01:03:00,
2013-01-15 20:04:00,45.9,45.1,30.18,ENE,68,2.0,3.0,97,0.00,,---,0.00,VWS V14.01,2013-01-16 01:04:00,
2013-01-15 20:05:00,45.9,45.1,30.18,ENE,68,2.0,3.0,97,0.00,,---,0.00,VWS V14.01,2013-01-16 01:05:00,
2013-01-15 20:06:00,45.9,45.1,30.18,ENE,68,1.0,3.0,97,0.00,,---,0.00,VWS V14.01,2013-01-16 01:06:00,
2013-01-15 20:07:00,45.9,45.1,30.18,ENE,68,1.0,2.0,97,0.00,,---,0.00,VWS V14.01,2013-01-16 01:07:00,
2013-01-15 20:08:00,45.9,45.1,30.18,ENE,68,3.0,3.0,97,0.00,,---,0.00,VWS V14.01,2013-01-16 01:08:00,
2013-01-15 20:09:00,45.9,45.1,30.18,ENE,68,3.0,3.0,97,0.00,,---,0.00,VWS V14.01,2013-01-16 01:09:00,
2013-01-15 20:10:00,45.9,45.1,30.18,East,90,2.0,3.0,97,0.00,,---,0.00,VWS V14.01,2013-01-16 01:10:00,
2013-01-15 20:11:00,45.9,45.1,30.18,East,90,2.0,4.0,97,0.00,,---,0.00,VWS V14.01,2013-01-16 01:11:00,
2013-01-15 20:12:00,45.9,45.1,30.18,ENE,68,4.0,5.0,97,0.00,,---,0.00,VWS V14.01,2013-01-16 01:12:00,
2013-01-15 20:13:00,45.9,45.1,30.18,ENE,68,3.0,5.0,97,0.00,,---,0.00,VWS V14.01,2013-01-16 01:13:00,
2013-01-15 20:14:00,45.9,45.1,30.18,ENE,68,3.0,4.0,97,0.00,,---,0.00,VWS V14.01,2013-01-16 01:14:00,
2013-01-15 20:15:00,45.9,45.1,30.18,ENE,68,3.0,4.0,97,0.00,,---,0.00,VWS V14.01,2013-01-16 01:15:00,
2013-01-15 20:16:00,45.9,45.1,30.18,ENE,68,4.0,6.0,97,0.00,,---,0.00,VWS V14.01,2013-01-16 01:16:00,
2013-01-15 20:17:00,45.9,45.1,30.18,ENE,68,5.0,7.0,97,0.00,,---,0.00,VWS V14.01,2013-01-16 01:17:00,
2013-01-15 20:18:00,45.9,45.1,30.18,East,90,6.0,7.0,97,0.00,,---,0.00,VWS V14.01,2013-01-16 01:18:00,
2013-01-15 20:19:00,45.9,45.1,30.18,ENE,68,4.0,5.0,97,0.00,,---,0.00,VWS V14.01,2013-01-16 01:19:00,
2013-01-15 20:20:00,45.9,45.1,30.18,ENE,68,4.0,5.0,97,0.00,,---,0.00,VWS V14.01,2013-01-16 01:20:00,
2013-01-15 20:21:00,45.9,45.1,30.18,East,90,4.0,5.0,97,0.00,,---,0.00,VWS V14.01,2013-01-16 01:21:00,
2013-01-15 20:22:00,46.0,45.2,30.18,ENE,68,4.0,6.0,97,0.00,,---,0.00,VWS V14.01,2013-01-16 01:22:00,
2013-01-15 20:23:00,45.9,45.1,30.18,ENE,68,4.0,6.0,97,0.00,,---,0.00,VWS V14.01,2013-01-16 01:23:00,
2013-01-15 20:33:00,46.0,45.2,30.18,ENE,68,3.0,5.0,97,0.00,,---,0.00,VWS V14.01,2013-01-16 01:33:00,
2013-01-15 20:38:00,46.0,45.2,30.17,East,87,5.0,5.0,97,0.00,,---,0.00,VWS V14.01,2013-01-16 01:38:00,
2013-01-15 20:43:00,46.0,45.2,30.17,East,92,5.0,6.0,97,0.00,,---,0.00,VWS V14.01,2013-01-16 01:43:00,
2013-01-15 20:48:00,46.1,45.3,30.17,East,90,6.0,6.0,97,0.00,,---,0.00,VWS V14.01,2013-01-16 01:48:00,
2013-01-15 20:53:00,46.1,45.3,30.17,ENE,77,5.0,5.0,97,0.00,,---,0.00,VWS V14.01,2013-01-16 01:53:00,
2013-01-15 20:58:00,46.1,45.3,30.16,ENE,78,4.0,6.0,97,0.00,,---,0.00,VWS V14.01,2013-01-16 01:58:00,
2013-01-15 21:03:00,46.2,45.4,30.16,East,87,3.0,3.0,97,0.00,,---,0.00,VWS V14.01,2013-01-16 02:03:00,
2013-01-15 21:08:00,46.2,45.4,30.16,East,88,6.0,6.0,97,0.00,,---,0.00,VWS V14.01,2013-01-16 02:08:00,
2013-01-15 21:13:00,46.3,45.5,30.15,East,95,7.0,7.0,97,0.00,,---,0.00,VWS V14.01,2013-01-16 02:13:00,
2013-01-15 21:18:00,46.2,45.4,30.15,East,99,5.0,6.0,97,0.00,,---,0.00,VWS V14.01,2013-01-16 02:18:00,
2013-01-15 21:23:00,46.3,45.5,30.15,ESE,111,3.0,3.0,97,0.00,,---,0.00,VWS V14.01,2013-01-16 02:23:00,
2013-01-15 21:28:00,46.3,45.5,30.15,East,90,5.0,5.0,97,0.00,,---,0.00,VWS V14.01,2013-01-16 02:28:00,
2013-01-15 21:33:00,46.3,45.5,30.15,East,98,5.0,5.0,97,0.00,,---,0.00,VWS V14.01,2013-01-16 02:33:00,
2013-01-15 21:38:00,46.4,45.6,30.14,East,95,6.0,6.0,97,0.00,,---,0.00,VWS V14.01,2013-01-16 02:38:00,
2013-01-15 21:43:00,46.4,45.6,30.14,East,86,7.0,7.0,97,0.00,,---,0.00,VWS V14.01,2013-01-16 02:43:00,
2013-01-15 21:48:00,46.4,45.6,30.14,East,92,5.0,5.0,97,0.00,,---,0.00,VWS V14.01,2013-01-16 02:48:00,
2013-01-15 21:53:00,46.5,45.7,30.14,East,94,5.0,5.0,97,0.00,,---,0.00,VWS V14.01,2013-01-16 02:53:00,
2013-01-15 21:58:00,46.5,45.7,30.14,ENE,77,4.0,6.0,97,0.00,,---,0.00,VWS V14.01,2013-01-16 02:58:00,
2013-01-15 22:03:00,46.5,45.7,30.14,ENE,78,5.0,7.0,97,0.00,,---,0.00,VWS V14.01,2013-01-16 03:03:00,
2013-01-15 22:08:00,46.5,45.7,30.14,ESE,105,3.0,4.0,97,0.00,,---,0.00,VWS V14.01,2013-01-16 03:08:00,
2013-01-15 22:13:00,46.6,45.8,30.14,East,88,3.0,5.0,97,0.00,,---,0.00,VWS V14.01,2013-01-16 03:13:00,
2013-01-15 22:18:00,46.6,45.8,30.14,ENE,71,2.0,3.0,97,0.00,,---,0.00,VWS V14.01,2013-01-16 03:18:00,
2013-01-15 22:23:00,46.7,45.9,30.14,East,84,2.0,5.0,97,0.00,,---,0.00,VWS V14.01,2013-01-16 03:23:00,
2013-01-15 22:28:00,46.7,45.9,30.14,ENE,71,0.0,3.0,97,0.00,,---,0.00,VWS V14.01,2013-01-16 03:28:00,
2013-01-15 22:33:00,46.7,45.9,30.14,ENE,63,0.0,0.0,97,0.00,,---,0.00,VWS V14.01,2013-01-16 03:33:00,
2013-01-15 22:38:00,46.7,45.9,30.14,ENE,71,1.0,1.0,97,0.00,,---,0.00,VWS V14.01,2013-01-16 03:38:00,
2013-01-15 22:43:00,46.8,46.0,30.14,East,84,1.0,1.0,97,0.00,,---,0.00,VWS V14.01,2013-01-16 03:43:00,
2013-01-15 22:48:00,46.8,46.0,30.14,East,84,0.0,0.0,97,0.00,,---,0.00,VWS V14.01,2013-01-16 03:48:00,
2013-01-15 22:53:00,46.8,46.0,30.14,ESE,109,0.0,0.0,97,0.00,,---,0.00,VWS V14.01,2013-01-16 03:53:00,
2013-01-15 22:58:00,46.9,46.1,30.14,ESE,109,1.0,1.0,97,0.00,,---,0.00,VWS V14.01,2013-01-16 03:58:00,
2013-01-15 23:03:00,46.9,46.1,30.13,SE,128,2.0,3.0,97,0.00,,---,0.00,VWS V14.01,2013-01-16 04:03:00,
2013-01-15 23:08:00,46.9,46.1,30.12,ESE,115,5.0,7.0,97,0.00,,---,0.00,VWS V14.01,2013-01-16 04:08:00,
2013-01-15 23:13:00,46.9,46.1,30.11,ESE,106,3.0,3.0,97,0.00,,---,0.00,VWS V14.01,2013-01-16 04:13:00,
2013-01-15 23:18:00,46.9,46.1,30.11,SE,142,0.0,2.0,97,0.00,,---,0.00,VWS V14.01,2013-01-16 04:18:00,
2013-01-15 23:23:00,46.9,46.1,30.11,East,96,5.0,6.0,97,0.00,,---,0.00,VWS V14.01,2013-01-16 04:23:00,
2013-01-15 23:28:00,47.0,46.2,30.11,ESE,119,5.0,7.0,97,0.00,,---,0.00,VWS V14.01,2013-01-16 04:28:00,
2013-01-15 23:33:00,47.0,46.2,30.11,ESE,105,4.0,7.0,97,0.00,,---,0.00,VWS V14.01,2013-01-16 04:33:00,
2013-01-15 23:38:00,47.1,46.3,30.10,East,82,5.0,8.0,97,0.00,,---,0.00,VWS V14.01,2013-01-16 04:38:00,
2013-01-15 23:43:00,47.1,46.3,30.10,ESE,111,3.0,6.0,97,0.00,,---,0.00,VWS V14.01,2013-01-16 04:43:00,
2013-01-15 23:48:00,47.2,46.4,30.10,ESE,122,3.0,3.0,97,0.00,,---,0.00,VWS V14.01,2013-01-16 04:48:00,
2013-01-15 23:53:00,47.3,46.5,30.10,East,88,6.0,6.0,97,0.00,,---,0.00,VWS V14.01,2013-01-16 04:53:00,
2013-01-15 23:58:00,47.4,46.6,30.10,East,98,3.0,5.0,97,0.00,,---,0.00,VWS V14.01,2013-01-16 04:58:00,